ftp/pub/palmer/observations_modified/2019/October/original_files/AR191006_BASE.txt
Download
Sample DateTime Unit Id WS Avg 2min WD Avg 2min WGS 10min WGD 10min Air Temp Rel Humidity Dew Point Pyranometer Quantum Air Pressure Snow Level Rainfall PW Current Visibility CBase 1 CBase 2 CBase 3 Vert Vis
2019/10/06 00:00:00 BASE 5.35 88 6.17 81 -12.7 83 -15.0 0 0 989.1 NA 0.0000 9999 0 0 0 0
2019/10/06 00:01:00 BASE 5.27 89 6.17 81 -12.8 83 -15.1 0 0 989.1 NA 0.0000 9999 0 0 0 0
2019/10/06 00:02:01 BASE 5.34 86 5.97 82 -12.9 83 -15.2 0 0 989.1 NA 0.0000 9999 0 0 0 0
2019/10/06 00:03:00 BASE 5.30 82 5.92 86 -12.9 83 -15.2 0 0 989.1 NA 0.0000 9999 0 0 0 0
2019/10/06 00:04:01 BASE 5.13 81 5.92 86 -12.9 83 -15.2 0 0 989.1 NA 0.0000 9999 0 0 0 0
2019/10/06 00:05:00 BASE 4.95 80 5.92 86 -12.9 83 -15.1 0 0 989.1 NA 0.0000 9999 0 0 0 0
2019/10/06 00:06:01 BASE 4.79 81 5.92 86 -12.8 83 -15.1 0 0 989.1 NA 0.0000 9999 0 0 0 0
2019/10/06 00:07:00 BASE 4.85 81 5.92 86 -12.8 83 -15.0 0 0 989.1 NA 0.0000 9999 0 0 0 0
2019/10/06 00:08:00 BASE 4.94 79 5.66 82 -12.8 84 -15.0 0 0 989.1 NA 0.0000 9999 0 0 0 0
2019/10/06 00:09:00 BASE 4.76 77 5.66 82 -12.8 84 -14.9 0 0 989.1 NA 0.0000 9999 0 0 0 0
2019/10/06 00:10:00 BASE 4.55 77 5.66 82 -12.8 84 -14.9 0 0 989.1 NA 0.0000 9999 0 0 0 0
2019/10/06 00:11:01 BASE 4.39 77 5.66 82 -12.7 84 -14.9 0 0 989.1 NA 0.0000 9999 0 0 0 0
2019/10/06 00:12:00 BASE 4.13 77 5.50 84 -12.7 84 -14.8 0 0 989.1 NA 0.0000 9999 1770 0 0 0
2019/10/06 00:13:00 BASE 3.97 78 5.30 81 -12.7 84 -14.8 0 0 989.1 NA 0.0000 9999 1640 0 0 0
2019/10/06 00:14:00 BASE 3.90 80 5.30 81 -12.6 84 -14.8 0 0 989.1 NA 0.0000 9999 1570 0 0 0
2019/10/06 00:15:00 BASE 3.74 81 5.30 81 -12.6 84 -14.7 0 0 989.1 NA 0.0000 9999 1640 0 0 0
2019/10/06 00:16:00 BASE 3.62 81 5.30 81 -12.6 84 -14.7 0 0 989.1 NA 0.0000 9999 1740 0 0 0
2019/10/06 00:17:00 BASE 3.59 81 5.30 81 -12.6 84 -14.7 0 0 989.1 NA 0.0000 9999 1870 0 0 0
2019/10/06 00:18:00 BASE 3.55 81 4.73 77 -12.6 84 -14.7 0 0 989.1 NA 0.0000 9999 1870 0 0 0
2019/10/06 00:19:00 BASE 3.42 81 4.73 77 -12.5 84 -14.7 0 0 989.1 NA 0.0000 9999 0 0 0 0
2019/10/06 00:20:00 BASE 3.27 80 4.48 78 -12.5 84 -14.7 0 0 989.2 NA 0.0000 9999 0 0 0 0
2019/10/06 00:21:00 BASE 3.13 76 4.32 75 -12.5 84 -14.6 0 0 989.2 NA 0.0000 9999 1800 0 0 0
2019/10/06 00:22:00 BASE 2.96 72 4.32 75 -12.4 84 -14.5 0 0 989.2 NA 0.0000 9999 1800 0 0 0
2019/10/06 00:23:00 BASE 2.91 67 3.96 81 -12.3 84 -14.4 0 0 989.3 NA 0.0000 9999 1800 0 0 0
2019/10/06 00:24:00 BASE 2.99 58 3.81 81 -12.2 84 -14.4 0 0 989.3 NA 0.0000 9999 1800 0 0 0
2019/10/06 00:25:00 BASE 2.99 52 3.81 81 -12.2 84 -14.3 0 0 989.3 NA 0.0000 9999 1800 0 0 0
2019/10/06 00:26:00 BASE 2.93 48 3.70 82 -12.2 84 -14.3 0 0 989.3 NA 0.0000 9999 1770 0 0 0
2019/10/06 00:27:00 BASE 2.89 48 3.70 82 -12.2 84 -14.4 0 0 989.2 NA 0.0000 9999 1770 0 0 0
2019/10/06 00:28:00 BASE 2.82 51 3.55 79 -12.3 84 -14.4 0 0 989.2 NA 0.0000 9999 1740 0 0 0
2019/10/06 00:29:00 BASE 2.97 52 3.45 53 -12.3 84 -14.4 0 0 989.2 NA 0.0000 9999 1740 0 0 0
2019/10/06 00:30:00 BASE 3.27 52 3.50 53 -12.3 84 -14.5 0 0 989.2 NA 0.0000 9999 1710 0 0 0
2019/10/06 00:31:00 BASE 3.34 52 3.55 50 -12.3 84 -14.5 0 0 989.2 NA 0.0000 9999 1670 0 0 0
2019/10/06 00:32:00 BASE 3.35 52 3.70 55 -12.3 84 -14.5 0 0 989.2 NA 0.0000 9999 1640 0 0 0
2019/10/06 00:33:00 BASE 3.25 52 3.70 55 -12.3 84 -14.5 0 0 989.2 NA 0.0000 9999 1710 0 0 0
2019/10/06 00:34:00 BASE 3.12 51 3.70 55 -12.3 84 -14.5 0 0 989.2 NA 0.0000 9999 1640 0 0 0
2019/10/06 00:35:00 BASE 3.09 48 3.70 55 -12.3 84 -14.5 0 0 989.3 NA 0.0000 9999 1670 0 0 0
2019/10/06 00:36:00 BASE 3.02 47 3.70 55 -12.3 84 -14.5 0 0 989.3 NA 0.0000 9999 1670 0 0 0
2019/10/06 00:37:00 BASE 2.90 47 3.70 55 -12.3 84 -14.5 0 0 989.3 NA 0.0000 9999 1670 0 0 0
2019/10/06 00:38:00 BASE 2.91 45 3.70 55 -12.3 84 -14.5 0 0 989.3 NA 0.0000 9999 1670 0 0 0
2019/10/06 00:39:00 BASE 3.07 47 3.70 55 -12.3 84 -14.5 0 0 989.2 NA 0.0000 9999 1640 0 0 0
2019/10/06 00:40:00 BASE 2.77 45 3.70 55 -12.3 84 -14.4 0 0 989.2 NA 0.0000 9999 1610 0 0 0
2019/10/06 00:41:00 BASE 2.36 41 3.70 55 -12.3 84 -14.4 0 0 989.2 NA 0.0000 9999 1570 0 0 0
2019/10/06 00:42:00 BASE 2.24 37 3.45 53 -12.3 84 -14.4 0 0 989.3 NA 0.0000 9999 1610 0 0 0
2019/10/06 00:43:00 BASE 2.07 29 3.34 49 -12.2 84 -14.4 0 0 989.3 NA 0.0000 9999 1610 0 0 0
2019/10/06 00:44:01 BASE 1.91 17 3.34 49 -12.2 84 -14.4 0 0 989.4 NA 0.0000 9999 1640 0 0 0
2019/10/06 00:45:00 BASE 1.72 12 3.34 49 -12.2 84 -14.4 0 0 989.4 NA 0.0000 9999 1610 0 0 0
2019/10/06 00:46:01 BASE 1.63 14 3.34 49 -12.3 84 -14.4 0 0 989.3 NA 0.0000 9999 1610 0 0 0
2019/10/06 00:47:00 BASE 1.73 17 3.34 49 -12.3 84 -14.5 0 0 989.3 NA 0.0000 9999 1610 0 0 0
2019/10/06 00:48:01 BASE 1.91 21 3.34 49 -12.4 84 -14.5 0 0 989.2 NA 0.0000 9999 1610 0 0 0
2019/10/06 00:49:00 BASE 2.12 26 3.24 52 -12.4 84 -14.5 0 0 989.2 NA 0.0000 9999 1610 0 0 0
2019/10/06 00:50:01 BASE 1.99 28 2.98 42 -12.4 84 -14.5 0 0 989.2 NA 0.0000 9999 1540 0 0 0
2019/10/06 00:51:01 BASE 1.69 30 2.62 33 -12.4 84 -14.5 0 0 989.2 NA 0.0000 9999 1480 0 0 0
2019/10/06 00:52:01 BASE 1.51 33 2.37 7 -12.3 84 -14.4 0 0 989.3 NA 0.0000 9999 1480 0 0 0
2019/10/06 00:53:00 BASE 1.48 40 2.37 7 -12.3 85 -14.4 0 0 989.3 NA 0.0000 9999 1510 0 0 0
2019/10/06 00:54:01 BASE 1.48 48 2.31 29 -12.3 85 -14.3 0 0 989.3 NA 0.0000 9999 1570 0 0 0
2019/10/06 00:55:01 BASE 1.46 49 2.31 29 -12.2 85 -14.2 0 0 989.4 NA 0.0000 9999 1570 0 0 0
2019/10/06 00:56:01 BASE 1.37 57 2.31 29 -12.2 85 -14.2 0 0 989.4 NA 0.0000 9999 1570 0 0 0
2019/10/06 00:57:01 BASE 1.17 65 2.31 29 -12.1 85 -14.1 0 0 989.4 NA 0.0000 9999 1570 0 0 0
2019/10/06 00:58:01 BASE 1.09 60 2.31 29 -12.1 85 -14.1 0 0 989.4 NA 0.0000 9999 1570 0 0 0
2019/10/06 00:59:00 BASE 0.63 52 2.01 31 -12.0 85 -14.0 0 0 989.4 NA 0.0000 9999 1570 0 0 0
2019/10/06 01:00:01 BASE 0.09 36 1.65 49 -12.0 85 -14.0 0 0 989.4 NA 0.0000 9999 1570 0 0 0
2019/10/06 01:01:00 BASE 0.49 352 1.75 312 -12.0 85 -14.0 0 0 989.4 NA 0.0000 9999 1570 0 0 0
2019/10/06 01:02:01 BASE 1.57 318 2.42 319 -12.0 85 -14.1 0 0 989.3 NA 0.0000 9999 1570 0 0 0
2019/10/06 01:03:00 BASE 1.98 316 2.42 319 -12.1 84 -14.2 0 0 989.3 NA 0.0000 9999 1570 0 0 0
2019/10/06 01:04:00 BASE 1.81 320 2.42 319 -12.1 84 -14.2 0 0 989.3 NA 0.0000 9999 1540 0 0 0
2019/10/06 01:05:01 BASE 2.23 325 3.50 315 -12.1 84 -14.3 0 0 989.2 NA 0.0000 9999 1510 0 0 0
2019/10/06 01:06:01 BASE 3.20 318 4.12 301 -12.2 84 -14.4 0 0 989.2 NA 0.0000 9999 1510 0 0 0
2019/10/06 01:07:00 BASE 3.71 315 4.27 316 -12.3 84 -14.4 0 0 989.2 NA 0.0000 9999 1510 0 0 0
2019/10/06 01:08:00 BASE 3.27 321 4.27 316 -12.3 84 -14.5 0 0 989.2 NA 0.0000 9999 1540 0 0 0
2019/10/06 01:09:00 BASE 3.05 325 4.27 316 -12.4 84 -14.5 0 0 989.2 NA 0.0000 9999 1540 0 0 0
2019/10/06 01:10:00 BASE 3.15 330 4.27 316 -12.5 84 -14.5 0 0 989.2 NA 0.0000 9999 1570 0 0 0
2019/10/06 01:11:00 BASE 3.20 333 4.27 316 -12.5 85 -14.5 0 0 989.2 NA 0.0000 9999 1570 0 0 0
2019/10/06 01:12:00 BASE 3.20 336 4.27 316 -12.4 85 -14.4 0 0 989.2 NA 0.0000 9999 1570 0 0 0
2019/10/06 01:13:00 BASE 2.94 337 4.27 316 -12.4 85 -14.4 0 0 989.2 NA 0.0000 9999 1570 0 0 0
2019/10/06 01:14:01 BASE 2.60 339 4.27 316 -12.3 85 -14.3 0 0 989.2 NA 0.0000 9999 1540 0 0 0
2019/10/06 01:15:00 BASE 2.56 338 4.27 316 -12.3 85 -14.3 0 0 989.2 NA 0.0000 9999 1570 0 0 0
2019/10/06 01:16:00 BASE 2.79 335 4.27 316 -12.3 85 -14.3 0 0 989.2 NA 0.0000 9999 1610 0 0 0
2019/10/06 01:17:00 BASE 3.04 334 3.55 338 -12.3 85 -14.3 0 0 989.2 NA 0.0000 9999 1610 0 0 0
2019/10/06 01:18:00 BASE 3.10 329 3.55 338 -12.3 85 -14.3 0 0 989.2 NA 0.0000 9999 1570 0 0 0
2019/10/06 01:19:00 BASE 2.87 324 3.55 338 -12.4 85 -14.4 0 0 989.2 NA 0.0000 9999 1670 0 0 0
2019/10/06 01:20:00 BASE 3.02 329 3.65 342 -12.4 85 -14.4 0 0 989.2 NA 0.0000 9999 1710 0 0 0
2019/10/06 01:21:00 BASE 3.22 343 3.65 342 -12.4 85 -14.4 0 0 989.2 NA 0.0000 9999 1710 0 0 0
2019/10/06 01:22:00 BASE 3.15 4 3.65 342 -12.4 85 -14.4 0 0 989.3 NA 0.0000 9999 1670 0 0 0
2019/10/06 01:23:00 BASE 3.12 21 3.65 342 -12.5 85 -14.5 0 0 989.3 NA 0.0000 9999 1710 0 0 0
2019/10/06 01:24:00 BASE 3.00 29 3.65 342 -12.6 85 -14.6 0 0 989.3 NA 0.0000 9999 1670 0 0 0
2019/10/06 01:25:01 BASE 2.93 30 3.65 342 -12.6 85 -14.6 0 0 989.2 NA 0.0000 9999 1710 0 0 0
2019/10/06 01:26:00 BASE 3.13 36 3.65 45 -12.7 85 -14.6 0 0 989.2 NA 0.0000 9999 1670 0 0 0
2019/10/06 01:27:00 BASE 3.40 43 3.65 42 -12.7 85 -14.7 0 0 989.2 NA 0.0000 9999 1670 0 0 0
2019/10/06 01:28:00 BASE 3.36 44 3.81 46 -12.7 86 -14.6 0 0 989.2 NA 0.0000 9999 1710 0 0 0
2019/10/06 01:29:00 BASE 3.43 42 3.86 38 -12.7 86 -14.6 0 0 989.3 NA 0.0000 9999 1710 0 0 0
2019/10/06 01:30:00 BASE 3.61 38 4.12 34 -12.7 86 -14.5 0 0 989.3 NA 0.0000 9999 1740 0 0 0
2019/10/06 01:31:00 BASE 3.78 36 4.17 39 -12.7 86 -14.5 0 0 989.2 NA 0.0000 9999 1740 0 0 0
2019/10/06 01:32:00 BASE 3.67 39 4.17 39 -12.7 86 -14.6 0 0 989.2 NA 0.0000 9999 1740 0 0 0
2019/10/06 01:33:00 BASE 3.14 41 4.17 39 -12.7 86 -14.6 0 0 989.2 NA 0.0000 9999 1710 0 0 0
2019/10/06 01:34:00 BASE 2.98 41 4.17 39 -12.8 86 -14.6 0 0 989.2 NA 0.0000 9999 1740 0 0 0
2019/10/06 01:35:00 BASE 3.16 42 4.17 39 -12.8 86 -14.7 0 0 989.2 NA 0.0000 9999 1710 0 0 0
2019/10/06 01:36:00 BASE 3.18 42 4.17 39 -12.9 86 -14.7 0 0 989.2 NA 0.0000 9999 1740 0 0 0
2019/10/06 01:37:00 BASE 3.14 46 4.17 39 -12.9 86 -14.7 0 0 989.2 NA 0.0000 9999 1740 0 0 0
2019/10/06 01:38:00 BASE 3.27 50 4.17 39 -12.9 86 -14.7 0 0 989.2 NA 0.0000 9999 1740 0 0 0
2019/10/06 01:39:00 BASE 3.39 50 4.17 39 -12.8 86 -14.7 0 0 989.2 NA 0.0000 9999 1710 0 0 0
2019/10/06 01:40:00 BASE 3.49 46 4.17 39 -12.8 86 -14.6 0 0 989.2 NA 0.0000 9999 1670 0 0 0
2019/10/06 01:41:00 BASE 3.38 43 4.01 46 -12.7 86 -14.6 0 0 989.2 NA 0.0000 9999 1710 0 0 0
2019/10/06 01:42:00 BASE 3.15 41 4.01 46 -12.7 86 -14.5 0 0 989.2 NA 0.0000 9999 0 0 0 0
2019/10/06 01:43:00 BASE 3.14 38 4.01 46 -12.7 86 -14.5 0 0 989.2 NA 0.0000 9999 1710 0 0 0
2019/10/06 01:44:00 BASE 3.17 36 4.01 46 -12.7 86 -14.6 0 0 989.2 NA 0.0000 9999 1670 0 0 0
2019/10/06 01:45:00 BASE 3.10 37 4.01 46 -12.8 86 -14.6 0 0 989.2 NA 0.0000 9999 1710 0 0 0
2019/10/06 01:46:00 BASE 2.92 36 4.01 46 -12.8 86 -14.6 0 0 989.2 NA 0.0000 9999 1740 0 0 0
2019/10/06 01:47:00 BASE 2.93 36 4.01 46 -12.8 86 -14.6 0 0 989.1 NA 0.0000 9999 0 0 0 0
2019/10/06 01:48:00 BASE 3.04 36 4.01 46 -12.8 86 -14.7 0 0 989.1 NA 0.0000 9999 0 0 0 0
2019/10/06 01:49:00 BASE 3.05 38 4.01 46 -12.8 86 -14.7 0 0 989.1 NA 0.0000 9999 0 0 0 0
2019/10/06 01:50:00 BASE 2.94 40 3.50 33 -12.9 86 -14.7 0 0 989.1 NA 0.0000 9999 0 0 0 0
2019/10/06 01:51:00 BASE 3.00 42 3.50 33 -12.9 86 -14.8 0 0 989.1 NA 0.0000 9999 0 0 0 0
2019/10/06 01:52:00 BASE 3.12 46 3.50 33 -12.9 86 -14.8 0 0 989.1 NA 0.0000 9999 0 0 0 0
2019/10/06 01:53:00 BASE 3.27 47 3.81 47 -12.9 86 -14.8 0 0 989.1 NA 0.0000 9999 0 0 0 0
2019/10/06 01:54:00 BASE 3.59 47 4.01 46 -12.9 86 -14.7 0 0 989.1 NA 0.0000 9999 0 0 0 0
2019/10/06 01:55:00 BASE 3.83 49 4.32 46 -12.9 86 -14.7 0 0 989.1 NA 0.0000 9999 0 0 0 0
2019/10/06 01:56:00 BASE 3.88 52 4.32 46 -12.8 86 -14.7 0 0 989.1 NA 0.0000 9999 0 0 0 0
2019/10/06 01:57:00 BASE 3.82 53 4.32 46 -12.8 86 -14.7 0 0 989.1 NA 0.0000 9999 0 0 0 0
2019/10/06 01:58:00 BASE 3.82 55 4.32 63 -12.8 86 -14.7 0 0 989.1 NA 0.0000 9999 0 0 0 0
2019/10/06 01:59:00 BASE 3.98 58 4.32 58 -12.9 86 -14.7 0 0 989.1 NA 0.0000 9999 0 0 0 0
2019/10/06 02:00:00 BASE 4.05 58 4.32 58 -12.8 86 -14.7 0 0 989.1 NA 0.0000 9999 0 0 0 0
2019/10/06 02:01:00 BASE 3.97 54 4.32 58 -12.8 86 -14.7 0 0 989.1 NA 0.0000 9999 0 0 0 0
2019/10/06 02:02:00 BASE 3.86 49 4.32 58 -12.8 86 -14.6 0 0 989.1 NA 0.0000 9999 0 0 0 0
2019/10/06 02:03:00 BASE 3.55 44 4.32 58 -12.7 86 -14.6 0 0 989.1 NA 0.0000 9999 0 0 0 0
2019/10/06 02:04:00 BASE 3.19 40 4.32 58 -12.7 86 -14.6 0 0 989.1 NA 0.0000 9999 0 0 0 0
2019/10/06 02:05:00 BASE 2.99 40 4.32 58 -12.7 86 -14.5 0 0 989.1 NA 0.0000 9999 0 0 0 0
2019/10/06 02:06:00 BASE 2.81 39 4.32 58 -12.7 86 -14.5 0 0 989.2 NA 0.0000 9999 0 0 0 0
2019/10/06 02:07:00 BASE 2.68 36 4.32 58 -12.7 86 -14.5 0 0 989.2 NA 0.0000 9999 0 0 0 0
2019/10/06 02:08:00 BASE 2.93 35 4.32 58 -12.6 86 -14.5 0 0 989.2 NA 0.0000 9999 0 0 0 0
2019/10/06 02:09:00 BASE 3.12 39 4.22 49 -12.6 86 -14.5 0 0 989.2 NA 0.0000 9999 0 0 0 0
2019/10/06 02:10:00 BASE 3.06 43 4.22 49 -12.6 86 -14.5 0 0 989.2 NA 0.0000 9999 0 0 0 0
2019/10/06 02:11:00 BASE 2.88 45 4.01 43 -12.6 86 -14.5 0 0 989.2 NA 0.0000 9999 0 0 0 0
2019/10/06 02:12:00 BASE 2.88 47 3.91 43 -12.6 86 -14.5 0 0 989.2 NA 0.0000 9999 0 0 0 0
2019/10/06 02:13:00 BASE 2.99 52 3.55 50 -12.6 86 -14.5 0 0 989.1 NA 0.0000 9999 0 0 0 0
2019/10/06 02:14:00 BASE 3.01 57 3.55 50 -12.6 86 -14.5 0 0 989.1 NA 0.0000 9999 0 0 0 0
2019/10/06 02:15:00 BASE 3.08 57 3.55 50 -12.7 86 -14.5 0 0 989.1 NA 0.0000 9999 0 0 0 0
2019/10/06 02:16:00 BASE 3.30 53 3.60 51 -12.7 86 -14.5 0 0 989.1 NA 0.0000 9999 0 0 0 0
2019/10/06 02:17:00 BASE 3.47 51 3.60 49 -12.7 86 -14.5 0 0 989.1 NA 0.0000 9999 0 0 0 0
2019/10/06 02:18:00 BASE 3.40 49 3.60 49 -12.7 86 -14.5 0 0 989.1 NA 0.0000 9999 0 0 0 0
2019/10/06 02:19:00 BASE 3.42 48 3.65 48 -12.7 86 -14.6 0 0 989.1 NA 0.0000 9999 0 0 0 0
2019/10/06 02:20:00 BASE 3.42 49 3.65 48 -12.7 86 -14.6 0 0 989.1 NA 0.0000 9999 0 0 0 0
2019/10/06 02:21:00 BASE 3.20 51 3.65 48 -12.7 86 -14.6 0 0 989.1 NA 0.0000 9999 0 0 0 0
2019/10/06 02:22:00 BASE 3.02 52 3.65 48 -12.7 86 -14.6 0 0 989.1 NA 0.0000 9999 0 0 0 0
2019/10/06 02:23:00 BASE 3.00 54 3.65 48 -12.7 86 -14.6 0 0 989.1 NA 0.0000 9999 0 0 0 0
2019/10/06 02:24:00 BASE 3.05 57 3.65 48 -12.7 86 -14.5 0 0 989.1 NA 0.0000 9999 0 0 0 0
2019/10/06 02:25:00 BASE 3.15 58 3.65 48 -12.6 86 -14.5 0 0 989.1 NA 0.0000 9999 0 0 0 0
2019/10/06 02:26:00 BASE 3.36 55 3.81 48 -12.6 86 -14.5 0 0 989.1 NA 0.0000 9999 0 0 0 0
2019/10/06 02:27:00 BASE 3.69 52 3.96 50 -12.6 86 -14.5 0 0 989.2 NA 0.0000 9999 0 0 0 0
2019/10/06 02:28:00 BASE 3.88 49 4.06 48 -12.6 86 -14.5 0 0 989.2 NA 0.0000 9999 0 0 0 0
2019/10/06 02:29:00 BASE 3.74 49 4.06 48 -12.7 86 -14.6 0 0 989.2 NA 0.0000 9999 0 0 0 0
2019/10/06 02:30:00 BASE 3.49 52 4.06 48 -12.7 85 -14.6 0 0 989.1 NA 0.0000 9999 0 0 0 0
2019/10/06 02:31:00 BASE 3.52 54 4.06 48 -12.7 85 -14.7 0 0 989.1 NA 0.0000 9999 0 0 0 0
2019/10/06 02:32:00 BASE 3.48 53 4.06 48 -12.7 85 -14.7 0 0 989.1 NA 0.0000 9999 0 0 0 0
2019/10/06 02:33:00 BASE 3.24 50 4.06 48 -12.7 85 -14.7 0 0 989.1 NA 0.0000 9999 0 0 0 0
2019/10/06 02:34:00 BASE 3.11 50 4.06 48 -12.8 85 -14.7 0 0 989.1 NA 0.0000 9999 0 0 0 0
2019/10/06 02:35:00 BASE 3.25 50 4.06 48 -12.8 85 -14.8 0 0 989.1 NA 0.0000 9999 0 0 0 0
2019/10/06 02:36:00 BASE 3.35 46 4.06 48 -12.8 85 -14.8 0 0 989.1 NA 0.0000 9999 0 0 0 0
2019/10/06 02:37:00 BASE 3.12 45 4.06 48 -12.8 85 -14.8 0 0 989.1 NA 0.0000 9999 0 0 0 0
2019/10/06 02:38:00 BASE 2.99 46 3.91 58 -12.8 85 -14.8 0 0 989.1 NA 0.0000 9999 0 0 0 0
2019/10/06 02:39:00 BASE 3.16 49 3.91 58 -12.8 85 -14.8 0 0 989.1 NA 0.0000 9999 0 0 0 0
2019/10/06 02:40:00 BASE 3.22 53 3.91 58 -12.8 85 -14.8 0 0 989.1 NA 0.0000 9999 0 0 0 0
2019/10/06 02:41:00 BASE 3.10 54 3.65 51 -12.8 85 -14.8 0 0 989.1 NA 0.0000 9999 0 0 0 0
2019/10/06 02:42:00 BASE 3.28 55 3.65 51 -12.8 85 -14.7 0 0 989.1 NA 0.0000 9999 0 0 0 0
2019/10/06 02:43:00 BASE 3.50 55 3.70 52 -12.8 85 -14.7 0 0 989.1 NA 0.0000 9999 0 0 0 0
2019/10/06 02:44:00 BASE 3.62 54 3.91 60 -12.7 86 -14.6 0 0 989.1 NA 0.0000 9999 0 0 0 0
2019/10/06 02:45:00 BASE 3.54 53 3.91 60 -12.7 86 -14.6 0 0 989.1 NA 0.0000 9999 0 0 0 0
2019/10/06 02:46:00 BASE 3.29 55 3.91 60 -12.7 86 -14.6 0 0 989.1 NA 0.0000 9999 0 0 0 0
2019/10/06 02:47:00 BASE 3.26 60 3.91 60 -12.6 86 -14.5 0 0 989.1 NA 0.0000 9999 0 0 0 0
2019/10/06 02:48:00 BASE 3.24 64 3.91 60 -12.6 85 -14.5 0 0 989.1 NA 0.0000 9999 0 0 0 0
2019/10/06 02:49:00 BASE 3.28 66 3.91 60 -12.6 85 -14.6 0 0 989.0 NA 0.0000 9999 0 0 0 0
2019/10/06 02:50:00 BASE 3.49 69 3.91 60 -12.6 85 -14.6 0 0 989.0 NA 0.0000 9999 0 0 0 0
2019/10/06 02:51:00 BASE 3.57 71 3.91 78 -12.6 85 -14.6 0 0 989.0 NA 0.0000 9999 0 0 0 0
2019/10/06 02:52:00 BASE 3.73 74 4.12 77 -12.6 85 -14.6 0 0 989.0 NA 0.0000 9999 0 0 0 0
2019/10/06 02:53:00 BASE 3.85 71 4.12 77 -12.6 85 -14.6 0 0 989.0 NA 0.0000 9999 0 0 0 0
2019/10/06 02:54:00 BASE 3.59 65 4.12 77 -12.6 85 -14.5 0 0 989.0 NA 0.0000 9999 0 0 0 0
2019/10/06 02:55:00 BASE 3.41 66 4.12 77 -12.5 85 -14.5 0 0 989.0 NA 0.0000 9999 0 0 0 0
2019/10/06 02:56:00 BASE 3.34 63 4.12 77 -12.4 85 -14.4 0 0 989.0 NA 0.0000 9999 0 0 0 0
2019/10/06 02:57:00 BASE 3.13 57 4.12 77 -12.4 85 -14.4 0 0 989.0 NA 0.0000 9999 0 0 0 0
2019/10/06 02:58:00 BASE 2.95 51 4.12 77 -12.4 85 -14.4 0 0 989.0 NA 0.0000 9999 0 0 0 0
2019/10/06 02:59:00 BASE 3.03 49 4.12 77 -12.3 85 -14.3 0 0 989.0 NA 0.0000 9999 0 0 0 0
2019/10/06 03:00:00 BASE 3.08 52 4.12 77 -12.3 85 -14.3 0 0 989.0 NA 0.0000 9999 0 0 0 0
2019/10/06 03:01:00 BASE 2.95 51 4.12 77 -12.3 85 -14.3 0 0 989.0 NA 0.0000 9999 0 0 0 0
2019/10/06 03:02:00 BASE 2.89 51 4.06 74 -12.4 85 -14.4 0 0 989.0 NA 0.0000 9999 0 0 0 0
2019/10/06 03:03:00 BASE 2.75 51 3.76 67 -12.4 85 -14.5 0 0 989.0 NA 0.0000 9999 0 0 0 0
2019/10/06 03:04:00 BASE 2.66 52 3.76 67 -12.5 85 -14.5 0 0 989.0 NA 0.0000 9999 0 0 0 0
2019/10/06 03:05:00 BASE 3.12 60 4.22 67 -12.6 85 -14.6 0 0 989.0 NA 0.0000 9999 0 0 0 0
2019/10/06 03:06:00 BASE 3.64 66 4.22 67 -12.6 85 -14.7 0 0 989.0 NA 0.0000 9999 0 0 0 0
2019/10/06 03:07:00 BASE 3.71 70 4.22 67 -12.6 85 -14.6 0 0 988.9 NA 0.0000 9999 0 0 0 0
2019/10/06 03:08:00 BASE 3.49 73 4.22 67 -12.6 85 -14.6 0 0 988.9 NA 0.0000 9999 0 0 0 0
2019/10/06 03:09:00 BASE 3.23 70 4.22 67 -12.6 85 -14.6 0 0 988.9 NA 0.0000 9999 0 0 0 0
2019/10/06 03:10:00 BASE 3.09 66 4.22 67 -12.5 85 -14.5 0 0 989.0 NA 0.0000 9999 0 0 0 0
2019/10/06 03:11:00 BASE 2.87 64 4.22 67 -12.5 85 -14.5 0 0 989.0 NA 0.0000 9999 0 0 0 0
2019/10/06 03:12:00 BASE 2.53 63 4.22 67 -12.5 85 -14.5 0 0 989.0 NA 0.0000 9999 0 0 0 0
2019/10/06 03:13:00 BASE 2.25 59 4.22 67 -12.4 85 -14.4 0 0 989.0 NA 0.0000 9999 0 0 0 0
2019/10/06 03:14:00 BASE 2.15 53 4.22 67 -12.3 85 -14.4 0 0 989.0 NA 0.0000 9999 0 0 0 0
2019/10/06 03:15:00 BASE 2.12 47 4.01 68 -12.3 85 -14.3 0 0 989.0 NA 0.0000 9999 0 0 0 0
2019/10/06 03:16:00 BASE 1.97 43 3.81 74 -12.2 84 -14.3 0 0 989.0 NA 0.0000 9999 0 0 0 0
2019/10/06 03:17:00 BASE 1.70 43 3.65 73 -12.1 84 -14.2 0 0 989.0 NA 0.0000 9999 0 0 0 0
2019/10/06 03:18:00 BASE 0.88 37 3.40 64 -12.0 84 -14.1 0 0 989.0 NA 0.0000 9999 0 0 0 0
2019/10/06 03:19:00 BASE 0.10 37 3.24 65 -12.0 84 -14.1 0 0 989.0 NA 0.0000 9999 0 0 0 0
2019/10/06 03:20:00 BASE 0.00 33 3.14 65 -12.0 84 -14.1 0 0 988.9 NA 0.0000 9999 0 0 0 0
2019/10/06 03:21:00 BASE 0.00 45 2.57 67 -12.0 84 -14.2 0 0 989.0 NA 0.0000 9999 0 0 0 0
2019/10/06 03:22:00 BASE 0.00 66 2.31 46 -12.0 83 -14.3 0 0 988.9 NA 0.0000 9999 0 0 0 0
2019/10/06 03:23:00 BASE 0.30 76 2.31 46 -12.1 83 -14.4 0 0 988.9 NA 0.0000 9999 0 0 0 0
2019/10/06 03:24:00 BASE 0.30 88 2.31 46 -12.2 83 -14.5 0 0 988.9 NA 0.0000 9999 0 0 0 0
2019/10/06 03:25:00 BASE 0.00 105 2.06 44 -12.2 83 -14.5 0 0 988.9 NA 0.0000 9999 0 0 0 0
2019/10/06 03:26:00 BASE 0.00 126 1.75 40 -12.2 83 -14.5 0 0 988.9 NA 0.0000 9999 0 0 0 0
2019/10/06 03:27:00 BASE 0.09 113 1.39 88 -12.2 83 -14.5 0 0 988.9 NA 0.0000 9999 0 0 0 0
2019/10/06 03:28:00 BASE 0.13 75 1.39 88 -12.2 83 -14.5 0 0 988.9 NA 0.0000 9999 0 0 0 0
2019/10/06 03:29:00 BASE 0.09 63 1.39 88 -12.1 83 -14.4 0 0 988.9 NA 0.0000 9999 0 0 0 0
2019/10/06 03:30:00 BASE 0.18 82 1.39 88 -12.0 83 -14.3 0 0 988.9 NA 0.0000 9999 0 0 0 0
2019/10/06 03:31:00 BASE 0.72 98 1.59 99 -11.9 83 -14.2 0 0 988.9 NA 0.0000 9999 0 0 0 0
2019/10/06 03:32:00 BASE 1.38 99 1.95 96 -11.8 83 -14.1 0 0 988.9 NA 0.0000 9999 0 0 0 0
2019/10/06 03:33:00 BASE 1.25 104 1.95 96 -11.8 82 -14.2 0 0 988.8 NA 0.0000 9999 0 0 0 0
2019/10/06 03:34:00 BASE 0.79 110 1.95 96 -11.9 82 -14.3 0 0 988.9 NA 0.0000 9999 0 0 0 0
2019/10/06 03:35:00 BASE 0.53 80 1.95 96 -12.0 82 -14.4 0 0 988.9 NA 0.0000 9999 0 0 0 0
2019/10/06 03:36:00 BASE 0.20 28 1.95 96 -12.1 82 -14.6 0 0 988.9 NA 0.0000 9999 0 0 0 0
2019/10/06 03:37:00 BASE 0.00 356 1.95 96 -12.2 82 -14.6 0 0 988.9 NA 0.0000 9999 0 0 0 0
2019/10/06 03:38:00 BASE 0.00 331 1.95 96 -12.2 82 -14.7 0 0 988.9 NA 0.0000 9999 0 0 0 0
2019/10/06 03:39:00 BASE 0.00 327 1.95 96 -12.2 82 -14.7 0 0 988.9 NA 0.0000 9999 0 0 0 0
2019/10/06 03:40:00 BASE 0.00 327 1.95 96 -12.2 82 -14.7 0 0 988.9 NA 0.0000 9999 0 0 0 0
2019/10/06 03:41:00 BASE 0.49 325 1.95 96 -12.2 82 -14.6 0 0 988.9 NA 0.0000 9999 0 0 0 0
2019/10/06 03:42:00 BASE 1.14 325 1.49 323 -12.1 82 -14.6 0 0 988.9 NA 0.0000 9999 0 0 0 0
2019/10/06 03:43:00 BASE 1.38 328 1.75 340 -12.1 81 -14.7 0 0 988.9 NA 0.0000 9999 0 0 0 0
2019/10/06 03:44:00 BASE 1.58 334 1.80 338 -12.1 81 -14.8 0 0 988.9 NA 0.0000 9999 0 0 0 0
2019/10/06 03:45:00 BASE 1.48 338 1.80 338 -12.1 80 -14.8 0 0 988.9 NA 0.0000 9999 0 0 0 0
2019/10/06 03:46:00 BASE 1.23 338 1.80 338 -12.0 80 -14.8 0 0 988.9 NA 0.0000 9999 0 0 0 0
2019/10/06 03:47:00 BASE 0.77 343 1.80 338 -12.0 79 -14.9 0 0 988.9 NA 0.0000 9999 0 0 0 0
2019/10/06 03:48:00 BASE 0.18 351 1.80 338 -11.9 79 -14.8 0 0 988.9 NA 0.0000 9999 0 0 0 0
2019/10/06 03:49:00 BASE 0.00 353 1.80 338 -11.9 79 -14.8 0 0 988.8 NA 0.0000 9999 0 0 0 0
2019/10/06 03:50:00 BASE 0.00 357 1.80 338 -11.9 79 -14.8 0 0 988.8 NA 0.0000 9999 0 0 0 0
2019/10/06 03:51:00 BASE 0.00 5 1.80 338 -11.9 79 -14.8 0 0 988.7 NA 0.0000 9999 0 0 0 0
2019/10/06 03:52:00 BASE 0.00 8 1.80 338 -11.9 79 -14.8 0 0 988.7 NA 0.0000 9999 0 0 0 0
2019/10/06 03:53:00 BASE 0.00 10 1.80 338 -11.9 79 -14.8 0 0 988.7 NA 0.0000 9999 0 0 0 0
2019/10/06 03:54:00 BASE 0.00 17 1.65 338 -11.9 79 -14.8 0 0 988.7 NA 0.0000 9999 0 0 0 0
2019/10/06 03:55:00 BASE 0.00 23 1.29 340 -11.9 79 -14.8 0 0 988.7 NA 0.0000 9999 0 0 0 0
2019/10/06 03:56:00 BASE 0.00 24 1.08 340 -11.8 79 -14.7 0 0 988.7 NA 0.0000 9999 0 0 0 0
2019/10/06 03:57:00 BASE 0.00 24 M M -11.8 79 -14.7 0 0 988.7 NA 0.0000 9999 0 0 0 0
2019/10/06 03:58:00 BASE 0.00 24 M M -11.8 79 -14.7 0 0 988.7 NA 0.0000 9999 0 0 0 0
2019/10/06 03:59:00 BASE 0.00 24 M M -11.8 79 -14.7 0 0 988.7 NA 0.0000 9999 0 0 0 0
2019/10/06 04:00:00 BASE 0.00 24 M M -11.8 78 -14.8 0 0 988.7 NA 0.0000 9999 0 0 0 0
2019/10/06 04:01:00 BASE 0.00 24 M M -11.7 78 -14.8 0 0 988.7 NA 0.0000 9999 0 0 0 0
2019/10/06 04:02:00 BASE 0.00 25 M M -11.7 78 -14.8 0 0 988.7 NA 0.0000 9999 0 0 0 0
2019/10/06 04:03:00 BASE 0.00 31 M M -11.7 78 -14.8 0 0 988.7 NA 0.0000 9999 0 0 0 0
2019/10/06 04:04:00 BASE 0.00 37 M M -11.7 78 -14.7 0 0 988.7 NA 0.0000 9999 0 0 0 0
2019/10/06 04:05:00 BASE 0.00 41 M M -11.7 78 -14.7 0 0 988.7 NA 0.0000 9999 0 0 0 0
2019/10/06 04:06:00 BASE 0.00 46 M M -11.7 78 -14.8 0 0 988.7 NA 0.0000 9999 0 0 0 0
2019/10/06 04:07:00 BASE 0.00 49 M M -11.7 78 -14.8 0 0 988.7 NA 0.0000 9999 0 0 0 0
2019/10/06 04:08:00 BASE 0.04 51 1.03 51 -11.7 78 -14.8 0 0 988.7 NA 0.0000 9999 0 0 0 0
2019/10/06 04:09:00 BASE 0.04 51 1.03 51 -11.8 78 -14.8 0 0 988.7 NA 0.0000 9999 0 0 0 0
2019/10/06 04:10:00 BASE 0.00 54 1.03 51 -11.8 78 -14.9 0 0 988.7 NA 0.0000 9999 0 0 0 0
2019/10/06 04:11:00 BASE 0.13 72 1.08 88 -11.8 77 -14.9 0 0 988.7 NA 0.0000 9999 0 0 0 0
2019/10/06 04:12:00 BASE 0.13 91 1.08 88 -11.8 77 -15.0 0 0 988.7 NA 0.0000 9999 0 0 0 0
2019/10/06 04:13:00 BASE 0.00 86 1.08 88 -11.8 77 -15.0 0 0 988.7 NA 0.0000 9999 0 0 0 0
2019/10/06 04:14:00 BASE 0.00 72 1.08 88 -11.8 77 -15.0 0 0 988.7 NA 0.0000 9999 0 0 0 0
2019/10/06 04:15:00 BASE 0.00 66 1.08 88 -11.7 77 -14.9 0 0 988.6 NA 0.0000 9999 0 0 0 0
2019/10/06 04:16:00 BASE 0.00 64 1.08 88 -11.7 77 -14.8 0 0 988.6 NA 0.0000 9999 0 0 0 0
2019/10/06 04:17:00 BASE 0.00 66 1.08 88 -11.6 77 -14.8 0 0 988.5 NA 0.0000 9999 11250 0 0 0
2019/10/06 04:18:00 BASE 0.00 80 1.08 88 -11.6 77 -14.8 0 0 988.5 NA 0.0000 9999 10830 0 0 0
2019/10/06 04:19:00 BASE 0.04 92 1.08 88 -11.6 77 -14.8 0 0 988.5 NA 0.0000 9999 0 0 0 0
2019/10/06 04:20:00 BASE 0.04 91 1.08 88 -11.6 76 -14.9 0 0 988.5 NA 0.0000 9999 0 0 0 0
2019/10/06 04:21:00 BASE 0.00 90 1.03 99 -11.6 76 -15.0 0 0 988.5 NA 0.0000 9999 0 0 0 0
2019/10/06 04:22:00 BASE 0.00 90 1.03 99 -11.6 76 -14.9 0 0 988.5 NA 0.0000 9999 0 0 0 0
2019/10/06 04:23:00 BASE 0.00 91 1.03 99 -11.5 76 -15.0 0 0 988.5 NA 0.0000 9999 0 0 0 0
2019/10/06 04:24:00 BASE 0.23 97 1.18 102 -11.5 76 -15.0 0 0 988.5 NA 0.0000 9999 0 0 0 0
2019/10/06 04:25:00 BASE 0.92 101 1.65 92 -11.5 75 -15.0 0 0 988.4 NA 0.0000 9999 0 0 0 0
2019/10/06 04:26:00 BASE 1.05 108 1.65 92 -11.5 75 -14.9 0 0 988.4 NA 0.0000 9999 0 0 0 0
2019/10/06 04:27:00 BASE 0.86 124 1.65 92 -11.5 75 -15.0 0 0 988.4 NA 0.0000 9999 0 0 0 0
2019/10/06 04:28:00 BASE 0.92 132 1.65 92 -11.5 76 -15.0 0 0 988.4 NA 0.0000 9999 0 0 0 0
2019/10/06 04:29:00 BASE 1.09 139 1.65 92 -11.6 76 -15.0 0 0 988.4 NA 0.0000 9999 0 0 0 0
2019/10/06 04:30:00 BASE 1.54 142 1.95 137 -11.6 76 -15.0 0 0 988.4 NA 0.0000 9999 0 0 0 0
2019/10/06 04:31:00 BASE 1.88 137 2.21 136 -11.7 76 -15.0 0 0 988.4 NA 0.0000 9999 0 0 0 0
2019/10/06 04:32:00 BASE 1.85 136 2.21 136 -11.8 76 -15.1 0 0 988.4 NA 0.0000 9999 0 0 0 0
2019/10/06 04:33:00 BASE 1.71 139 2.21 136 -11.8 77 -15.1 0 0 988.4 NA 0.0000 9999 0 0 0 0
2019/10/06 04:34:00 BASE 1.83 140 2.31 141 -11.9 77 -15.1 0 0 988.4 NA 0.0000 9999 0 0 0 0
2019/10/06 04:35:00 BASE 1.98 141 2.31 141 -11.8 77 -15.0 0 0 988.4 NA 0.0000 9999 0 0 0 0
2019/10/06 04:36:00 BASE 1.92 146 2.31 141 -11.8 78 -14.9 0 0 988.4 NA 0.0000 9999 0 0 0 0
2019/10/06 04:37:00 BASE 1.95 152 2.31 150 -11.8 78 -14.8 0 0 988.4 NA 0.0000 9999 0 0 0 0
2019/10/06 04:38:00 BASE 2.09 157 2.31 159 -11.8 79 -14.7 0 0 988.4 NA 0.0000 9999 0 0 0 0
2019/10/06 04:39:00 BASE 1.41 152 2.31 159 -11.7 79 -14.7 0 0 988.4 NA 0.0000 9999 0 0 0 0
2019/10/06 04:40:00 BASE 1.18 149 2.31 159 -11.7 79 -14.6 0 0 988.4 NA 0.0000 9999 0 0 0 0
2019/10/06 04:41:00 BASE 1.66 148 2.31 159 -11.7 79 -14.6 0 0 988.4 NA 0.0000 9999 0 0 0 0
2019/10/06 04:42:00 BASE 1.69 141 2.31 159 -11.7 80 -14.5 0 0 988.4 NA 0.0000 9999 0 0 0 0
2019/10/06 04:43:00 BASE 1.21 137 2.31 159 -11.7 80 -14.5 0 0 988.4 NA 0.0000 9999 0 0 0 0
2019/10/06 04:44:00 BASE 0.84 136 2.31 159 -11.7 80 -14.4 0 0 988.4 NA 0.0000 9999 0 0 0 0
2019/10/06 04:45:00 BASE 1.28 138 2.31 159 -11.7 80 -14.4 0 0 988.4 NA 0.0000 9999 0 0 0 0
2019/10/06 04:46:00 BASE 1.44 141 2.31 159 -11.7 80 -14.4 0 0 988.4 NA 0.0000 9999 0 0 0 0
2019/10/06 04:47:00 BASE 1.23 150 2.31 159 -11.7 80 -14.4 0 0 988.4 NA 0.0000 9999 0 0 0 0
2019/10/06 04:48:00 BASE 1.23 157 2.11 137 -11.7 81 -14.4 0 0 988.4 NA 0.0000 9999 0 0 0 0
2019/10/06 04:49:00 BASE 1.19 156 2.11 137 -11.7 81 -14.3 0 0 988.4 NA 0.0000 9999 0 0 0 0
2019/10/06 04:50:00 BASE 0.89 150 2.11 137 -11.7 81 -14.3 0 0 988.4 NA 0.0000 9999 0 0 0 0
2019/10/06 04:51:00 BASE 0.41 139 2.06 137 -11.7 81 -14.3 0 0 988.4 NA 0.0000 9999 0 0 0 0
2019/10/06 04:52:00 BASE 0.55 137 1.85 144 -11.7 81 -14.3 0 0 988.4 NA 0.0000 9999 0 0 0 0
2019/10/06 04:53:00 BASE 0.83 142 1.85 144 -11.7 81 -14.3 0 0 988.4 NA 0.0000 9999 0 0 0 0
2019/10/06 04:54:00 BASE 1.01 144 1.85 144 -11.7 81 -14.3 0 0 988.4 NA 0.0000 9999 0 0 0 0
2019/10/06 04:55:00 BASE 1.26 145 1.54 140 -11.7 81 -14.3 0 0 988.4 NA 0.0000 9999 0 0 0 0
2019/10/06 04:56:00 BASE 0.77 142 1.49 156 -11.7 81 -14.3 0 0 988.4 NA 0.0000 9999 0 0 0 0
2019/10/06 04:57:00 BASE 0.15 139 1.49 156 -11.8 81 -14.3 0 0 988.4 NA 0.0000 9999 0 0 0 0
2019/10/06 04:58:00 BASE 0.00 137 1.44 146 -11.8 81 -14.3 0 0 988.4 NA 0.0000 9999 0 0 0 0
2019/10/06 04:59:00 BASE 0.00 134 1.44 146 -11.7 82 -14.2 0 0 988.4 NA 0.0000 9999 0 0 0 0
2019/10/06 05:00:00 BASE 0.00 132 1.44 146 -11.7 82 -14.2 0 0 988.4 NA 0.0000 9999 0 0 0 0
2019/10/06 05:01:00 BASE 0.00 125 1.44 146 -11.6 82 -14.0 0 0 988.4 NA 0.0000 9999 0 0 0 0
2019/10/06 05:02:00 BASE 0.00 97 1.44 146 -11.5 82 -14.0 0 0 988.4 NA 0.0000 9999 0 0 0 0
2019/10/06 05:03:00 BASE 0.00 76 1.44 146 -11.5 82 -13.9 0 0 988.4 NA 0.0000 9999 0 0 0 0
2019/10/06 05:04:00 BASE 0.00 93 1.39 146 -11.4 82 -13.9 0 0 988.3 NA 0.0000 9999 0 0 0 0
2019/10/06 05:05:00 BASE 0.00 127 1.23 144 -11.4 82 -13.9 0 0 988.3 NA 0.0000 9999 0 0 0 0
2019/10/06 05:06:00 BASE 0.00 152 M M -11.4 81 -14.0 0 0 988.3 NA 0.0000 9999 0 0 0 0
2019/10/06 05:07:00 BASE 0.00 156 M M -11.5 81 -14.1 0 0 988.3 NA 0.0000 9999 0 0 0 0
2019/10/06 05:08:00 BASE 0.00 138 M M -11.6 81 -14.3 0 0 988.3 NA 0.0000 9999 0 0 0 0
2019/10/06 05:09:00 BASE 0.10 126 1.29 128 -11.7 80 -14.4 0 0 988.3 NA 0.0000 9999 0 0 0 0
2019/10/06 05:10:00 BASE 0.57 127 1.54 124 -11.9 80 -14.7 0 0 988.3 NA 0.0000 9999 0 0 0 0
2019/10/06 05:11:00 BASE 1.23 125 1.75 120 -12.0 80 -14.8 0 0 988.3 NA 0.0000 9999 0 0 0 0
2019/10/06 05:12:00 BASE 1.14 131 1.75 120 -12.1 80 -14.9 0 0 988.3 NA 0.0000 9999 0 0 0 0
2019/10/06 05:13:00 BASE 0.37 155 1.75 120 -12.2 80 -15.0 0 0 988.3 NA 0.0000 9999 0 0 0 0
2019/10/06 05:14:00 BASE 0.00 174 1.75 120 -12.2 80 -15.0 0 0 988.3 NA 0.0000 9999 0 0 0 0
2019/10/06 05:15:00 BASE 0.00 185 1.75 120 -12.1 80 -14.8 0 0 988.3 NA 0.0000 9999 0 0 0 0
2019/10/06 05:16:00 BASE 0.00 194 1.75 120 -12.0 80 -14.7 0 0 988.3 NA 0.0000 9999 0 0 0 0
2019/10/06 05:17:00 BASE 0.00 196 1.75 120 -11.9 80 -14.7 0 0 988.3 NA 0.0000 9999 0 0 0 0
2019/10/06 05:18:00 BASE 0.00 200 1.75 120 -11.9 80 -14.6 0 0 988.2 NA 0.0000 9999 0 0 0 0
2019/10/06 05:19:00 BASE 0.00 203 1.75 120 -11.9 80 -14.5 0 0 988.2 NA 0.0000 9999 0 0 0 0
2019/10/06 05:20:00 BASE 0.00 206 1.75 120 -11.9 81 -14.5 0 0 988.2 NA 0.0000 9999 0 0 0 0
2019/10/06 05:21:00 BASE 0.00 213 1.44 128 -11.9 81 -14.5 0 0 988.2 NA 0.0000 9999 0 0 0 0
2019/10/06 05:22:00 BASE 0.00 218 M M -11.9 81 -14.5 0 0 988.2 NA 0.0000 9999 0 0 0 0
2019/10/06 05:23:00 BASE 0.00 223 M M -11.8 81 -14.4 0 0 988.2 NA 0.0000 9999 0 0 0 0
2019/10/06 05:24:00 BASE 0.00 226 M M -11.8 81 -14.4 0 0 988.2 NA 0.0000 9999 0 0 0 0
2019/10/06 05:25:00 BASE 0.00 226 M M -11.8 82 -14.3 0 0 988.2 NA 0.0000 9999 0 0 0 0
2019/10/06 05:26:00 BASE 0.00 226 M M -11.7 82 -14.2 0 0 988.2 NA 0.0000 9999 0 0 0 0
2019/10/06 05:27:00 BASE 0.00 226 M M -11.7 82 -14.1 0 0 988.1 NA 0.0000 9999 0 0 0 0
2019/10/06 05:28:01 BASE 0.00 225 M M -11.6 82 -14.1 0 0 988.1 NA 0.0000 9999 0 0 0 0
2019/10/06 05:29:00 BASE 0.00 225 M M -11.7 82 -14.1 0 0 988.0 NA 0.0000 9999 0 0 0 0
2019/10/06 05:30:00 BASE 0.00 225 M M -11.7 82 -14.1 0 0 988.0 NA 0.0000 9999 0 0 0 0
2019/10/06 05:31:00 BASE 0.00 225 M M -11.7 82 -14.2 0 0 988.0 NA 0.0000 9999 0 0 0 0
2019/10/06 05:32:00 BASE 0.00 225 M M -11.8 82 -14.2 0 0 988.0 NA 0.0000 9999 0 0 0 0
2019/10/06 05:33:00 BASE 0.00 225 M M -11.8 83 -14.2 0 0 988.0 NA 0.0000 9999 0 0 0 0
2019/10/06 05:34:00 BASE 0.00 212 M M -11.8 83 -14.1 0 0 988.0 NA 0.0000 9999 0 0 0 0
2019/10/06 05:35:00 BASE 0.00 166 M M -11.8 83 -14.1 0 0 988.0 NA 0.0000 9999 0 0 0 0
2019/10/06 05:36:00 BASE 0.00 128 M M -11.9 83 -14.1 0 0 988.0 NA 0.0000 9999 0 0 0 0
2019/10/06 05:37:00 BASE 0.00 94 M M -11.9 83 -14.1 0 0 987.9 NA 0.0000 9999 0 0 0 0
2019/10/06 05:38:00 BASE 0.00 75 M M -11.9 84 -14.1 0 0 987.9 NA 0.0000 9999 0 0 0 0
2019/10/06 05:39:00 BASE 0.00 76 M M -11.9 84 -14.1 0 0 987.9 NA 0.0000 9999 0 0 0 0
2019/10/06 05:40:01 BASE 0.00 83 M M -11.9 84 -14.0 0 0 987.9 NA 0.0000 9999 0 0 0 0
2019/10/06 05:41:00 BASE 0.00 89 M M -11.8 84 -14.0 0 0 987.9 NA 0.0000 9999 0 0 0 0
2019/10/06 05:42:00 BASE 0.28 89 1.29 88 -11.8 84 -14.0 0 0 987.9 NA 0.0000 9999 0 0 0 0
2019/10/06 05:43:00 BASE 0.68 80 1.39 66 -11.8 84 -14.0 0 0 987.9 NA 0.0000 9999 0 0 0 0
2019/10/06 05:44:00 BASE 1.28 65 2.11 61 -11.8 84 -14.0 0 0 987.9 NA 0.0000 9999 0 0 0 0
2019/10/06 05:45:00 BASE 1.54 59 2.11 61 -11.8 84 -14.0 0 0 987.9 NA 0.0000 9999 0 0 0 0
2019/10/06 05:46:00 BASE 1.21 53 2.11 61 -11.8 84 -14.0 0 0 987.9 NA 0.0000 9999 0 0 0 0
2019/10/06 05:47:00 BASE 1.25 47 2.11 61 -11.7 84 -13.9 0 0 987.9 NA 0.0000 9999 0 0 0 0
2019/10/06 05:48:00 BASE 1.43 41 2.11 61 -11.7 83 -13.9 0 0 987.9 NA 0.0000 9999 0 0 0 0
2019/10/06 05:49:00 BASE 1.37 33 2.11 61 -11.7 83 -13.9 0 0 987.9 NA 0.0000 9999 0 0 0 0
2019/10/06 05:50:00 BASE 1.32 32 2.11 61 -11.7 83 -14.0 0 0 987.9 NA 0.0000 9999 0 0 0 0
2019/10/06 05:51:00 BASE 1.35 34 2.11 61 -11.7 83 -14.0 0 0 987.9 NA 0.0000 9999 0 0 0 0
2019/10/06 05:52:00 BASE 1.30 33 2.11 61 -11.7 83 -14.0 0 0 987.9 NA 0.0000 9999 0 0 0 0
2019/10/06 05:53:00 BASE 0.97 36 2.11 61 -11.7 83 -14.0 0 0 987.9 NA 0.0000 9999 0 0 0 0
2019/10/06 05:54:00 BASE 0.64 43 1.95 66 -11.7 82 -14.1 0 0 987.9 NA 0.0000 9999 0 0 0 0
2019/10/06 05:55:00 BASE 0.94 43 1.54 37 -11.7 82 -14.1 0 0 987.8 NA 0.0000 9999 0 0 0 0
2019/10/06 05:56:00 BASE 1.38 37 1.59 24 -11.7 82 -14.2 0 0 987.8 NA 0.0000 9999 0 0 0 0
2019/10/06 05:57:00 BASE 1.56 26 1.75 18 -11.7 82 -14.2 0 0 987.8 NA 0.0000 9999 0 0 0 0
2019/10/06 05:58:00 BASE 1.72 20 1.85 16 -11.7 82 -14.2 0 0 987.8 NA 0.0000 9999 0 0 0 0
2019/10/06 05:59:00 BASE 1.66 20 1.85 16 -11.7 82 -14.2 0 0 987.8 NA 0.0000 9999 0 0 0 0
2019/10/06 06:00:00 BASE 1.45 22 1.85 16 -11.7 82 -14.2 0 0 987.8 NA 0.0000 9999 0 0 0 0
2019/10/06 06:01:00 BASE 1.34 24 1.85 16 -11.7 82 -14.2 0 0 987.8 NA 0.0000 9999 0 0 0 0
2019/10/06 06:02:00 BASE 1.34 28 1.85 16 -11.8 82 -14.2 0 0 987.8 NA 0.0000 9999 0 0 0 0
2019/10/06 06:03:00 BASE 1.39 30 1.85 16 -11.8 82 -14.2 0 0 987.8 NA 0.0000 9999 0 0 0 0
2019/10/06 06:04:00 BASE 1.52 30 1.85 16 -11.8 82 -14.2 0 0 987.7 NA 0.0000 9999 0 0 0 0
2019/10/06 06:05:00 BASE 1.65 32 1.85 16 -11.8 82 -14.3 0 0 987.7 NA 0.0000 9999 0 0 0 0
2019/10/06 06:06:00 BASE 1.63 35 1.85 16 -11.8 82 -14.3 0 0 987.7 NA 0.0000 9999 0 0 0 0
2019/10/06 06:07:00 BASE 1.63 39 1.90 40 -11.8 82 -14.3 0 0 987.7 NA 0.0000 9999 0 0 0 0
2019/10/06 06:08:00 BASE 1.77 39 1.90 37 -11.9 82 -14.3 0 0 987.7 NA 0.0000 9999 0 0 0 0
2019/10/06 06:09:00 BASE 1.85 35 1.90 32 -11.9 82 -14.3 0 0 987.7 NA 0.0000 9999 0 0 0 0
2019/10/06 06:10:00 BASE 1.83 31 1.90 31 -11.9 82 -14.3 0 0 987.6 NA 0.0000 9999 0 0 0 0
2019/10/06 06:11:00 BASE 1.66 29 1.90 31 -11.9 83 -14.3 0 0 987.6 NA 0.0000 9999 0 0 0 0
2019/10/06 06:12:00 BASE 1.49 29 1.90 31 -11.9 83 -14.2 0 0 987.6 NA 0.0000 9999 0 0 0 0
2019/10/06 06:13:00 BASE 1.49 35 1.90 31 -11.9 83 -14.2 0 0 987.6 NA 0.0000 9999 0 0 0 0
2019/10/06 06:14:00 BASE 1.42 41 1.90 31 -12.0 83 -14.3 0 0 987.6 NA 0.0000 9999 0 0 0 0
2019/10/06 06:15:00 BASE 1.29 38 1.90 31 -11.9 83 -14.2 0 0 987.6 NA 0.0000 9999 0 0 0 0
2019/10/06 06:16:00 BASE 1.29 29 1.90 31 -11.9 83 -14.2 0 0 987.6 NA 0.0000 9999 0 0 0 0
2019/10/06 06:17:00 BASE 1.27 23 1.90 31 -11.9 83 -14.2 0 0 987.6 NA 0.0000 9999 0 0 0 0
2019/10/06 06:18:00 BASE 1.21 23 1.90 31 -11.9 83 -14.2 0 0 987.6 NA 0.0000 9999 0 0 0 0
2019/10/06 06:19:00 BASE 1.16 21 1.90 31 -11.8 83 -14.2 0 0 987.6 NA 0.0000 9999 0 0 0 0
2019/10/06 06:20:00 BASE 1.12 17 1.70 28 -11.8 82 -14.2 0 0 987.6 NA 0.0000 9999 0 0 0 0
2019/10/06 06:21:00 BASE 0.95 16 1.65 42 -11.8 82 -14.2 0 0 987.6 NA 0.0000 9999 0 0 0 0
2019/10/06 06:22:00 BASE 0.99 16 1.65 42 -11.8 82 -14.3 0 0 987.6 NA 0.0000 9999 0 0 0 0
2019/10/06 06:23:00 BASE 1.22 16 1.44 45 -11.8 81 -14.3 0 0 987.6 NA 0.0000 9999 0 0 0 0
2019/10/06 06:24:00 BASE 1.30 16 1.44 16 -11.8 81 -14.4 0 0 987.6 NA 0.0000 9999 0 0 0 0
2019/10/06 06:25:00 BASE 1.46 14 1.65 9 -11.8 80 -14.5 0 0 987.6 NA 0.0000 9999 0 0 0 0
2019/10/06 06:26:00 BASE 1.62 11 1.75 9 -11.9 80 -14.6 0 0 987.6 NA 0.0000 9999 0 0 0 0
2019/10/06 06:27:00 BASE 1.70 10 1.75 11 -11.9 80 -14.7 0 0 987.6 NA 0.0000 9999 0 0 0 0
2019/10/06 06:28:00 BASE 1.65 10 1.75 11 -12.0 79 -14.9 0 0 987.6 NA 0.0000 9999 0 0 0 0
2019/10/06 06:29:00 BASE 1.56 12 1.75 11 -12.1 79 -15.0 0 0 987.6 NA 0.0000 9999 0 0 0 0
2019/10/06 06:30:00 BASE 1.67 15 1.85 19 -12.1 79 -15.0 0 0 987.6 NA 0.0000 9999 0 0 0 0
2019/10/06 06:31:00 BASE 1.78 18 1.85 19 -12.2 79 -15.0 0 0 987.6 NA 0.0000 9999 0 0 0 0
2019/10/06 06:32:00 BASE 1.83 20 2.01 25 -12.2 80 -15.0 0 0 987.6 NA 0.0000 9999 0 0 0 0
2019/10/06 06:33:00 BASE 1.84 25 2.01 25 -12.2 81 -14.9 0 0 987.6 NA 0.0000 9999 0 0 0 0
2019/10/06 06:34:00 BASE 1.80 33 2.01 25 -12.3 81 -14.8 0 0 987.6 NA 0.0000 9999 0 0 0 0
2019/10/06 06:35:00 BASE 1.76 40 2.01 25 -12.3 82 -14.7 0 0 987.6 NA 0.0000 9999 0 0 0 0
2019/10/06 06:36:00 BASE 1.56 42 2.01 25 -12.3 82 -14.7 0 0 987.6 NA 0.0000 9999 0 0 0 0
2019/10/06 06:37:00 BASE 1.47 46 2.01 25 -12.2 83 -14.6 0 0 987.6 NA 0.0000 9999 0 0 0 0
2019/10/06 06:38:00 BASE 1.70 52 2.21 59 -12.2 83 -14.5 0 0 987.5 NA 0.0000 9999 0 0 0 0
2019/10/06 06:39:00 BASE 2.10 55 2.42 53 -12.1 83 -14.4 0 0 987.4 NA 0.0000 9999 0 0 0 0
2019/10/06 06:40:00 BASE 2.52 54 2.88 50 -12.0 83 -14.4 0 0 987.5 NA 0.0000 9999 0 0 0 0
2019/10/06 06:41:00 BASE 2.79 49 2.98 46 -12.0 82 -14.4 0 0 987.4 NA 0.0000 9999 0 0 0 0
2019/10/06 06:42:00 BASE 2.66 44 2.98 46 -11.9 82 -14.4 0 0 987.4 NA 0.0000 9999 0 0 0 0
2019/10/06 06:43:00 BASE 2.28 41 2.98 46 -11.9 81 -14.5 0 0 987.4 NA 0.0000 9999 0 0 0 0
2019/10/06 06:44:00 BASE 2.12 38 2.98 46 -11.9 80 -14.6 0 0 987.4 NA 0.0000 9999 0 0 0 0
2019/10/06 06:45:00 BASE 2.13 36 2.98 46 -11.9 80 -14.6 0 0 987.4 NA 0.0000 9999 0 0 0 0
2019/10/06 06:46:00 BASE 2.22 35 2.98 46 -11.8 79 -14.7 0 0 987.4 NA 0.0000 9999 0 0 0 0
2019/10/06 06:47:00 BASE 2.36 34 2.98 46 -11.8 79 -14.8 0 0 987.4 NA 0.0000 9999 0 0 0 0
2019/10/06 06:48:00 BASE 2.54 34 2.98 46 -11.8 78 -14.8 0 0 987.4 NA 0.0000 9999 0 0 0 0
2019/10/06 06:49:00 BASE 2.76 33 2.98 46 -11.8 78 -14.9 0 0 987.4 NA 0.0000 9999 0 0 0 0
2019/10/06 06:50:00 BASE 2.84 30 2.98 25 -11.8 77 -15.0 0 0 987.4 NA 0.0000 9999 0 0 0 0
2019/10/06 06:51:00 BASE 2.80 25 2.98 25 -11.8 77 -15.1 0 0 987.4 NA 0.0000 9999 0 0 0 0
2019/10/06 06:52:00 BASE 2.74 25 2.98 25 -11.9 76 -15.2 0 0 987.4 NA 0.0000 9999 0 0 0 0
2019/10/06 06:53:00 BASE 2.81 28 2.98 32 -11.9 76 -15.2 0 0 987.3 NA 0.0000 9999 0 0 0 0
2019/10/06 06:54:00 BASE 2.87 32 2.98 32 -11.9 76 -15.2 0 0 987.3 NA 0.0000 9999 0 0 0 0
2019/10/06 06:55:00 BASE 2.82 33 2.98 34 -11.8 76 -15.2 0 0 987.3 NA 0.0000 9999 18210 0 0 0
2019/10/06 06:56:00 BASE 2.85 35 2.98 39 -11.8 76 -15.2 0 0 987.3 NA 0.0000 9999 18240 0 0 0
2019/10/06 06:57:00 BASE 2.98 38 3.19 39 -11.8 76 -15.3 0 0 987.3 NA 0.0000 9999 0 0 0 0
2019/10/06 06:58:00 BASE 3.02 36 3.19 39 -11.8 75 -15.3 0 0 987.3 NA 0.0000 9999 0 0 0 0
2019/10/06 06:59:00 BASE 2.90 33 3.19 39 -11.8 75 -15.3 0 0 987.3 NA 0.0000 9999 0 0 0 0
2019/10/06 07:00:00 BASE 2.80 30 3.19 39 -11.8 75 -15.4 0 0 987.3 NA 0.0000 9999 0 0 0 0
2019/10/06 07:01:00 BASE 2.80 29 3.19 39 -11.8 75 -15.4 0 0 987.3 NA 0.0000 9999 18280 0 0 0
2019/10/06 07:02:00 BASE 2.90 33 3.19 39 -11.7 74 -15.4 0 0 987.3 NA 0.0000 9999 18210 0 0 0
2019/10/06 07:03:00 BASE 3.06 41 3.40 48 -11.7 74 -15.4 0 0 987.3 NA 0.0000 9999 18210 0 0 0
2019/10/06 07:04:00 BASE 3.24 47 3.76 51 -11.7 74 -15.4 0 0 987.3 NA 0.0000 9999 0 0 0 0
2019/10/06 07:05:00 BASE 3.28 50 3.76 51 -11.6 73 -15.5 0 0 987.3 NA 0.0000 9999 0 0 0 0
2019/10/06 07:06:00 BASE 3.22 52 3.76 51 -11.6 73 -15.5 0 0 987.3 NA 0.0000 9999 0 0 0 0
2019/10/06 07:07:00 BASE 3.00 51 3.76 51 -11.6 72 -15.5 0 0 987.3 NA 0.0000 9999 0 0 0 0
2019/10/06 07:08:00 BASE 2.85 52 3.76 51 -11.5 72 -15.6 0 0 987.3 NA 0.0000 9999 0 0 0 0
2019/10/06 07:09:00 BASE 2.95 50 3.76 51 -11.4 72 -15.6 0 0 987.3 NA 0.0000 9999 0 0 0 0
2019/10/06 07:10:00 BASE 3.07 48 3.76 51 -11.4 71 -15.5 0 0 987.3 NA 0.0000 9999 0 0 0 0
2019/10/06 07:11:00 BASE 3.11 49 3.76 51 -11.3 71 -15.5 0 0 987.3 NA 0.0000 9999 0 0 0 0
2019/10/06 07:12:00 BASE 2.93 51 3.76 51 -11.3 70 -15.6 0 0 987.3 NA 0.0000 9999 0 0 0 0
2019/10/06 07:13:00 BASE 2.41 53 3.76 51 -11.2 70 -15.6 0 0 987.3 NA 0.0000 9999 0 0 0 0
2019/10/06 07:14:00 BASE 2.03 57 3.34 52 -11.2 69 -15.7 0 0 987.2 NA 0.0000 9999 0 0 0 0
2019/10/06 07:15:00 BASE 1.91 63 3.24 46 -11.1 69 -15.7 0 0 987.2 NA 0.0000 9999 0 0 0 0
2019/10/06 07:16:00 BASE 1.68 61 3.24 46 -11.1 68 -15.8 0 0 987.2 NA 0.0000 9999 0 0 0 0
2019/10/06 07:17:00 BASE 1.50 52 3.24 46 -11.1 68 -15.8 0 0 987.2 NA 0.0000 9999 0 0 0 0
2019/10/06 07:18:00 BASE 1.62 42 3.24 46 -11.0 68 -15.8 0 0 987.2 NA 0.0000 9999 0 0 0 0
2019/10/06 07:19:00 BASE 1.77 40 3.24 46 -11.0 67 -15.9 0 0 987.2 NA 0.0000 9999 0 0 0 0
2019/10/06 07:20:00 BASE 1.87 40 3.19 52 -10.9 67 -15.9 0 0 987.2 NA 0.0000 9999 0 0 0 0
2019/10/06 07:21:00 BASE 1.90 38 2.98 53 -10.9 66 -15.9 0 0 987.2 NA 0.0000 9999 0 0 0 0
2019/10/06 07:22:00 BASE 1.86 34 2.31 53 -10.9 66 -16.0 0 0 987.2 NA 0.0000 9999 0 0 0 0
2019/10/06 07:23:00 BASE 2.03 33 2.26 32 -10.9 66 -16.0 0 0 987.2 NA 0.0000 9999 0 0 0 0
2019/10/06 07:24:00 BASE 2.18 32 2.47 29 -11.0 66 -16.1 0 0 987.2 NA 0.0000 9999 0 0 0 0
2019/10/06 07:25:00 BASE 2.00 30 2.47 29 -11.0 66 -16.1 0 0 987.1 NA 0.0000 9999 0 0 0 0
2019/10/06 07:26:00 BASE 1.64 28 2.47 29 -11.1 66 -16.2 0 0 987.1 NA 0.0000 9999 0 0 0 0
2019/10/06 07:27:00 BASE 1.56 32 2.47 29 -11.1 66 -16.2 0 0 987.1 NA 0.0000 9999 0 0 0 0
2019/10/06 07:28:00 BASE 1.55 40 2.47 29 -11.1 66 -16.2 0 0 987.1 NA 0.0000 9999 0 0 0 0
2019/10/06 07:29:00 BASE 1.41 39 2.47 29 -11.1 66 -16.2 0 0 987.1 NA 0.0000 9999 0 0 0 0
2019/10/06 07:30:00 BASE 1.18 32 2.47 29 -11.0 66 -16.2 0 0 987.1 NA 0.0000 9999 0 0 0 0
2019/10/06 07:31:00 BASE 0.97 25 2.47 29 -10.9 66 -16.1 0 0 987.1 NA 0.0000 9999 0 0 0 0
2019/10/06 07:32:00 BASE 0.81 13 2.47 29 -10.8 66 -16.0 0 0 987.1 NA 0.0000 9999 0 0 0 0
2019/10/06 07:33:00 BASE 0.80 5 2.47 29 -10.8 65 -16.0 0 0 987.1 NA 0.0000 9999 0 0 0 0
2019/10/06 07:34:00 BASE 0.68 3 2.01 28 -10.8 65 -16.1 0 0 987.1 NA 0.0000 9999 0 0 0 0
2019/10/06 07:35:00 BASE 0.22 0 1.75 40 -10.9 65 -16.2 0 0 987.1 NA 0.0000 9999 0 0 0 0
2019/10/06 07:36:00 BASE 0.49 354 1.75 40 -11.0 64 -16.4 0 0 987.1 NA 0.0000 9999 0 0 0 0
2019/10/06 07:37:00 BASE 1.12 349 1.65 41 -11.2 65 -16.5 0 0 987.1 NA 0.0000 9999 0 0 0 0
2019/10/06 07:38:00 BASE 1.24 354 1.54 32 -11.3 65 -16.5 0 0 987.1 NA 0.0000 9999 0 0 0 0
2019/10/06 07:39:00 BASE 1.24 0 1.39 360 -11.4 66 -16.5 0 0 987.1 NA 0.0000 9999 0 0 0 0
2019/10/06 07:40:00 BASE 1.37 2 1.54 1 -11.4 67 -16.4 0 0 987.1 NA 0.0000 9999 0 0 0 0
2019/10/06 07:41:00 BASE 1.53 6 1.70 13 -11.5 67 -16.3 0 0 987.1 NA 0.0000 9999 0 0 0 0
2019/10/06 07:42:00 BASE 1.58 6 1.80 3 -11.5 68 -16.3 0 0 987.0 NA 0.0000 9999 0 0 0 0
2019/10/06 07:43:00 BASE 1.58 10 1.80 3 -11.5 68 -16.2 0 0 987.0 NA 0.0000 9999 19590 0 0 0
2019/10/06 07:44:00 BASE 1.57 20 1.80 3 -11.4 68 -16.1 0 0 987.0 NA 0.0000 9999 0 0 0 0
2019/10/06 07:45:00 BASE 1.50 24 1.80 3 -11.5 68 -16.2 0 0 987.0 NA 0.0000 9999 0 0 0 0
2019/10/06 07:46:00 BASE 1.58 24 1.95 29 -11.5 68 -16.2 0 0 987.0 NA 0.0000 9999 0 0 0 0
2019/10/06 07:47:00 BASE 2.06 32 2.68 40 -11.5 68 -16.2 0 0 987.0 NA 0.0000 9999 0 0 0 0
2019/10/06 07:48:00 BASE 2.38 39 2.68 40 -11.5 68 -16.2 0 0 987.0 NA 0.0000 9999 0 0 0 0
2019/10/06 07:49:00 BASE 2.60 43 2.98 41 -11.6 69 -16.2 0 0 987.0 NA 0.0000 9999 0 0 0 0
2019/10/06 07:50:00 BASE 2.66 46 2.98 41 -11.6 69 -16.2 0 0 987.0 NA 0.0000 9999 0 0 0 0
2019/10/06 07:51:00 BASE 2.03 43 2.98 41 -11.6 69 -16.1 0 0 986.9 NA 0.0000 9999 0 0 0 0
2019/10/06 07:52:00 BASE 1.57 36 2.98 41 -11.5 69 -16.1 0 0 986.8 NA 0.0000 9999 0 0 0 0
2019/10/06 07:53:00 BASE 1.53 36 2.98 41 -11.4 69 -16.0 0 0 986.8 NA 0.0000 9999 0 0 0 0
2019/10/06 07:54:00 BASE 1.47 41 2.98 41 -11.4 69 -16.0 0 0 986.8 NA 0.0000 9999 0 0 0 0
2019/10/06 07:55:00 BASE 1.54 43 2.98 41 -11.3 69 -15.9 0 0 986.8 NA 0.0000 9999 0 0 0 0
2019/10/06 07:56:00 BASE 1.56 42 2.98 41 -11.2 69 -15.8 0 0 986.8 NA 0.0000 9999 0 0 0 0
2019/10/06 07:57:00 BASE 1.38 42 2.98 41 -11.1 68 -15.8 0 0 986.8 NA 0.0000 9999 0 0 0 0
2019/10/06 07:58:00 BASE 1.49 45 2.98 41 -11.1 68 -15.8 0 0 986.8 NA 0.0000 9999 0 0 0 0
2019/10/06 07:59:00 BASE 1.83 48 2.78 50 -11.0 67 -15.9 0 0 986.8 NA 0.0000 9999 0 0 0 0
2019/10/06 08:00:00 BASE 1.93 48 2.37 54 -10.9 67 -15.9 0 0 986.8 NA 0.0000 9999 0 0 0 0
2019/10/06 08:01:00 BASE 1.68 54 2.37 54 -10.9 66 -15.9 0 0 986.8 NA 0.0000 9999 0 0 0 0
2019/10/06 08:02:00 BASE 0.88 62 2.37 54 -10.8 66 -15.9 0 0 986.8 NA 0.0000 9999 0 0 0 0
2019/10/06 08:03:00 BASE 0.55 65 2.37 54 -10.8 66 -15.9 0 0 986.8 NA 0.0000 9999 0 0 0 0
2019/10/06 08:04:00 BASE 1.30 67 2.62 63 -10.7 66 -15.8 0 0 986.7 NA 0.0000 9999 0 0 0 0
2019/10/06 08:05:00 BASE 1.74 67 2.62 63 -10.6 66 -15.8 0 0 986.7 NA 0.0000 9999 0 0 0 0
2019/10/06 08:06:00 BASE 1.74 67 2.62 63 -10.6 66 -15.7 0 0 986.7 NA 0.0000 9999 0 0 0 0
2019/10/06 08:07:00 BASE 1.50 65 2.62 63 -10.6 66 -15.7 0 0 986.7 NA 0.0000 9999 0 0 0 0
2019/10/06 08:08:00 BASE 0.95 61 2.62 63 -10.5 66 -15.7 0 0 986.7 NA 0.0000 9999 0 0 0 0
2019/10/06 08:09:00 BASE 1.52 60 2.62 66 -10.5 66 -15.6 0 0 986.7 NA 0.0000 9999 0 0 0 0
2019/10/06 08:10:00 BASE 2.14 62 2.62 66 -10.4 66 -15.6 0 0 986.7 NA 0.0000 9999 0 0 0 0
2019/10/06 08:11:00 BASE 1.71 64 2.62 66 -10.4 65 -15.6 0 0 986.7 NA 0.0000 9999 0 0 0 0
2019/10/06 08:12:00 BASE 2.07 65 2.98 67 -10.3 65 -15.6 0 0 986.7 NA 0.0000 9999 0 0 0 0
2019/10/06 08:13:00 BASE 2.87 64 3.34 63 -10.3 65 -15.7 0 0 986.7 NA 0.0000 9999 0 0 0 0
2019/10/06 08:14:00 BASE 3.07 63 3.34 63 -10.3 64 -15.8 0 0 986.7 NA 0.0000 9999 0 0 0 0
2019/10/06 08:15:00 BASE 2.74 63 3.34 63 -10.3 64 -15.8 0 0 986.7 NA 0.0000 9999 0 0 0 0
2019/10/06 08:16:00 BASE 1.99 67 3.34 63 -10.3 64 -15.8 0 0 986.7 NA 0.0000 9999 0 0 0 0
2019/10/06 08:17:00 BASE 1.33 60 3.34 63 -10.3 65 -15.7 0 0 986.7 NA 0.0000 9999 0 0 0 0
2019/10/06 08:18:00 BASE 0.71 47 3.34 63 -10.3 65 -15.7 0 0 986.7 NA 0.0000 9999 0 0 0 0
2019/10/06 08:19:00 BASE 0.15 46 3.34 63 -10.2 65 -15.6 0 0 986.7 NA 0.0000 9999 0 0 0 0
2019/10/06 08:20:00 BASE 0.00 49 3.34 63 -10.1 64 -15.6 0 0 986.7 NA 0.0000 9999 0 0 0 0
2019/10/06 08:21:00 BASE 0.00 49 3.34 63 -10.1 64 -15.6 0 0 986.6 NA 0.0000 9999 20930 0 0 0
2019/10/06 08:22:00 BASE 0.09 68 3.34 63 -10.1 64 -15.7 0 0 986.6 NA 0.0000 9999 20800 0 0 0
2019/10/06 08:23:00 BASE 0.75 161 3.29 64 -10.2 64 -15.8 0 0 986.6 NA 0.0000 9999 21030 0 0 0
2019/10/06 08:24:00 BASE 1.24 177 3.19 63 -10.3 63 -15.9 0 0 986.6 NA 0.0000 9999 0 0 0 0
2019/10/06 08:25:00 BASE 1.87 162 3.29 137 -10.4 63 -16.0 0 0 986.6 NA 0.0000 9999 0 0 0 0
2019/10/06 08:26:00 BASE 2.81 145 3.55 132 -10.6 63 -16.3 0 0 986.6 NA 0.0000 9999 0 0 0 0
2019/10/06 08:27:00 BASE 2.37 133 3.55 132 -10.8 63 -16.4 0 0 986.7 NA 0.0000 9999 0 0 0 0
2019/10/06 08:28:00 BASE 1.63 107 3.55 132 -10.9 64 -16.5 0 0 986.7 NA 0.0000 9999 0 0 0 0
2019/10/06 08:29:00 BASE 1.00 71 3.55 132 -10.9 64 -16.4 0 0 986.6 NA 0.0000 9999 0 0 0 0
2019/10/06 08:30:00 BASE 0.21 52 3.55 132 -10.8 64 -16.2 0 0 986.6 NA 0.0000 9999 0 0 0 0
2019/10/06 08:31:00 BASE 0.00 22 3.55 132 -10.6 65 -15.9 0 0 986.6 NA 0.0000 9999 0 0 0 0
2019/10/06 08:32:00 BASE 0.09 351 3.55 132 -10.3 65 -15.6 0 0 986.6 NA 0.0000 9999 0 0 0 0
2019/10/06 08:33:00 BASE 0.79 352 3.55 132 -10.1 64 -15.5 0 0 986.6 NA 0.0000 9999 0 0 0 0
2019/10/06 08:34:00 BASE 1.58 350 3.55 132 -10.2 64 -15.8 0 0 986.6 NA 0.0000 9999 10730 0 0 0
2019/10/06 08:35:00 BASE 0.97 336 3.55 132 -10.4 63 -16.0 0 0 986.6 NA 0.0000 9999 10730 0 0 0
2019/10/06 08:36:00 BASE 0.24 45 2.52 340 -10.5 64 -16.1 0 0 986.6 NA 0.0000 9999 10790 0 0 0
2019/10/06 08:37:00 BASE 0.15 112 2.52 340 -10.7 64 -16.2 0 0 986.6 NA 0.0000 9999 10660 0 0 0
2019/10/06 08:38:00 BASE 0.70 131 2.52 340 -10.8 65 -16.2 0 0 986.6 NA 0.0000 9999 10660 0 0 0
2019/10/06 08:39:00 BASE 1.14 133 2.52 340 -10.7 65 -15.9 0 0 986.6 NA 0.0000 9999 10600 0 0 0
2019/10/06 08:40:00 BASE 0.87 123 2.52 340 -10.6 66 -15.8 0 0 986.5 NA 0.0000 9999 10630 0 0 0
2019/10/06 08:41:00 BASE 0.70 140 2.52 340 -10.4 65 -15.7 0 0 986.5 NA 0.0000 9999 10560 0 0 0
2019/10/06 08:42:00 BASE 1.04 149 2.52 340 -10.4 65 -15.7 0 0 986.5 NA 0.0000 9999 10470 0 0 0
2019/10/06 08:43:00 BASE 2.18 135 3.65 128 -10.3 64 -15.8 0 0 986.4 NA 0.0000 9999 10530 0 0 0
2019/10/06 08:44:00 BASE 2.23 146 3.65 128 -10.3 63 -15.9 0 0 986.4 NA 0.0000 9999 10530 0 0 0
2019/10/06 08:45:00 BASE 1.98 183 3.65 128 -10.4 63 -16.2 0 0 986.4 NA 0.0000 9999 10560 0 0 0
2019/10/06 08:46:00 BASE 2.36 194 3.65 128 -10.6 62 -16.4 0 0 986.4 NA 0.0000 9999 10560 0 0 0
2019/10/06 08:47:00 BASE 1.54 209 3.65 128 -10.7 62 -16.6 0 0 986.4 NA 0.0000 9999 10400 0 0 0
2019/10/06 08:48:00 BASE 0.38 233 3.65 128 -10.9 62 -16.7 0 0 986.4 NA 0.0000 9999 10500 0 0 0
2019/10/06 08:49:00 BASE 0.80 165 3.65 128 -11.1 63 -16.8 1 0 986.3 NA 0.0000 9999 10470 0 0 0
2019/10/06 08:50:00 BASE 1.71 143 3.65 128 -11.2 63 -16.8 1 0 986.3 NA 0.0000 9999 10630 0 0 0
2019/10/06 08:51:00 BASE 2.09 144 3.65 128 -11.3 64 -16.8 1 0 986.3 NA 0.0000 9999 10500 0 0 0
2019/10/06 08:52:00 BASE 3.35 129 5.30 125 -11.3 64 -16.7 1 0 986.3 NA 0.0000 9999 10600 0 0 0
2019/10/06 08:53:00 BASE 4.44 129 5.30 125 -11.2 65 -16.5 1 0 986.3 NA 0.0000 9999 10660 0 0 0
2019/10/06 08:54:00 BASE 4.42 134 5.30 125 -10.9 65 -16.2 1 0 986.3 NA 0.0000 9999 10560 0 0 0
2019/10/06 08:55:00 BASE 4.35 129 5.30 125 -10.7 65 -16.1 1 0 986.2 NA 0.0000 9999 10630 0 0 0
2019/10/06 08:56:00 BASE 4.30 125 5.30 125 -10.6 64 -16.1 2 0 986.2 NA 0.0000 9999 10630 0 0 0
2019/10/06 08:57:00 BASE 4.43 120 5.30 125 -10.6 64 -16.1 2 0 986.2 NA 0.0000 9999 10630 0 0 0
2019/10/06 08:58:00 BASE 4.34 118 5.30 125 -10.8 63 -16.4 2 0 986.2 NA 0.0000 9999 10630 0 0 0
2019/10/06 08:59:00 BASE 3.36 124 5.30 125 -11.0 63 -16.7 2 0 986.2 NA 0.0000 9999 10600 0 0 0
2019/10/06 09:00:00 BASE 3.16 122 5.40 99 -11.2 64 -16.7 3 0 986.2 NA 0.0000 9999 10530 0 0 0
2019/10/06 09:01:00 BASE 5.01 102 6.84 82 -11.3 65 -16.7 3 0 986.1 NA 0.0000 9999 10660 0 0 0
2019/10/06 09:02:00 BASE 5.88 82 6.84 82 -11.2 66 -16.3 4 0 986.0 NA 0.0000 9999 10530 0 0 0
2019/10/06 09:03:00 BASE 4.76 74 6.84 82 -10.8 66 -15.8 5 0 986.0 NA 0.0000 9999 10300 0 0 0
2019/10/06 09:04:00 BASE 3.73 75 6.84 82 -10.3 67 -15.3 5 0 986.0 NA 0.0000 9999 10430 0 0 0
2019/10/06 09:05:00 BASE 3.07 70 6.84 82 -9.8 66 -15.0 6 0 986.0 NA 0.0000 9999 10400 0 0 0
2019/10/06 09:06:00 BASE 3.41 66 6.84 82 -9.4 65 -14.8 6 0 986.0 NA 0.0000 9999 10400 0 0 0
2019/10/06 09:07:00 BASE 4.24 75 6.84 82 -9.3 64 -14.9 6 0 986.0 NA 0.0000 9999 10300 0 0 0
2019/10/06 09:08:00 BASE 3.81 83 6.84 82 -9.3 63 -15.2 6 0 986.0 NA 0.0000 9999 10270 0 0 0
2019/10/06 09:09:00 BASE 3.08 95 6.84 82 -9.4 62 -15.4 7 0 986.0 NA 0.0000 9999 10200 0 0 0
2019/10/06 09:10:00 BASE 2.98 115 6.84 82 -9.5 62 -15.5 7 0 986.0 NA 0.0000 9999 10340 0 0 0
2019/10/06 09:11:00 BASE 2.75 132 6.28 82 -9.6 62 -15.5 7 0 986.0 NA 0.0000 9999 10200 0 0 0
2019/10/06 09:12:00 BASE 2.43 148 5.35 82 -9.6 62 -15.5 7 0 986.0 NA 0.0000 9999 10300 0 0 0
2019/10/06 09:13:00 BASE 2.53 154 5.35 82 -9.8 62 -15.7 7 0 986.0 NA 0.0000 9999 10300 0 0 0
2019/10/06 09:14:00 BASE 2.93 149 5.35 82 -9.9 63 -15.7 6 0 985.9 NA 0.0000 9999 10240 0 0 0
2019/10/06 09:15:00 BASE 2.98 144 5.35 82 -10.0 63 -15.7 6 0 985.9 NA 0.0000 9999 10270 0 0 0
2019/10/06 09:16:00 BASE 2.78 136 5.35 82 -10.1 63 -15.8 6 0 985.9 NA 0.0000 9999 10240 0 0 0
2019/10/06 09:17:00 BASE 1.94 134 3.86 134 -10.2 64 -15.8 6 0 985.9 NA 0.0000 9999 10200 0 0 0
2019/10/06 09:18:00 BASE 0.91 147 3.86 134 -10.1 64 -15.6 5 0 985.9 NA 0.0000 9999 10170 0 0 0
2019/10/06 09:19:00 BASE 0.88 161 3.86 134 -10.0 64 -15.5 5 0 985.9 NA 0.0000 9999 10300 0 0 0
2019/10/06 09:20:00 BASE 1.56 164 3.86 134 -9.9 64 -15.5 5 0 985.9 NA 0.0000 9999 10200 0 0 0
2019/10/06 09:21:00 BASE 2.17 161 3.86 134 -9.8 63 -15.5 6 0 985.9 NA 0.0000 9999 10300 0 0 0
2019/10/06 09:22:00 BASE 2.55 160 3.86 134 -9.8 63 -15.6 6 0 985.9 NA 0.0000 9999 10240 0 0 0
2019/10/06 09:23:00 BASE 3.09 158 4.01 152 -9.8 62 -15.7 6 0 985.8 NA 0.0000 9999 10270 0 0 0
2019/10/06 09:24:00 BASE 3.34 158 4.01 152 -9.9 62 -15.8 6 0 985.8 NA 0.0000 9999 10240 0 0 0
2019/10/06 09:25:00 BASE 3.49 158 4.01 152 -9.9 62 -15.8 6 0 985.8 NA 0.0000 9999 10270 0 0 0
2019/10/06 09:26:00 BASE 3.19 151 4.01 152 -9.9 62 -15.8 6 0 985.8 NA 0.0000 9999 10270 0 0 0
2019/10/06 09:27:00 BASE 2.99 146 4.01 152 -10.0 63 -15.7 6 0 985.8 NA 0.0000 9999 10300 0 0 0
2019/10/06 09:28:00 BASE 3.17 146 4.01 152 -9.9 63 -15.7 6 0 985.8 NA 0.0000 9999 10300 0 0 0
2019/10/06 09:29:00 BASE 3.64 147 4.58 147 -9.9 63 -15.6 7 0 985.8 NA 0.0000 9999 10300 0 0 0
2019/10/06 09:30:00 BASE 4.54 147 5.04 147 -9.9 63 -15.6 7 0 985.8 NA 0.0000 9999 10170 0 0 0
2019/10/06 09:31:00 BASE 4.74 149 5.04 147 -10.0 63 -15.7 7 0 985.8 NA 0.0000 9999 10070 0 0 0
2019/10/06 09:32:00 BASE 4.57 150 5.04 147 -10.0 63 -15.7 7 0 985.8 NA 0.0000 9999 10240 0 0 0
2019/10/06 09:33:00 BASE 4.21 149 5.04 147 -10.0 63 -15.7 7 0 985.8 NA 0.0000 9999 10270 0 0 0
2019/10/06 09:34:00 BASE 3.79 143 5.25 108 -10.1 64 -15.6 7 0 985.8 NA 0.0000 9999 10300 0 0 0
2019/10/06 09:35:00 BASE 3.59 134 5.25 108 -10.0 64 -15.5 8 0 985.7 NA 0.0000 9999 10170 0 0 0
2019/10/06 09:36:00 BASE 3.14 140 5.25 108 -10.0 65 -15.4 8 0 985.7 NA 0.0000 9999 10170 0 0 0
2019/10/06 09:37:00 BASE 2.47 155 5.25 108 -10.0 65 -15.3 8 0 985.7 NA 0.0000 9999 10240 0 0 0
2019/10/06 09:38:00 BASE 2.88 152 5.25 108 -10.1 66 -15.2 8 0 985.7 NA 0.0000 9999 10240 0 0 0
2019/10/06 09:39:00 BASE 3.52 151 5.25 108 -10.1 66 -15.2 9 0 985.6 NA 0.0000 9999 10300 0 0 0
2019/10/06 09:40:00 BASE 3.10 156 5.25 108 -10.1 67 -15.1 9 0 985.6 NA 0.0000 9999 10240 0 0 0
2019/10/06 09:41:00 BASE 2.57 151 5.25 108 -10.1 67 -15.1 9 0 985.6 NA 0.0000 9999 10300 0 0 0
2019/10/06 09:42:00 BASE 2.06 148 5.25 108 -10.0 67 -15.0 10 0 985.6 NA 0.0000 9999 10300 0 0 0
2019/10/06 09:43:00 BASE 1.18 154 5.25 108 -9.8 66 -14.9 10 0 985.6 NA 0.0000 9999 10270 0 0 0
2019/10/06 09:44:00 BASE 1.84 154 4.78 117 -9.7 66 -14.9 10 0 985.5 NA 0.0000 9999 10300 0 0 0
2019/10/06 09:45:00 BASE 2.84 150 4.01 140 -9.7 65 -15.0 11 0 985.5 NA 0.0000 9999 10300 0 0 0
2019/10/06 09:46:00 BASE 2.54 158 3.96 139 -9.7 64 -15.2 11 0 985.4 NA 0.0000 9999 10240 0 0 0
2019/10/06 09:47:00 BASE 2.59 162 3.96 139 -9.8 64 -15.3 11 0 985.4 NA 0.0000 9999 10140 0 0 0
2019/10/06 09:48:00 BASE 2.97 166 3.96 139 -9.9 64 -15.4 12 0 985.4 NA 0.0000 9999 10240 0 0 0
2019/10/06 09:49:00 BASE 3.71 166 4.53 161 -10.1 65 -15.4 13 0 985.4 NA 0.0000 9999 10240 0 0 0
2019/10/06 09:50:00 BASE 4.34 162 4.89 160 -10.2 65 -15.4 13 0 985.4 NA 0.0000 9999 10200 0 0 0
2019/10/06 09:51:00 BASE 4.85 160 5.61 157 -10.2 66 -15.3 14 0 985.4 NA 0.0000 9999 10170 0 0 0
2019/10/06 09:52:00 BASE 4.95 161 5.61 157 -10.2 66 -15.3 15 0 985.3 NA 0.0000 9999 10140 0 0 0
2019/10/06 09:53:00 BASE 4.19 161 5.61 157 -10.2 67 -15.3 16 0 985.3 NA 0.0000 9999 10140 0 0 0
2019/10/06 09:54:00 BASE 3.50 152 5.61 157 -10.2 67 -15.2 17 0 985.3 NA 0.0000 9999 10010 0 0 0
2019/10/06 09:55:00 BASE 3.50 140 5.61 157 -10.2 67 -15.1 18 0 985.3 NA 0.0000 9999 9970 0 0 0
2019/10/06 09:56:00 BASE 4.70 127 6.74 127 -10.1 67 -15.1 19 0 985.3 NA 0.0000 9999 9970 0 0 0
2019/10/06 09:57:00 BASE 5.60 125 6.74 127 -10.0 67 -15.0 21 0 985.2 NA 0.0000 9999 10070 0 0 0
2019/10/06 09:58:00 BASE 6.15 130 8.08 136 -9.9 67 -14.9 22 0 985.2 NA 0.0000 9999 10070 0 0 0
2019/10/06 09:59:00 BASE 7.07 131 8.18 127 -9.7 67 -14.8 24 0 985.2 NA 0.0000 9999 9970 0 0 0
2019/10/06 10:00:00 BASE 7.02 126 8.18 127 -9.5 66 -14.6 25 0 985.1 NA 0.0000 9999 9940 0 0 0
2019/10/06 10:01:00 BASE 7.03 116 8.18 127 -9.3 66 -14.5 26 0 985.1 NA 0.0000 9999 9940 0 0 0
2019/10/06 10:02:00 BASE 7.89 110 10.08 106 -9.2 66 -14.5 27 0 985.1 NA 0.0000 9999 9810 0 0 0
2019/10/06 10:03:00 BASE 8.75 108 10.08 106 -9.1 65 -14.4 28 0 985.0 NA 0.0000 9999 9910 0 0 0
2019/10/06 10:04:00 BASE 9.52 107 10.34 103 -9.0 65 -14.4 30 0 984.9 NA 0.0000 9999 9940 0 0 0
2019/10/06 10:05:00 BASE 9.61 108 10.34 103 -9.0 64 -14.5 31 0 984.9 NA 0.0000 9999 9880 0 0 0
2019/10/06 10:06:00 BASE 9.72 114 10.91 113 -9.0 64 -14.5 33 0 984.8 NA 0.0000 9999 9910 0 0 0
2019/10/06 10:07:00 BASE 10.23 116 11.06 115 -9.1 65 -14.5 34 0 984.8 NA 0.0000 9999 9970 0 0 0
2019/10/06 10:08:01 BASE 10.81 115 11.83 113 -9.1 65 -14.5 35 0 984.8 NA 0.0000 9999 9970 0 0 0
2019/10/06 10:09:00 BASE 10.96 115 11.83 113 -9.1 65 -14.4 35 0 984.8 NA 0.0000 9999 9910 0 0 0
2019/10/06 10:10:00 BASE 10.65 114 11.83 113 -9.1 66 -14.4 34 0 984.8 NA 0.0000 9999 9940 0 0 0
2019/10/06 10:11:00 BASE 10.77 114 11.83 113 -9.1 66 -14.3 34 0 984.8 NA 0.0000 9999 9940 0 0 0
2019/10/06 10:12:00 BASE 10.87 116 11.83 113 -9.1 66 -14.4 34 0 984.8 NA 0.0000 9999 9970 0 0 0
2019/10/06 10:13:00 BASE 10.38 114 11.83 113 -9.1 66 -14.4 35 0 984.8 NA 0.0000 9999 9880 0 0 0
2019/10/06 10:14:00 BASE 9.94 109 11.83 113 -9.1 65 -14.5 37 0 984.8 NA 0.0000 9999 9910 0 0 0
2019/10/06 10:15:00 BASE 9.95 109 11.83 113 -9.1 65 -14.5 38 0 984.8 NA 0.0000 9999 9880 0 0 0
2019/10/06 10:16:00 BASE 9.75 114 11.83 113 -9.1 64 -14.6 39 0 984.7 NA 0.0000 9999 9940 0 0 0
2019/10/06 10:17:00 BASE 9.61 117 11.83 113 -9.1 64 -14.6 40 0 984.7 NA 0.0000 9999 9940 0 0 0
2019/10/06 10:18:00 BASE 9.58 116 11.47 116 -9.1 64 -14.6 41 0 984.7 NA 0.0000 9999 9910 0 0 0
2019/10/06 10:19:00 BASE 9.28 117 11.47 116 -9.0 64 -14.6 41 0 984.7 NA 0.0000 9999 9910 0 0 0
2019/10/06 10:20:00 BASE 9.13 119 11.47 116 -9.0 64 -14.7 41 0 984.7 NA 0.0000 9999 9940 0 0 0
2019/10/06 10:21:00 BASE 9.09 117 11.21 119 -9.0 63 -14.7 41 0 984.6 NA 0.0000 9999 9880 0 0 0
2019/10/06 10:22:00 BASE 8.43 115 10.60 108 -8.9 63 -14.8 41 0 984.7 NA 0.0000 9999 9780 0 0 0
2019/10/06 10:23:00 BASE 7.87 113 10.60 108 -8.9 62 -14.8 40 0 984.6 NA 0.0000 9999 9910 0 0 0
2019/10/06 10:24:00 BASE 7.44 115 10.60 108 -8.9 62 -14.8 39 0 984.6 NA 0.0000 9999 9880 0 0 0
2019/10/06 10:25:00 BASE 7.46 119 9.93 113 -8.9 62 -14.8 38 0 984.6 NA 0.0000 9999 9880 0 0 0
2019/10/06 10:26:00 BASE 7.98 121 9.93 113 -8.9 63 -14.8 38 0 984.6 NA 0.0000 9999 9780 0 0 0
2019/10/06 10:27:00 BASE 7.81 125 9.88 118 -8.9 63 -14.7 37 0 984.5 NA 0.0000 9999 9740 0 0 0
2019/10/06 10:28:00 BASE 7.24 129 9.67 116 -8.9 63 -14.6 36 0 984.5 NA 0.0000 9999 9840 0 0 0
2019/10/06 10:29:00 BASE 6.82 131 9.62 118 -8.8 63 -14.6 36 0 984.5 NA 0.0000 9999 9840 0 0 0
2019/10/06 10:30:00 BASE 6.52 134 9.62 118 -8.8 63 -14.6 36 0 984.4 NA 0.0000 9999 9840 0 0 0
2019/10/06 10:31:00 BASE 6.22 139 8.75 125 -8.8 63 -14.6 36 0 984.3 NA 0.0000 9999 9840 0 0 0
2019/10/06 10:32:00 BASE 5.95 139 8.75 125 -8.9 63 -14.6 36 0 984.4 NA 0.0000 9999 9880 0 0 0
2019/10/06 10:33:01 BASE 5.41 134 8.75 125 -8.9 64 -14.6 36 0 984.5 NA 0.0000 9999 9810 0 0 0
2019/10/06 10:34:00 BASE 4.40 136 8.75 125 -9.0 64 -14.5 37 0 984.5 NA 0.0000 9999 9840 0 0 0
2019/10/06 10:35:00 BASE 2.53 140 8.75 125 -9.1 65 -14.5 38 0 984.5 NA 0.0000 9999 10040 0 0 0
2019/10/06 10:36:00 BASE 0.83 112 8.39 134 -9.1 66 -14.4 39 0 984.5 NA 0.0000 9999 10170 0 0 0
2019/10/06 10:37:00 BASE 0.17 19 7.31 136 -9.2 66 -14.4 41 0 984.5 NA 0.0000 9999 10140 0 0 0
2019/10/06 10:38:00 BASE 0.00 317 7.20 129 -9.3 67 -14.3 42 0 984.5 NA 0.0000 9999 10170 0 0 0
2019/10/06 10:39:00 BASE 0.00 301 6.69 137 -9.4 68 -14.2 44 0 984.5 NA 0.0000 9999 10170 0 0 0
2019/10/06 10:40:00 BASE 0.05 289 6.64 141 -9.4 69 -14.1 45 0 984.5 NA 0.0000 9999 10110 0 0 0
2019/10/06 10:41:00 BASE 0.98 284 6.58 140 -9.4 69 -14.0 47 0 984.5 NA 0.0000 9999 10200 0 0 0
2019/10/06 10:42:00 BASE 1.96 282 5.61 132 -9.4 70 -13.9 48 0 984.5 NA 0.0000 9999 10200 0 0 0
2019/10/06 10:43:00 BASE 2.17 284 4.48 128 -9.4 70 -13.8 50 0 984.5 NA 0.0000 9999 10170 0 0 0
2019/10/06 10:44:00 BASE 1.86 300 2.52 290 -9.4 71 -13.7 52 0 984.5 NA 0.0000 9999 10200 0 0 0
2019/10/06 10:45:00 BASE 1.46 307 2.52 290 -9.3 71 -13.6 53 0 984.5 NA 0.0000 9999 10140 0 0 0
2019/10/06 10:46:00 BASE 1.72 291 2.52 258 -9.2 72 -13.4 55 0 984.5 NA 0.0000 9999 10170 0 0 0
2019/10/06 10:47:00 BASE 2.02 269 2.52 258 -9.2 72 -13.3 58 0 984.5 NA 0.0000 9999 10240 0 0 0
2019/10/06 10:48:00 BASE 1.84 267 2.52 258 -9.1 71 -13.3 60 0 984.5 NA 0.0000 9999 10200 0 0 0
2019/10/06 10:49:00 BASE 2.00 273 2.93 262 -9.0 71 -13.3 63 0 984.5 NA 0.0000 9999 10170 0 0 0
2019/10/06 10:50:00 BASE 2.12 276 2.93 262 -8.9 70 -13.3 65 0 984.5 NA 0.0000 9999 10140 0 0 0
2019/10/06 10:51:00 BASE 1.94 295 2.93 262 -8.8 69 -13.4 68 0 984.5 NA 0.0000 9999 10170 0 0 0
2019/10/06 10:52:00 BASE 2.22 298 2.93 262 -8.8 69 -13.5 71 0 984.5 NA 0.0000 9999 10200 0 0 0
2019/10/06 10:53:00 BASE 2.11 288 2.93 262 -8.8 68 -13.6 73 0 984.4 NA 0.0000 9999 10200 0 0 0
2019/10/06 10:54:00 BASE 1.71 274 2.93 262 -8.8 68 -13.6 76 0 984.4 NA 0.0000 9999 10140 0 0 0
2019/10/06 10:55:00 BASE 1.68 239 2.93 262 -8.8 67 -13.7 78 0 984.5 NA 0.0000 9999 10240 0 0 0
2019/10/06 10:56:00 BASE 1.37 198 2.93 262 -8.8 67 -13.8 80 0 984.5 NA 0.0000 9999 10200 0 0 0
2019/10/06 10:57:00 BASE 0.55 180 2.93 262 -8.8 67 -13.8 82 0 984.5 NA 0.0000 9999 10200 0 0 0
2019/10/06 10:58:00 BASE 0.38 175 2.93 262 -8.9 67 -13.8 84 0 984.5 NA 0.0000 9999 10340 0 0 0
2019/10/06 10:59:00 BASE 0.47 150 2.73 279 -8.9 68 -13.8 86 0 984.5 NA 0.0000 9999 10370 0 0 0
2019/10/06 11:00:00 BASE 0.22 123 2.73 279 -9.0 68 -13.8 88 0 984.5 NA 0.0000 9999 10340 0 0 0
2019/10/06 11:01:00 BASE 0.09 113 2.73 279 -9.1 69 -13.8 90 0 984.4 NA 0.0000 9999 10200 0 0 0
2019/10/06 11:02:00 BASE 0.00 114 2.21 296 -9.2 69 -13.8 92 0 984.4 NA 0.0000 9999 10430 0 0 0
2019/10/06 11:03:00 BASE 0.00 98 1.95 220 -9.2 70 -13.7 95 0 984.3 NA 0.0000 9999 10400 0 0 0
2019/10/06 11:04:00 BASE 0.00 35 1.95 220 -9.2 70 -13.6 97 0 984.4 NA 0.0000 9999 10400 0 0 0
2019/10/06 11:05:00 BASE 0.13 7 1.75 184 -9.2 71 -13.5 100 0 984.4 NA 0.0000 9999 10300 0 0 0
2019/10/06 11:06:00 BASE 0.13 3 1.29 176 -9.1 71 -13.5 103 0 984.3 NA 0.0000 9999 10400 0 0 0
2019/10/06 11:07:00 BASE 0.20 354 1.39 335 -9.1 71 -13.5 106 0 984.3 NA 0.0000 9999 10500 0 0 0
2019/10/06 11:08:00 BASE 0.33 333 1.39 335 -9.1 71 -13.5 109 0 984.3 NA 0.0000 9999 10470 0 0 0
2019/10/06 11:09:00 BASE 0.14 307 1.39 335 -9.1 70 -13.5 112 0 984.3 NA 0.0000 9999 10470 0 0 0
2019/10/06 11:10:00 BASE 0.00 293 1.39 335 -9.1 70 -13.5 115 0 984.3 NA 0.0000 9999 10430 0 0 0
2019/10/06 11:11:00 BASE 0.00 271 1.39 335 -9.1 70 -13.5 117 0 984.3 NA 0.0000 9999 10500 0 0 0
2019/10/06 11:12:00 BASE 0.00 241 1.39 335 -9.1 71 -13.5 119 0 984.3 NA 0.0000 9999 10470 0 0 0
2019/10/06 11:13:00 BASE 0.00 229 1.39 335 -9.1 71 -13.4 121 0 984.3 NA 0.0000 9999 10530 0 0 0
2019/10/06 11:14:00 BASE 0.00 214 1.39 335 -9.2 72 -13.4 123 0 984.3 NA 0.0000 9999 10400 0 0 0
2019/10/06 11:15:00 BASE 0.00 175 1.39 335 -9.2 72 -13.2 124 0 984.2 NA 0.0000 9999 10370 0 0 0
2019/10/06 11:16:00 BASE 0.00 108 1.39 335 -9.1 73 -13.1 126 0 984.2 NA 0.0000 9999 10370 0 0 0
2019/10/06 11:17:00 BASE 0.33 71 1.44 71 -9.0 73 -13.1 127 0 984.2 NA 0.0000 9999 10400 0 0 0
2019/10/06 11:18:00 BASE 0.83 74 1.44 65 -9.0 73 -13.0 129 0 984.2 NA 0.0000 9999 7740 10370 0 0
2019/10/06 11:19:00 BASE 0.98 79 1.49 77 -8.9 72 -13.0 130 0 984.2 NA 0.0000 9999 7780 10340 0 0
2019/10/06 11:20:00 BASE 1.02 87 1.54 86 -8.9 72 -13.1 132 0 984.2 NA 0.0000 9999 7740 10340 0 0
2019/10/06 11:21:00 BASE 1.24 93 1.54 86 -8.9 71 -13.2 133 0 984.2 NA 0.0000 9999 10370 0 0 0
2019/10/06 11:22:00 BASE 1.35 90 1.54 86 -8.9 71 -13.2 133 0 984.1 NA 0.0000 9999 10400 0 0 0
2019/10/06 11:23:00 BASE 1.41 75 1.65 71 -9.0 71 -13.3 134 0 984.1 NA 0.0000 9999 7840 10370 0 0
2019/10/06 11:24:00 BASE 1.64 70 2.11 53 -9.0 71 -13.3 134 0 984.1 NA 0.0000 9999 7910 10370 0 0
2019/10/06 11:25:00 BASE 1.93 62 2.31 44 -9.0 71 -13.3 134 0 984.1 NA 0.0000 9999 10300 0 0 0
2019/10/06 11:26:00 BASE 2.10 48 2.31 44 -8.9 71 -13.3 135 0 984.1 NA 0.0000 9999 10240 0 0 0
2019/10/06 11:27:00 BASE 2.21 47 2.52 50 -8.9 70 -13.3 135 0 984.0 NA 0.0000 9999 10240 0 0 0
2019/10/06 11:28:00 BASE 2.29 47 2.52 50 -8.8 70 -13.4 135 0 984.0 NA 0.0000 9999 8010 10400 0 0
2019/10/06 11:29:00 BASE 2.03 51 2.52 50 -8.7 69 -13.4 135 0 984.0 NA 0.0000 9999 8040 0 0 0
2019/10/06 11:30:00 BASE 1.79 62 2.52 50 -8.7 69 -13.4 135 0 984.0 NA 0.0000 9999 8010 0 0 0
2019/10/06 11:31:00 BASE 1.88 69 2.52 50 -8.7 68 -13.5 135 0 984.0 NA 0.0000 9999 7940 0 0 0
2019/10/06 11:32:00 BASE 2.10 75 2.73 88 -8.7 68 -13.5 135 0 984.0 NA 0.0000 9999 7970 0 0 0
2019/10/06 11:33:00 BASE 2.47 84 3.09 90 -8.6 68 -13.5 135 0 984.0 NA 0.0000 9999 7970 0 0 0
2019/10/06 11:34:00 BASE 2.70 89 3.09 90 -8.6 68 -13.4 134 0 983.9 NA 0.0000 9999 7910 0 0 0
2019/10/06 11:35:00 BASE 2.76 91 3.09 90 -8.6 68 -13.4 134 0 983.9 NA 0.0000 9999 7970 10300 23660 0
2019/10/06 11:36:00 BASE 2.86 94 3.09 90 -8.5 68 -13.4 134 0 983.9 NA 0.0000 9999 7940 0 0 0
2019/10/06 11:37:00 BASE 3.08 101 3.55 107 -8.4 67 -13.5 134 0 983.9 NA 0.0000 9999 8010 0 0 0
2019/10/06 11:38:00 BASE 3.02 98 3.55 107 -8.4 66 -13.6 135 0 983.9 NA 0.0000 9999 8040 10430 0 0
2019/10/06 11:39:00 BASE 2.49 85 3.55 107 -8.3 65 -13.7 135 0 983.9 NA 0.0000 9999 7970 10500 0 0
2019/10/06 11:40:00 BASE 2.17 80 3.55 107 -8.2 64 -13.8 135 0 983.9 NA 0.0000 9999 8040 0 0 0
2019/10/06 11:41:00 BASE 2.05 81 3.55 107 -8.2 63 -13.9 136 0 983.9 NA 0.0000 9999 8040 0 0 0
2019/10/06 11:42:00 BASE 1.69 79 3.55 107 -8.1 62 -14.0 136 0 983.9 NA 0.0000 9999 8070 0 0 0
2019/10/06 11:43:00 BASE 1.36 68 3.55 107 -8.0 62 -14.1 137 0 983.9 NA 0.0000 9999 8100 0 0 0
2019/10/06 11:44:00 BASE 1.05 57 3.55 107 -8.0 61 -14.2 138 0 983.9 NA 0.0000 9999 8010 0 0 0
2019/10/06 11:45:00 BASE 0.40 46 3.55 107 -8.0 61 -14.3 139 0 983.9 NA 0.0000 9999 7970 0 0 0
2019/10/06 11:46:00 BASE 0.00 31 3.55 107 -8.0 60 -14.3 140 0 983.8 NA 0.0000 9999 8100 0 0 0
2019/10/06 11:47:00 BASE 0.00 15 3.04 85 -8.0 60 -14.4 141 0 983.7 NA 0.0000 9999 8200 0 0 0
2019/10/06 11:48:00 BASE 0.00 351 2.57 77 -8.0 60 -14.3 143 0 983.7 NA 0.0000 9999 8270 0 0 0
2019/10/06 11:49:00 BASE 0.00 327 2.42 82 -8.0 61 -14.3 144 0 983.7 NA 0.0000 9999 8330 0 0 0
2019/10/06 11:50:00 BASE 0.00 317 2.11 84 -8.0 61 -14.2 145 0 983.7 NA 0.0000 9999 8240 0 0 0
2019/10/06 11:51:00 BASE 0.00 313 1.65 86 -8.0 61 -14.2 146 0 983.7 NA 0.0000 9999 8240 0 0 0
2019/10/06 11:52:00 BASE 0.00 263 1.49 58 -7.9 60 -14.3 147 0 983.7 NA 0.0000 9999 8240 0 0 0
2019/10/06 11:53:00 BASE 0.00 214 1.29 53 -8.0 61 -14.3 148 0 983.7 NA 0.0000 9999 8200 10560 0 0
2019/10/06 11:54:00 BASE 0.00 209 M M -8.2 61 -14.3 150 0 983.7 NA 0.0000 9999 7870 0 0 0
2019/10/06 11:55:00 BASE 0.00 203 M M -8.3 63 -14.1 151 0 983.7 NA 0.0000 9999 8240 0 0 0
2019/10/06 11:56:00 BASE 0.00 201 M M -8.3 64 -13.9 152 0 983.7 NA 0.0000 9999 8240 10700 0 0
2019/10/06 11:57:00 BASE 0.00 201 M M -8.4 66 -13.6 153 0 983.7 NA 0.0000 9999 8270 10700 0 0
2019/10/06 11:58:00 BASE 0.00 208 M M -8.4 67 -13.4 155 0 983.6 NA 0.0000 9999 8240 10630 0 0
2019/10/06 11:59:00 BASE 0.00 224 M M -8.4 68 -13.3 156 0 983.5 NA 0.0000 9999 8170 0 0 0
2019/10/06 12:00:00 BASE 0.00 235 M M -8.4 68 -13.2 157 0 983.5 NA 0.0000 9999 8240 10730 0 0
2019/10/06 12:01:00 BASE 0.00 244 M M -8.4 68 -13.2 159 0 983.5 NA 0.0000 9999 8270 10860 0 0
2019/10/06 12:02:00 BASE 0.00 248 M M -8.4 68 -13.3 161 0 983.5 NA 0.0000 9999 8240 10730 0 0
2019/10/06 12:03:00 BASE 0.00 239 M M -8.4 68 -13.2 163 0 983.5 NA 0.0000 9999 8240 10700 0 0
2019/10/06 12:04:00 BASE 0.00 229 M M -8.4 68 -13.2 165 0 983.5 NA 0.0000 9999 8170 10890 0 0
2019/10/06 12:05:00 BASE 0.00 227 M M -8.4 68 -13.3 166 0 983.5 NA 0.0000 9999 8170 10930 0 0
2019/10/06 12:06:00 BASE 0.00 235 M M -8.3 68 -13.2 168 0 983.5 NA 0.0000 9999 8140 10700 0 0
2019/10/06 12:07:00 BASE 0.00 246 M M -8.3 68 -13.3 169 0 983.5 NA 0.0000 9999 8100 10660 0 0
2019/10/06 12:08:00 BASE 0.00 249 M M -8.4 68 -13.3 171 0 983.5 NA 0.0000 9999 10700 0 0 0
2019/10/06 12:09:00 BASE 0.00 244 M M -8.4 68 -13.3 172 0 983.4 NA 0.0000 9999 10700 0 0 0
2019/10/06 12:10:00 BASE 0.00 237 M M -8.3 68 -13.3 174 0 983.4 NA 0.0000 9999 10730 0 0 0
2019/10/06 12:11:00 BASE 0.00 236 M M -8.3 67 -13.3 176 0 983.4 NA 0.0000 9999 10730 0 0 0
2019/10/06 12:12:00 BASE 0.00 236 M M -8.2 67 -13.3 178 0 983.4 NA 0.0000 9999 10860 0 0 0
2019/10/06 12:13:00 BASE 0.00 236 M M -8.1 66 -13.3 180 0 983.4 NA 0.0000 9999 10730 0 0 0
2019/10/06 12:14:00 BASE 0.00 236 M M -8.1 65 -13.4 183 0 983.4 NA 0.0000 9999 10660 0 0 0
2019/10/06 12:15:00 BASE 0.00 222 M M -8.0 64 -13.5 185 0 983.4 NA 0.0000 9999 10730 0 0 0
2019/10/06 12:16:00 BASE 0.00 180 M M -8.0 64 -13.7 187 0 983.4 NA 0.0000 9999 10730 0 0 0
2019/10/06 12:17:00 BASE 0.00 159 M M -8.0 63 -13.8 190 0 983.4 NA 0.0000 9999 10730 0 0 0
2019/10/06 12:18:00 BASE 0.00 159 M M -8.1 63 -13.8 192 0 983.4 NA 0.0000 9999 10830 0 0 0
2019/10/06 12:19:00 BASE 0.00 172 M M -8.1 64 -13.8 194 0 983.4 NA 0.0000 9999 10760 18930 0 0
2019/10/06 12:20:00 BASE 0.00 247 M M -8.2 64 -13.8 196 0 983.4 NA 0.0000 9999 10830 0 0 0
2019/10/06 12:21:00 BASE 0.52 316 2.47 352 -8.2 65 -13.7 198 0 983.4 NA 0.0000 9999 10890 0 0 0
2019/10/06 12:22:00 BASE 1.99 344 3.19 340 -8.2 65 -13.6 200 0 983.4 NA 0.0000 9999 10830 0 0 0
2019/10/06 12:23:00 BASE 2.71 343 3.19 340 -8.2 65 -13.6 201 0 983.4 NA 0.0000 9999 10830 0 0 0
2019/10/06 12:24:00 BASE 2.08 339 3.19 340 -8.2 66 -13.4 202 0 983.4 NA 0.0000 9999 10860 0 0 0
2019/10/06 12:25:00 BASE 1.20 341 3.19 340 -8.3 68 -13.1 204 0 983.4 NA 0.0000 9999 10890 0 0 0
2019/10/06 12:26:00 BASE 0.35 336 3.19 340 -8.4 70 -12.8 205 0 983.4 NA 0.0000 9999 10890 0 0 0
2019/10/06 12:27:00 BASE 0.04 312 3.19 340 -8.4 73 -12.4 206 0 983.3 NA 0.0000 9999 10890 0 0 0
2019/10/06 12:28:00 BASE 0.04 292 3.19 340 -8.4 74 -12.2 208 0 983.3 NA 0.0000 9999 10830 0 0 0
2019/10/06 12:29:00 BASE 0.00 289 3.19 340 -8.4 75 -12.0 209 0 983.3 NA 0.0000 9999 10890 0 0 0
2019/10/06 12:30:00 BASE 0.00 279 3.19 340 -8.4 76 -11.9 210 0 983.3 NA 0.0000 9999 10830 0 0 0
2019/10/06 12:31:00 BASE 0.00 270 3.19 340 -8.4 76 -11.9 212 0 983.3 NA 0.0000 9999 10760 0 0 0
2019/10/06 12:32:00 BASE 0.00 258 2.88 336 -8.5 76 -11.9 213 0 983.3 NA 0.0000 9999 10830 0 0 0
2019/10/06 12:33:00 BASE 0.00 245 2.06 341 -8.5 77 -11.9 214 0 983.2 NA 0.0000 9999 10890 0 0 0
2019/10/06 12:34:00 BASE 0.43 253 1.39 343 -8.5 77 -11.8 216 0 983.2 NA 0.0000 9999 10830 0 0 0
2019/10/06 12:35:00 BASE 1.02 271 1.34 272 -8.5 77 -11.8 218 0 983.2 NA 0.0000 9999 10860 0 0 0
2019/10/06 12:36:00 BASE 1.22 287 1.44 296 -8.5 78 -11.7 218 0 983.2 NA 0.0000 9999 10830 0 0 0
2019/10/06 12:37:00 BASE 1.45 297 1.85 296 -8.4 78 -11.6 219 0 983.2 NA 0.0000 9999 10830 0 0 0
2019/10/06 12:38:00 BASE 1.70 303 1.85 309 -8.4 78 -11.5 221 0 983.1 NA 0.0000 9999 10830 0 0 0
2019/10/06 12:39:00 BASE 1.63 313 1.85 309 -8.3 78 -11.5 221 0 983.1 NA 0.0000 9999 10790 0 0 0
2019/10/06 12:40:00 BASE 1.65 317 2.06 316 -8.3 77 -11.5 219 0 983.1 NA 0.0000 9999 10860 0 0 0
2019/10/06 12:41:00 BASE 1.82 317 2.06 316 -8.3 77 -11.5 219 0 983.1 NA 0.0000 9999 10860 0 0 0
2019/10/06 12:42:00 BASE 1.80 316 2.06 316 -8.3 77 -11.6 220 0 983.1 NA 0.0000 9999 7970 10890 0 0
2019/10/06 12:43:00 BASE 1.76 318 2.06 316 -8.3 77 -11.6 219 0 983.1 NA 0.0000 9999 10860 0 0 0
2019/10/06 12:44:00 BASE 1.59 321 2.06 316 -8.3 77 -11.6 219 0 983.1 NA 0.0000 9999 10890 0 0 0
2019/10/06 12:45:00 BASE 1.11 324 2.06 316 -8.3 77 -11.6 221 0 983.0 NA 0.0000 9999 10890 0 0 0
2019/10/06 12:46:00 BASE 0.39 326 2.06 316 -8.2 77 -11.5 222 0 983.0 NA 0.0000 9999 10830 0 0 0
2019/10/06 12:47:00 BASE 0.00 326 2.06 316 -8.2 77 -11.4 223 0 982.9 NA 0.0000 9999 10760 0 0 0
2019/10/06 12:48:00 BASE 0.00 326 2.06 316 -8.2 77 -11.4 224 0 982.9 NA 0.0000 9999 10830 0 0 0
2019/10/06 12:49:00 BASE 0.00 326 2.06 316 -8.2 78 -11.4 224 0 982.9 NA 0.0000 9999 10830 0 0 0
2019/10/06 12:50:00 BASE 0.00 339 2.06 316 -8.3 78 -11.5 222 0 982.9 NA 0.0000 9999 10790 0 0 0
2019/10/06 12:51:00 BASE 0.00 33 1.85 321 -8.4 78 -11.6 221 0 982.9 NA 0.0000 9999 10760 0 0 0
2019/10/06 12:52:00 BASE 0.57 67 1.85 321 -8.5 78 -11.6 221 0 982.9 NA 0.0000 9999 10660 0 0 0
2019/10/06 12:53:00 BASE 1.40 57 1.95 39 -8.5 78 -11.6 221 0 982.9 NA 0.0000 9999 10560 0 0 0
2019/10/06 12:54:00 BASE 1.90 38 2.31 31 -8.5 79 -11.5 221 0 982.9 NA 0.0000 9999 10760 0 0 0
2019/10/06 12:55:00 BASE 2.27 30 2.62 28 -8.4 79 -11.5 221 0 982.9 NA 0.0000 9999 10760 0 0 0
2019/10/06 12:56:00 BASE 2.42 26 2.62 26 -8.4 79 -11.4 221 0 982.8 NA 0.0000 9999 7810 0 0 0
2019/10/06 12:57:00 BASE 2.39 13 2.62 26 -8.4 79 -11.3 221 0 982.8 NA 0.0000 9999 7780 0 0 0
2019/10/06 12:58:00 BASE 2.03 5 2.62 26 -8.3 79 -11.3 222 0 982.8 NA 0.0000 9999 7780 0 0 0
2019/10/06 12:59:00 BASE 1.43 12 2.62 26 -8.3 79 -11.3 223 0 982.8 NA 0.0000 9999 7710 0 0 0
2019/10/06 13:00:00 BASE 1.29 37 2.62 26 -8.3 79 -11.3 225 0 982.8 NA 0.0000 9999 7710 0 0 0
2019/10/06 13:01:00 BASE 1.80 58 2.78 51 -8.3 79 -11.3 229 0 982.8 NA 0.0000 9999 7780 0 0 0
2019/10/06 13:02:00 BASE 2.41 53 2.98 35 -8.3 79 -11.3 237 0 982.8 NA 0.0000 9999 7710 0 0 0
2019/10/06 13:03:00 BASE 3.00 46 3.65 42 -8.3 79 -11.3 245 0 982.8 NA 0.0000 9999 7550 0 0 0
2019/10/06 13:04:00 BASE 3.54 40 3.86 30 -8.3 78 -11.4 252 0 982.8 NA 0.0000 9999 7710 0 0 0
2019/10/06 13:05:00 BASE 3.45 29 3.86 30 -8.2 78 -11.4 257 0 982.8 NA 0.0000 9999 7580 0 0 0
2019/10/06 13:06:00 BASE 2.82 16 3.86 30 -8.2 77 -11.6 261 0 982.7 NA 0.0000 9999 7680 0 0 0
2019/10/06 13:07:00 BASE 2.07 11 3.86 30 -8.2 76 -11.6 263 0 982.8 NA 0.0000 9999 7710 0 0 0
2019/10/06 13:08:00 BASE 1.63 22 3.86 30 -8.2 76 -11.7 263 0 982.8 NA 0.0000 9999 7710 0 0 0
2019/10/06 13:09:00 BASE 1.66 39 3.86 30 -8.2 75 -11.8 264 0 982.7 NA 0.0000 9999 7740 0 0 0
2019/10/06 13:10:00 BASE 1.93 52 3.86 30 -8.1 75 -11.8 265 0 982.7 NA 0.0000 9999 7740 0 0 0
2019/10/06 13:11:00 BASE 2.16 59 3.86 30 -8.1 75 -11.8 268 0 982.7 NA 0.0000 9999 7780 0 0 0
2019/10/06 13:12:00 BASE 2.10 59 3.86 30 -8.1 75 -11.8 272 0 982.7 NA 0.0000 9999 7740 0 0 0
2019/10/06 13:13:00 BASE 1.81 50 3.86 30 -8.1 74 -11.9 276 0 982.6 NA 0.0000 9999 7740 0 0 0
2019/10/06 13:14:00 BASE 1.50 50 3.40 22 -8.1 74 -11.9 277 0 982.6 NA 0.0000 9999 7640 0 0 0
2019/10/06 13:15:00 BASE 1.50 70 2.88 6 -8.0 73 -12.0 277 0 982.6 NA 0.0000 9999 7710 0 0 0
2019/10/06 13:16:00 BASE 1.66 78 2.42 65 -8.0 72 -12.1 276 0 982.6 NA 0.0000 9999 7710 0 0 0
2019/10/06 13:17:00 BASE 1.57 68 2.42 65 -7.9 71 -12.2 276 0 982.6 NA 0.0000 9999 7810 0 0 0
2019/10/06 13:18:00 BASE 1.61 67 2.42 65 -7.8 70 -12.4 276 0 982.6 NA 0.0000 9999 7810 0 0 0
2019/10/06 13:19:00 BASE 1.64 59 2.42 65 -7.8 69 -12.5 274 0 982.6 NA 0.0000 9999 7740 0 0 0
2019/10/06 13:20:00 BASE 1.48 39 2.31 73 -7.7 67 -12.7 273 0 982.6 NA 0.0000 9999 7580 19460 0 0
2019/10/06 13:21:00 BASE 1.43 34 2.31 73 -7.7 66 -12.8 274 0 982.6 NA 0.0000 9999 7680 0 0 0
2019/10/06 13:22:00 BASE 1.16 34 2.31 73 -7.6 66 -13.0 278 0 982.6 NA 0.0000 9999 7680 0 0 0
2019/10/06 13:23:00 BASE 0.81 30 2.31 73 -7.6 65 -13.1 280 0 982.6 NA 0.0000 9999 7610 0 0 0
2019/10/06 13:24:00 BASE 0.99 32 2.31 73 -7.6 65 -13.1 272 0 982.5 NA 0.0000 9999 7610 0 0 0
2019/10/06 13:25:00 BASE 1.00 31 2.31 73 -7.6 64 -13.2 267 0 982.4 NA 0.0000 9999 7580 0 0 0
2019/10/06 13:26:00 BASE 0.34 18 2.16 75 -7.6 64 -13.2 261 0 982.4 NA 0.0000 9999 7550 0 0 0
2019/10/06 13:27:00 BASE 0.37 13 2.16 75 -7.6 64 -13.3 256 0 982.4 NA 0.0000 9999 7550 0 0 0
2019/10/06 13:28:01 BASE 0.73 18 1.65 39 -7.6 64 -13.3 252 0 982.3 NA 0.0000 9999 7550 0 0 0
2019/10/06 13:29:00 BASE 0.36 14 1.65 39 -7.6 63 -13.4 248 0 982.3 NA 0.0000 9999 7840 0 0 0
2019/10/06 13:30:00 BASE 0.00 2 1.65 39 -7.6 63 -13.4 245 0 982.3 NA 0.0000 9999 7740 0 0 0
2019/10/06 13:31:00 BASE 0.00 354 1.44 37 -7.6 63 -13.4 243 0 982.3 NA 0.0000 9999 7610 0 0 0
2019/10/06 13:32:00 BASE 0.00 341 1.44 37 -7.6 64 -13.3 240 0 982.3 NA 0.0000 9999 7640 0 0 0
2019/10/06 13:33:00 BASE 0.00 325 1.44 37 -7.5 64 -13.1 241 0 982.3 NA 0.0000 9999 7840 0 0 0
2019/10/06 13:34:00 BASE 0.00 317 1.29 23 -7.5 65 -12.9 251 0 982.3 NA 0.0000 9999 7810 0 0 0
2019/10/06 13:35:00 BASE 0.66 315 1.65 315 -7.4 66 -12.8 324 0 982.3 NA 0.0000 9999 0 0 0 0
2019/10/06 13:36:00 BASE 1.49 317 1.75 315 -7.4 66 -12.7 488 0 982.3 NA 0.0000 9999 7910 0 0 0
2019/10/06 13:37:00 BASE 1.48 327 1.75 315 -7.4 67 -12.5 401 0 982.3 NA 0.0000 9999 7870 0 0 0
2019/10/06 13:38:00 BASE 0.74 340 1.75 315 -7.5 67 -12.5 386 0 982.3 NA 0.0000 9999 7910 0 0 0
2019/10/06 13:39:00 BASE 0.09 348 1.75 315 -7.5 68 -12.4 392 0 982.3 NA 0.0000 9999 7840 0 0 0
2019/10/06 13:40:00 BASE 0.09 346 1.75 315 -7.6 68 -12.5 387 0 982.3 NA 0.0000 9999 7840 20310 22410 0
2019/10/06 13:41:00 BASE 0.64 339 1.75 315 -7.6 68 -12.5 405 0 982.3 NA 0.0000 9999 7910 0 0 0
2019/10/06 13:42:00 BASE 1.34 331 1.75 324 -7.6 68 -12.5 455 0 982.3 NA 0.0000 9999 7940 0 0 0
2019/10/06 13:43:00 BASE 1.61 327 1.80 322 -7.6 67 -12.6 510 0 982.2 NA 0.0000 9999 7940 0 0 0
2019/10/06 13:44:00 BASE 1.80 325 2.26 324 -7.5 67 -12.6 508 0 982.2 NA 0.0000 9999 7940 0 0 0
2019/10/06 13:45:00 BASE 2.16 323 2.62 319 -7.5 67 -12.6 514 0 982.2 NA 0.0000 9999 7870 0 0 0
2019/10/06 13:46:00 BASE 2.51 323 2.78 326 -7.4 67 -12.6 499 0 982.1 NA 0.0000 9999 7840 0 0 0
2019/10/06 13:47:00 BASE 2.71 325 3.09 323 -7.5 67 -12.5 481 0 982.1 NA 0.0000 9999 7870 0 0 0
2019/10/06 13:48:00 BASE 2.91 324 3.14 324 -7.5 68 -12.4 463 0 982.1 NA 0.0000 9999 0 0 0 0
2019/10/06 13:49:00 BASE 2.97 324 3.14 324 -7.5 69 -12.3 455 0 982.2 NA 0.0000 9999 0 0 0 0
2019/10/06 13:50:00 BASE 2.79 324 3.14 324 -7.6 70 -12.1 453 0 982.2 NA 0.0000 9999 0 0 0 0
2019/10/06 13:51:00 BASE 2.40 321 3.14 324 -7.6 71 -12.0 448 0 982.2 NA 0.0000 9999 0 0 0 0
2019/10/06 13:52:00 BASE 1.44 310 3.14 324 -7.5 72 -11.8 456 0 982.2 NA 0.0000 9999 0 0 0 0
2019/10/06 13:53:00 BASE 0.38 300 3.14 324 -7.5 72 -11.7 452 0 982.2 NA 0.0000 9999 0 0 0 0
2019/10/06 13:54:00 BASE 0.00 296 3.14 324 -7.5 73 -11.6 451 0 982.2 NA 0.0000 9999 0 0 0 0
2019/10/06 13:55:00 BASE 0.00 296 3.14 324 -7.5 73 -11.5 449 0 982.1 NA 0.0000 9999 7020 0 0 0
2019/10/06 13:56:00 BASE 0.17 304 3.14 324 -7.4 73 -11.4 452 0 982.1 NA 0.0000 9999 0 0 0 0
2019/10/06 13:57:00 BASE 0.77 316 3.14 324 -7.3 73 -11.4 458 0 982.1 NA 0.0000 9999 0 0 0 0
2019/10/06 13:58:00 BASE 1.38 326 3.04 324 -7.2 71 -11.5 468 0 982.1 NA 0.0000 9999 0 0 0 0
2019/10/06 13:59:00 BASE 1.61 332 2.78 324 -7.1 70 -11.7 458 0 982.1 NA 0.0000 9999 0 0 0 0
2019/10/06 14:00:00 BASE 1.77 333 2.52 323 -7.1 68 -12.1 460 0 982.1 NA 0.0000 9999 0 0 0 0
2019/10/06 14:01:00 BASE 2.07 335 2.42 337 -7.2 66 -12.4 471 0 982.1 NA 0.0000 9999 0 0 0 0
2019/10/06 14:02:00 BASE 2.42 338 2.78 342 -7.3 65 -12.7 471 0 982.1 NA 0.0000 9999 0 0 0 0
2019/10/06 14:03:00 BASE 2.72 342 3.09 343 -7.4 65 -12.8 474 0 982.1 NA 0.0000 9999 0 0 0 0
2019/10/06 14:04:00 BASE 2.72 347 3.09 343 -7.5 66 -12.8 473 0 982.1 NA 0.0000 9999 0 0 0 0
2019/10/06 14:05:00 BASE 2.61 347 3.09 343 -7.6 67 -12.7 474 0 982.1 NA 0.0000 9999 0 0 0 0
2019/10/06 14:06:00 BASE 2.45 347 3.09 343 -7.6 68 -12.6 471 0 982.1 NA 0.0000 9999 0 0 0 0
2019/10/06 14:07:00 BASE 2.02 355 3.09 343 -7.7 69 -12.4 471 0 982.0 NA 0.0000 9999 0 0 0 0
2019/10/06 14:08:00 BASE 1.61 6 3.09 343 -7.7 70 -12.3 477 0 982.0 NA 0.0000 9999 0 0 0 0
2019/10/06 14:09:00 BASE 0.86 14 3.09 343 -7.8 71 -12.1 471 0 982.0 NA 0.0000 9999 0 0 0 0
2019/10/06 14:10:00 BASE 0.14 25 3.09 343 -7.8 72 -12.0 469 0 982.0 NA 0.0000 9999 0 0 0 0
2019/10/06 14:11:00 BASE 0.00 37 3.09 343 -7.8 73 -11.9 472 0 981.9 NA 0.0000 9999 0 0 0 0
2019/10/06 14:12:00 BASE 0.00 24 3.09 343 -7.8 73 -11.7 473 0 981.8 NA 0.0000 9999 0 0 0 0
2019/10/06 14:13:00 BASE 0.00 13 2.88 347 -7.7 74 -11.6 484 0 981.8 NA 0.0000 9999 0 0 0 0
2019/10/06 14:14:00 BASE 0.00 34 2.88 347 -7.7 74 -11.6 478 0 981.8 NA 0.0000 9999 0 0 0 0
2019/10/06 14:15:00 BASE 0.00 52 2.42 344 -7.7 74 -11.5 485 0 981.8 NA 0.0000 9999 0 0 0 0
2019/10/06 14:16:00 BASE 0.00 51 2.21 351 -7.6 74 -11.5 480 0 981.8 NA 0.0000 9999 0 0 0 0
2019/10/06 14:17:00 BASE 0.00 31 1.70 1 -7.6 74 -11.4 484 0 981.8 NA 0.0000 9999 0 0 0 0
2019/10/06 14:18:00 BASE 0.00 345 1.13 10 -7.6 74 -11.4 485 0 981.8 NA 0.0000 9999 0 0 0 0
2019/10/06 14:19:00 BASE 0.00 319 M M -7.4 74 -11.3 481 0 981.8 NA 0.0000 9999 0 0 0 0
2019/10/06 14:20:00 BASE 0.00 319 M M -7.3 74 -11.2 457 0 981.7 NA 0.0000 9999 0 0 0 0
2019/10/06 14:21:00 BASE 0.00 319 M M -7.2 73 -11.2 444 0 981.7 NA 0.0000 9999 0 0 0 0
2019/10/06 14:22:00 BASE 0.00 319 M M -7.2 73 -11.2 447 0 981.7 NA 0.0000 9999 0 0 0 0
2019/10/06 14:23:00 BASE 0.00 319 M M -7.1 72 -11.3 437 0 981.7 NA 0.0000 9999 0 0 0 0
2019/10/06 14:24:00 BASE 0.00 319 M M -7.3 72 -11.4 435 0 981.7 NA 0.0000 9999 0 0 0 0
2019/10/06 14:25:00 BASE 0.00 319 M M -7.4 72 -11.6 426 0 981.7 NA 0.0000 9999 0 0 0 0
2019/10/06 14:26:00 BASE 0.00 319 M M -7.5 72 -11.7 429 0 981.7 NA 0.0000 9999 0 0 0 0
2019/10/06 14:27:00 BASE 0.00 354 M M -7.5 72 -11.6 425 0 981.7 NA 0.0000 9999 0 0 0 0
2019/10/06 14:28:00 BASE 0.00 74 M M -7.5 73 -11.5 414 0 981.6 NA 0.0000 9999 0 0 0 0
2019/10/06 14:29:00 BASE 0.00 84 M M -7.4 73 -11.5 412 0 981.6 NA 0.0000 9999 0 0 0 0
2019/10/06 14:30:00 BASE 0.00 88 M M -7.4 73 -11.4 420 0 981.6 NA 0.0000 9999 0 0 0 0
2019/10/06 14:31:00 BASE 0.00 115 M M -7.3 73 -11.4 423 0 981.6 NA 0.0000 9999 0 0 0 0
2019/10/06 14:32:00 BASE 0.00 140 M M -7.4 72 -11.5 406 0 981.6 NA 0.0000 9999 0 0 0 0
2019/10/06 14:33:00 BASE 0.00 143 M M -7.4 72 -11.5 403 0 981.6 NA 0.0000 9999 0 0 0 0
2019/10/06 14:34:00 BASE 0.00 140 M M -7.4 72 -11.6 412 0 981.6 NA 0.0000 9999 0 0 0 0
2019/10/06 14:35:00 BASE 0.00 132 M M -7.4 72 -11.5 430 0 981.6 NA 0.0000 9999 0 0 0 0
2019/10/06 14:36:00 BASE 0.00 125 M M -7.3 72 -11.4 423 0 981.6 NA 0.0000 9999 0 0 0 0
2019/10/06 14:37:00 BASE 0.00 114 M M -7.3 73 -11.4 414 0 981.6 NA 0.0000 9999 0 0 0 0
2019/10/06 14:38:00 BASE 0.00 10 M M -7.3 72 -11.4 427 0 981.5 NA 0.0000 9999 0 0 0 0
2019/10/06 14:39:00 BASE 0.09 343 1.03 345 -7.3 72 -11.6 428 0 981.5 NA 0.0000 9999 0 0 0 0
2019/10/06 14:40:00 BASE 0.09 344 1.03 345 -7.3 70 -11.8 446 0 981.5 NA 0.0000 9999 0 0 0 0
2019/10/06 14:41:00 BASE 0.00 339 1.03 345 -7.3 69 -12.1 456 0 981.5 NA 0.0000 9999 0 0 0 0
2019/10/06 14:42:00 BASE 0.00 335 1.03 345 -7.2 67 -12.3 480 0 981.5 NA 0.0000 9999 0 0 0 0
2019/10/06 14:43:00 BASE 0.00 356 1.03 345 -7.2 66 -12.5 496 0 981.4 NA 0.0000 9999 0 0 0 0
2019/10/06 14:44:00 BASE 0.00 19 1.03 345 -7.2 65 -12.6 508 0 981.4 NA 0.0000 9999 0 0 0 0
2019/10/06 14:45:00 BASE 0.00 12 1.03 345 -7.2 66 -12.5 523 0 981.4 NA 0.0000 9999 0 0 0 0
2019/10/06 14:46:00 BASE 0.00 3 1.03 345 -7.2 67 -12.4 522 0 981.4 NA 0.0000 9999 0 0 0 0
2019/10/06 14:47:00 BASE 0.00 2 1.03 345 -7.2 67 -12.3 528 0 981.4 NA 0.0000 9999 0 0 0 0
2019/10/06 14:48:00 BASE 0.00 8 1.03 345 -7.3 68 -12.2 539 0 981.4 NA 0.0000 9999 0 0 0 0
2019/10/06 14:49:00 BASE 0.13 18 1.13 23 -7.3 69 -12.1 553 0 981.4 NA 0.0000 9999 0 0 0 0
2019/10/06 14:50:00 BASE 0.82 14 1.44 360 -7.3 69 -12.0 568 0 981.4 NA 0.0000 9999 0 0 0 0
2019/10/06 14:51:00 BASE 1.34 356 1.49 354 -7.3 70 -12.0 574 0 981.4 NA 0.0000 9999 0 0 0 0
2019/10/06 14:52:00 BASE 1.19 346 1.65 345 -7.3 70 -11.8 593 0 981.4 NA 0.0000 9999 0 0 0 0
2019/10/06 14:53:00 BASE 1.22 345 1.80 340 -7.2 71 -11.6 616 0 981.4 NA 0.0000 9999 0 0 0 0
2019/10/06 14:54:00 BASE 1.43 349 1.80 340 -7.2 72 -11.4 614 0 981.4 NA 0.0000 9999 0 0 0 0
2019/10/06 14:55:00 BASE 1.57 3 1.80 19 -7.2 73 -11.3 619 0 981.4 NA 0.0000 9999 0 0 0 0
2019/10/06 14:56:00 BASE 1.67 15 1.85 13 -7.3 74 -11.2 633 0 981.4 NA 0.0000 9999 0 0 0 0
2019/10/06 14:57:00 BASE 1.48 15 1.85 13 -7.3 74 -11.1 574 0 981.4 NA 0.0000 9999 0 0 0 0
2019/10/06 14:58:00 BASE 1.24 8 1.85 13 -7.4 75 -11.1 403 0 981.4 NA 0.0000 9999 8730 0 0 0
2019/10/06 14:59:00 BASE 0.70 352 1.85 13 -7.4 75 -11.1 388 0 981.4 NA 0.0000 9999 8690 0 0 0
2019/10/06 15:00:00 BASE 0.09 348 1.85 13 -7.5 75 -11.1 380 0 981.4 NA 0.0000 9999 0 0 0 0
2019/10/06 15:01:00 BASE 0.00 359 1.85 13 -7.5 75 -11.1 380 0 981.3 NA 0.0000 9999 8690 0 0 0
2019/10/06 15:02:00 BASE 0.00 6 1.85 13 -7.5 75 -11.1 361 0 981.2 NA 0.0000 9999 8730 0 0 0
2019/10/06 15:03:00 BASE 0.00 7 1.85 13 -7.5 75 -11.1 343 0 981.2 NA 0.0000 9999 8690 0 0 0
2019/10/06 15:04:00 BASE 0.00 13 1.85 13 -7.5 75 -11.2 341 0 981.2 NA 0.0000 9999 8730 0 0 0
2019/10/06 15:05:00 BASE 0.04 27 1.85 13 -7.6 75 -11.2 348 0 981.2 NA 0.0000 9999 0 0 0 0
2019/10/06 15:06:00 BASE 0.47 36 1.49 17 -7.5 75 -11.1 358 0 981.2 NA 0.0000 9999 8660 0 0 0
2019/10/06 15:07:00 BASE 1.01 42 1.34 5 -7.6 76 -11.1 353 0 981.2 NA 0.0000 9999 0 0 0 0
2019/10/06 15:08:00 BASE 1.10 48 1.29 42 -7.5 76 -11.1 383 0 981.2 NA 0.0000 9999 8630 8920 0 0
2019/10/06 15:09:00 BASE 1.19 60 1.54 77 -7.5 76 -11.0 363 0 981.2 NA 0.0000 9999 8560 0 0 0
2019/10/06 15:10:00 BASE 1.39 73 1.70 77 -7.4 76 -10.9 346 0 981.2 NA 0.0000 9999 8530 0 0 0
2019/10/06 15:11:00 BASE 1.67 90 2.11 103 -7.4 76 -11.0 339 0 981.2 NA 0.0000 9999 8560 0 0 0
2019/10/06 15:12:00 BASE 1.90 106 2.11 110 -7.3 75 -11.0 342 0 981.2 NA 0.0000 9999 8530 0 0 0
2019/10/06 15:13:00 BASE 1.78 119 2.11 110 -7.3 74 -11.2 353 0 981.2 NA 0.0000 9999 8530 0 0 0
2019/10/06 15:14:00 BASE 1.71 133 2.11 110 -7.2 72 -11.4 357 0 981.2 NA 0.0000 9999 8530 0 0 0
2019/10/06 15:15:00 BASE 1.90 137 2.31 132 -7.2 71 -11.7 360 0 981.2 NA 0.0000 9999 8530 0 0 0
2019/10/06 15:16:00 BASE 2.21 134 2.88 142 -7.2 69 -11.9 369 0 981.2 NA 0.0000 9999 8500 0 0 0
2019/10/06 15:17:00 BASE 2.61 141 3.04 148 -7.2 68 -12.1 395 0 981.2 NA 0.0000 9999 8460 0 0 0
2019/10/06 15:18:00 BASE 2.61 147 3.04 148 -7.3 67 -12.3 393 0 981.2 NA 0.0000 9999 8530 0 0 0
2019/10/06 15:19:00 BASE 2.25 148 3.04 148 -7.3 67 -12.4 428 0 981.1 NA 0.0000 9999 8530 0 0 0
2019/10/06 15:20:00 BASE 2.07 149 3.04 148 -7.3 67 -12.4 486 0 981.0 NA 0.0000 9999 8560 0 0 0
2019/10/06 15:21:00 BASE 1.97 146 3.04 148 -7.3 67 -12.3 681 0 981.0 NA 0.0000 9999 8560 0 0 0
2019/10/06 15:22:00 BASE 1.90 142 3.04 148 -7.3 67 -12.3 488 0 981.0 NA 0.0000 9999 8530 0 0 0
2019/10/06 15:23:00 BASE 2.07 142 3.04 148 -7.2 67 -12.3 469 0 981.0 NA 0.0000 9999 8500 0 0 0
2019/10/06 15:24:00 BASE 2.32 146 3.04 148 -7.2 67 -12.3 450 0 981.0 NA 0.0000 9999 8460 0 0 0
2019/10/06 15:25:00 BASE 2.37 149 3.04 148 -7.2 67 -12.3 472 0 981.0 NA 0.0000 9999 8530 20180 0 0
2019/10/06 15:26:00 BASE 2.23 151 3.04 148 -7.1 66 -12.5 486 0 981.0 NA 0.0000 9999 8530 0 0 0
2019/10/06 15:27:00 BASE 2.00 152 2.57 151 -7.1 65 -12.6 504 0 981.0 NA 0.0000 9999 8530 0 0 0
2019/10/06 15:28:00 BASE 1.74 154 2.57 151 -7.1 64 -12.7 557 0 981.0 NA 0.0000 9999 8530 0 0 0
2019/10/06 15:29:00 BASE 1.62 154 2.57 151 -7.0 64 -12.7 634 0 981.0 NA 0.0000 9999 8600 0 0 0
2019/10/06 15:30:00 BASE 1.99 157 2.57 151 -6.9 63 -12.8 533 0 981.0 NA 0.0000 9999 8500 0 0 0
2019/10/06 15:31:00 BASE 2.30 159 2.62 149 -6.8 63 -12.7 597 0 981.0 NA 0.0000 9999 8530 0 0 0
2019/10/06 15:32:00 BASE 2.78 155 3.70 151 -6.7 63 -12.6 618 0 981.0 NA 0.0000 9999 8500 0 0 0
2019/10/06 15:33:00 BASE 3.64 151 4.63 143 -6.6 63 -12.5 495 0 981.0 NA 0.0000 9999 8430 0 0 0
2019/10/06 15:34:00 BASE 4.06 149 4.63 143 -6.6 63 -12.5 452 0 981.0 NA 0.0000 9999 8500 0 0 0
2019/10/06 15:35:00 BASE 3.53 145 4.63 143 -6.6 63 -12.5 523 0 981.0 NA 0.0000 9999 8460 0 0 0
2019/10/06 15:36:00 BASE 2.54 142 4.63 143 -6.6 62 -12.7 418 0 981.0 NA 0.0000 9999 8460 0 0 0
2019/10/06 15:37:00 BASE 2.10 145 4.63 143 -6.7 62 -12.8 404 0 981.0 NA 0.0000 9999 8500 0 0 0
2019/10/06 15:38:00 BASE 2.55 149 4.63 143 -6.7 61 -12.9 411 0 981.0 NA 0.0000 9999 8500 0 0 0
2019/10/06 15:39:00 BASE 3.28 154 4.63 143 -6.7 60 -13.1 403 0 981.0 NA 0.0000 9999 8460 0 0 0
2019/10/06 15:40:00 BASE 3.72 156 4.63 143 -6.7 60 -13.2 438 0 980.9 NA 0.0000 9999 8460 0 0 0
2019/10/06 15:41:00 BASE 3.85 151 4.63 143 -6.6 60 -13.2 463 0 980.9 NA 0.0000 9999 8430 0 0 0
2019/10/06 15:42:00 BASE 3.72 146 4.63 143 -6.7 60 -13.2 383 0 980.9 NA 0.0000 9999 8430 0 0 0
2019/10/06 15:43:00 BASE 3.23 143 4.48 145 -6.7 60 -13.2 370 0 980.8 NA 0.0000 9999 8660 0 0 0
2019/10/06 15:44:00 BASE 2.98 140 4.42 143 -6.7 60 -13.1 370 0 980.9 NA 0.0000 9999 8560 0 0 0
2019/10/06 15:45:00 BASE 3.25 137 4.42 143 -6.7 61 -13.1 371 0 980.9 NA 0.0000 9999 8630 0 0 0
2019/10/06 15:46:00 BASE 3.15 132 4.42 143 -6.8 61 -13.0 376 0 980.9 NA 0.0000 9999 8500 0 0 0
2019/10/06 15:47:00 BASE 3.05 130 4.42 143 -6.8 61 -13.0 383 0 980.9 NA 0.0000 9999 8500 0 0 0
2019/10/06 15:48:00 BASE 3.22 131 4.42 143 -6.8 61 -13.0 385 0 980.9 NA 0.0000 9999 8600 0 0 0
2019/10/06 15:49:00 BASE 3.53 132 4.42 143 -6.7 61 -13.0 385 0 980.8 NA 0.0000 9999 8560 0 0 0
2019/10/06 15:50:00 BASE 3.51 136 4.42 143 -6.7 61 -13.1 385 0 980.8 NA 0.0000 9999 8560 0 0 0
2019/10/06 15:51:00 BASE 3.08 142 4.27 133 -6.7 60 -13.1 387 0 980.8 NA 0.0000 9999 8530 0 0 0
2019/10/06 15:52:00 BASE 3.38 141 4.27 133 -6.6 60 -13.1 391 0 980.8 NA 0.0000 9999 8500 0 0 0
2019/10/06 15:53:00 BASE 3.73 142 4.27 133 -6.6 60 -13.1 397 0 980.8 NA 0.0000 9999 8400 22610 0 0
2019/10/06 15:54:00 BASE 3.41 145 4.27 133 -6.5 59 -13.1 401 0 980.7 NA 0.0000 9999 8500 0 0 0
2019/10/06 15:55:00 BASE 3.25 149 4.27 133 -6.5 59 -13.1 401 0 980.7 NA 0.0000 9999 8430 20470 0 0
2019/10/06 15:56:00 BASE 3.62 152 4.27 153 -6.4 59 -13.0 400 0 980.6 NA 0.0000 9999 8400 0 0 0
2019/10/06 15:57:00 BASE 3.88 147 4.27 153 -6.4 59 -13.0 399 0 980.6 NA 0.0000 9999 8400 0 0 0
2019/10/06 15:58:00 BASE 3.89 139 4.37 134 -6.4 60 -13.0 398 0 980.6 NA 0.0000 9999 8400 0 0 0
2019/10/06 15:59:00 BASE 3.96 138 4.48 139 -6.4 60 -13.0 397 0 980.6 NA 0.0000 9999 8400 0 0 0
2019/10/06 16:00:00 BASE 3.73 141 4.48 139 -6.4 60 -13.0 399 0 980.6 NA 0.0000 9999 8400 0 0 0
2019/10/06 16:01:00 BASE 3.08 138 4.48 139 -6.4 59 -13.0 401 0 980.6 NA 0.0000 9999 8430 0 0 0
2019/10/06 16:02:00 BASE 2.51 131 4.48 139 -6.4 59 -13.1 404 0 980.6 NA 0.0000 9999 8400 0 0 0
2019/10/06 16:03:00 BASE 2.30 134 4.48 139 -6.4 59 -13.1 407 0 980.6 NA 0.0000 9999 8370 0 0 0
2019/10/06 16:04:00 BASE 2.37 140 4.48 139 -6.4 59 -13.0 409 0 980.6 NA 0.0000 9999 8370 0 0 0
2019/10/06 16:05:00 BASE 2.40 145 4.48 139 -6.4 60 -13.0 410 0 980.5 NA 0.0000 9999 8200 0 0 0
2019/10/06 16:06:00 BASE 2.73 144 4.48 139 -6.4 60 -12.9 409 0 980.4 NA 0.0000 9999 8400 0 0 0
2019/10/06 16:07:00 BASE 3.37 142 4.48 139 -6.4 60 -12.8 407 0 980.4 NA 0.0000 9999 8400 0 0 0
2019/10/06 16:08:00 BASE 3.76 147 4.48 139 -6.3 60 -12.8 404 0 980.4 NA 0.0000 9999 8330 0 0 0
2019/10/06 16:09:00 BASE 3.89 149 4.22 153 -6.3 60 -12.7 402 0 980.3 NA 0.0000 9999 8300 0 0 0
2019/10/06 16:10:00 BASE 3.94 149 4.27 148 -6.3 61 -12.7 400 0 980.3 NA 0.0000 9999 8300 0 0 0
2019/10/06 16:11:00 BASE 4.08 147 4.32 147 -6.3 61 -12.7 400 0 980.3 NA 0.0000 9999 8270 0 0 0
2019/10/06 16:12:00 BASE 4.08 150 4.32 147 -6.4 61 -12.7 403 0 980.3 NA 0.0000 9999 8270 0 0 0
2019/10/06 16:13:00 BASE 3.80 155 4.32 147 -6.4 61 -12.7 408 0 980.3 NA 0.0000 9999 8270 0 0 0
2019/10/06 16:14:00 BASE 3.32 155 4.32 147 -6.4 61 -12.6 413 0 980.3 NA 0.0000 9999 8270 22510 0 0
2019/10/06 16:15:00 BASE 2.91 151 4.32 147 -6.3 61 -12.6 418 0 980.3 NA 0.0000 9999 8330 0 0 0
2019/10/06 16:16:00 BASE 2.97 152 4.32 147 -6.3 61 -12.6 424 0 980.3 NA 0.0000 9999 8370 0 0 0
2019/10/06 16:17:00 BASE 3.30 155 4.32 147 -6.3 61 -12.5 428 0 980.3 NA 0.0000 9999 8300 0 0 0
2019/10/06 16:18:00 BASE 3.25 152 4.32 147 -6.3 62 -12.5 425 0 980.3 NA 0.0000 9999 8370 0 0 0
2019/10/06 16:19:00 BASE 2.82 147 4.32 147 -6.3 62 -12.4 419 0 980.3 NA 0.0000 9999 8330 0 0 0
2019/10/06 16:20:00 BASE 2.65 145 4.32 147 -6.3 63 -12.3 412 0 980.3 NA 0.0000 9999 8300 0 0 0
2019/10/06 16:21:00 BASE 2.58 143 4.17 151 -6.3 63 -12.2 407 0 980.3 NA 0.0000 9999 8270 0 0 0
2019/10/06 16:22:00 BASE 2.52 139 3.81 157 -6.3 63 -12.1 408 0 980.3 NA 0.0000 9999 8370 0 0 0
2019/10/06 16:23:00 BASE 2.73 137 3.65 152 -6.3 64 -12.0 411 0 980.3 NA 0.0000 9999 8370 0 0 0
2019/10/06 16:24:00 BASE 2.98 142 3.65 152 -6.3 64 -12.0 412 0 980.3 NA 0.0000 9999 8400 0 0 0
2019/10/06 16:25:00 BASE 2.99 143 3.65 152 -6.3 64 -12.0 412 0 980.2 NA 0.0000 9999 8400 0 0 0
2019/10/06 16:26:00 BASE 2.88 142 3.65 152 -6.3 64 -12.0 416 0 980.2 NA 0.0000 9999 8330 0 0 0
2019/10/06 16:27:00 BASE 2.88 142 3.45 150 -6.3 64 -12.1 421 0 980.2 NA 0.0000 9999 8300 0 0 0
2019/10/06 16:28:00 BASE 2.76 142 3.24 153 -6.3 63 -12.1 426 0 980.2 NA 0.0000 9999 8370 0 0 0
2019/10/06 16:29:00 BASE 2.48 145 3.24 153 -6.3 63 -12.1 430 0 980.2 NA 0.0000 9999 8300 0 0 0
2019/10/06 16:30:00 BASE 2.35 146 3.24 153 -6.3 63 -12.1 435 0 980.2 NA 0.0000 9999 8300 19160 20110 0
2019/10/06 16:31:00 BASE 2.30 147 3.24 153 -6.3 64 -12.0 436 0 980.2 NA 0.0000 9999 8330 22340 0 0
2019/10/06 16:32:00 BASE 2.16 146 3.24 153 -6.3 64 -12.0 434 0 980.2 NA 0.0000 9999 8400 0 0 0
2019/10/06 16:33:00 BASE 1.94 139 3.24 153 -6.2 64 -12.0 431 0 980.2 NA 0.0000 9999 8370 0 0 0
2019/10/06 16:34:00 BASE 1.79 135 3.19 144 -6.2 63 -12.1 432 0 980.1 NA 0.0000 9999 8370 0 0 0
2019/10/06 16:35:00 BASE 1.61 131 3.19 144 -6.2 63 -12.1 435 0 980.1 NA 0.0000 9999 8330 21160 0 0
2019/10/06 16:36:00 BASE 1.40 131 3.19 144 -6.2 63 -12.1 445 0 980.0 NA 0.0000 9999 8240 0 0 0
2019/10/06 16:37:00 BASE 1.38 136 2.83 135 -6.2 63 -12.2 455 0 980.1 NA 0.0000 9999 8330 0 0 0
2019/10/06 16:38:00 BASE 1.58 141 2.78 145 -6.2 63 -12.2 452 0 980.0 NA 0.0000 9999 8370 0 0 0
2019/10/06 16:39:00 BASE 1.75 145 2.78 145 -6.2 62 -12.2 448 0 979.9 NA 0.0000 9999 8300 0 0 0
2019/10/06 16:40:00 BASE 1.91 146 2.62 145 -6.2 62 -12.3 438 0 979.9 NA 0.0000 9999 8330 0 0 0
2019/10/06 16:41:00 BASE 2.22 149 2.52 152 -6.2 62 -12.3 429 0 979.9 NA 0.0000 9999 8330 0 0 0
2019/10/06 16:42:00 BASE 2.27 154 2.52 152 -6.2 62 -12.3 427 0 979.9 NA 0.0000 9999 8330 20870 0 0
2019/10/06 16:43:00 BASE 2.35 159 2.78 160 -6.2 62 -12.3 416 0 979.8 NA 0.0000 9999 8270 0 0 0
2019/10/06 16:44:00 BASE 2.48 164 2.78 160 -6.2 62 -12.3 409 0 979.8 NA 0.0000 9999 8330 0 0 0
2019/10/06 16:45:00 BASE 2.46 166 2.78 162 -6.2 62 -12.3 405 0 979.8 NA 0.0000 9999 8370 0 0 0
2019/10/06 16:46:00 BASE 2.79 166 3.24 175 -6.2 62 -12.3 408 0 979.8 NA 0.0000 9999 8370 0 0 0
2019/10/06 16:47:00 BASE 3.27 167 3.76 163 -6.2 62 -12.2 414 0 979.8 NA 0.0000 9999 8300 0 0 0
2019/10/06 16:48:00 BASE 3.49 165 3.96 159 -6.2 63 -12.2 397 0 979.8 NA 0.0000 9999 8330 0 0 0
2019/10/06 16:49:00 BASE 3.57 163 3.96 159 -6.2 63 -12.1 389 0 979.8 NA 0.0000 9999 8240 0 0 0
2019/10/06 16:50:00 BASE 3.53 165 4.01 158 -6.2 63 -12.1 387 0 979.8 NA 0.0000 9999 8300 0 0 0
2019/10/06 16:51:00 BASE 3.44 166 4.01 166 -6.2 63 -12.2 381 0 979.8 NA 0.0000 9999 8370 0 0 0
2019/10/06 16:52:00 BASE 3.18 164 4.01 166 -6.2 63 -12.2 376 0 979.8 NA 0.0000 9999 8330 0 0 0
2019/10/06 16:53:00 BASE 3.04 162 4.01 166 -6.2 63 -12.2 372 0 979.8 NA 0.0000 9999 8330 0 0 0
2019/10/06 16:54:00 BASE 3.19 159 4.01 166 -6.3 63 -12.2 366 0 979.8 NA 0.0000 9999 8300 0 0 0
2019/10/06 16:55:00 BASE 3.28 156 4.01 166 -6.3 63 -12.2 361 0 979.8 NA 0.0000 9999 8330 0 0 0
2019/10/06 16:56:00 BASE 3.18 154 4.01 166 -6.2 63 -12.2 355 0 979.8 NA 0.0000 9999 8330 0 0 0
2019/10/06 16:57:00 BASE 2.94 154 4.01 166 -6.2 62 -12.2 350 0 979.7 NA 0.0000 9999 8070 0 0 0
2019/10/06 16:58:00 BASE 2.95 153 4.01 166 -6.2 62 -12.2 345 0 979.7 NA 0.0000 9999 8270 0 0 0
2019/10/06 16:59:00 BASE 3.06 149 4.01 166 -6.2 62 -12.2 344 0 979.6 NA 0.0000 9999 8300 0 0 0
2019/10/06 17:00:00 BASE 3.02 142 4.01 166 -6.2 62 -12.3 344 0 979.6 NA 0.0000 9999 8330 0 0 0
2019/10/06 17:01:00 BASE 3.15 135 3.86 128 -6.3 63 -12.2 345 0 979.6 NA 0.0000 9999 8370 0 0 0
2019/10/06 17:02:00 BASE 3.29 135 3.86 128 -6.3 63 -12.2 347 0 979.5 NA 0.0000 9999 8240 0 0 0
2019/10/06 17:03:01 BASE 3.26 138 3.86 128 -6.3 63 -12.2 350 0 979.5 NA 0.0000 9999 8270 0 0 0
2019/10/06 17:04:00 BASE 3.26 137 3.86 128 -6.3 63 -12.2 355 0 979.5 NA 0.0000 9999 8200 0 0 0
2019/10/06 17:05:00 BASE 3.28 136 4.22 130 -6.2 63 -12.1 360 0 979.5 NA 0.0000 9999 8270 0 0 0
2019/10/06 17:06:00 BASE 3.41 138 4.48 129 -6.2 63 -12.0 364 0 979.5 NA 0.0000 9999 8140 0 0 0
2019/10/06 17:07:00 BASE 3.47 134 4.48 129 -6.2 64 -12.0 367 0 979.5 NA 0.0000 9999 8170 0 0 0
2019/10/06 17:08:00 BASE 3.62 131 4.48 129 -6.1 64 -11.9 369 0 979.5 NA 0.0000 9999 8100 0 0 0
2019/10/06 17:09:00 BASE 3.86 134 4.68 126 -6.1 64 -11.8 372 0 979.4 NA 0.0000 9999 8170 0 0 0
2019/10/06 17:10:00 BASE 3.84 135 4.89 129 -6.0 64 -11.7 384 0 979.3 NA 0.0000 9999 8170 0 0 0
2019/10/06 17:11:00 BASE 3.63 129 4.89 129 -6.0 64 -11.7 387 0 979.4 NA 0.0000 9999 8100 0 0 0
2019/10/06 17:12:00 BASE 3.26 123 4.89 129 -5.9 64 -11.7 387 0 979.4 NA 0.0000 9999 8140 0 0 0
2019/10/06 17:13:00 BASE 2.93 121 4.89 129 -5.9 64 -11.7 389 0 979.3 NA 0.0000 9999 8140 0 0 0
2019/10/06 17:14:00 BASE 2.93 122 4.89 129 -5.9 63 -11.7 399 0 979.3 NA 0.0000 9999 8200 0 0 0
2019/10/06 17:15:00 BASE 2.77 124 4.89 129 -5.8 63 -11.7 397 0 979.3 NA 0.0000 9999 8200 0 0 0
2019/10/06 17:16:00 BASE 2.31 124 4.89 129 -5.8 63 -11.7 394 0 979.3 NA 0.0000 9999 8200 0 0 0
2019/10/06 17:17:00 BASE 1.92 122 4.89 129 -5.8 63 -11.6 390 0 979.3 NA 0.0000 9999 8270 0 0 0
2019/10/06 17:18:00 BASE 1.24 121 4.89 129 -5.7 64 -11.5 387 0 979.3 NA 0.0000 9999 8200 0 0 0
2019/10/06 17:19:00 BASE 0.50 155 4.89 129 -5.7 64 -11.3 389 0 979.3 NA 0.0000 9999 8240 0 0 0
2019/10/06 17:20:00 BASE 0.68 250 4.53 128 -5.8 65 -11.3 383 0 979.3 NA 0.0000 9999 8240 0 0 0
2019/10/06 17:21:00 BASE 1.32 264 3.55 126 -5.9 65 -11.4 382 0 979.2 NA 0.0000 9999 8200 0 0 0
2019/10/06 17:22:00 BASE 1.45 261 3.55 126 -6.0 65 -11.4 395 0 979.2 NA 0.0000 9999 8170 0 0 0
2019/10/06 17:23:00 BASE 1.51 259 3.55 126 -6.1 65 -11.6 440 0 979.2 NA 0.0000 9999 8170 0 0 0
2019/10/06 17:24:00 BASE 1.66 260 2.68 113 -6.2 64 -11.8 381 0 979.2 NA 0.0000 9999 8170 0 0 0
2019/10/06 17:25:00 BASE 1.63 277 2.52 119 -6.2 64 -11.9 374 0 979.2 NA 0.0000 9999 8170 0 0 0
2019/10/06 17:26:00 BASE 1.41 303 2.21 319 -6.1 64 -11.9 372 0 979.1 NA 0.0000 9999 8240 0 0 0
2019/10/06 17:27:00 BASE 1.30 312 2.21 319 -5.9 63 -11.9 376 0 979.2 NA 0.0000 9999 8200 0 0 0
2019/10/06 17:28:00 BASE 1.34 313 2.21 319 -5.8 63 -11.8 371 0 979.1 NA 0.0000 9999 8100 0 0 0
2019/10/06 17:29:00 BASE 1.60 324 2.21 319 -5.7 62 -11.8 373 0 979.1 NA 0.0000 9999 8100 0 0 0
2019/10/06 17:30:00 BASE 1.83 334 2.21 319 -5.7 62 -11.7 365 0 979.1 NA 0.0000 9999 8140 0 0 0
2019/10/06 17:31:00 BASE 1.75 342 2.21 319 -5.7 62 -11.7 360 0 979.1 NA 0.0000 9999 8140 0 0 0
2019/10/06 17:32:00 BASE 1.58 348 2.21 319 -5.7 63 -11.7 358 0 979.1 NA 0.0000 9999 8240 0 0 0
2019/10/06 17:33:00 BASE 1.68 343 2.21 319 -5.7 63 -11.7 359 0 979.1 NA 0.0000 9999 8170 0 0 0
2019/10/06 17:34:00 BASE 2.28 334 3.40 326 -5.7 63 -11.6 365 0 979.1 NA 0.0000 9999 8240 0 0 0
2019/10/06 17:35:00 BASE 3.01 329 3.50 320 -5.7 63 -11.6 380 0 979.1 NA 0.0000 9999 8170 0 0 0
2019/10/06 17:36:00 BASE 3.59 330 4.58 332 -5.7 63 -11.5 414 0 979.0 NA 0.0000 9999 8100 0 0 0
2019/10/06 17:37:00 BASE 3.86 335 5.45 340 -5.6 64 -11.4 391 0 979.0 NA 0.0000 9999 8040 19000 19590 0
2019/10/06 17:38:00 BASE 4.20 337 5.45 340 -5.6 65 -11.3 397 0 979.0 NA 0.0000 9999 8100 0 0 0
2019/10/06 17:39:00 BASE 4.40 339 5.45 340 -5.7 66 -11.1 385 0 979.0 NA 0.0000 9999 8140 0 0 0
2019/10/06 17:40:00 BASE 4.31 339 5.45 340 -5.8 67 -11.0 388 0 979.0 NA 0.0000 9999 8040 0 0 0
2019/10/06 17:41:00 BASE 4.04 340 5.45 340 -5.8 68 -10.8 392 0 979.0 NA 0.0000 9999 8070 0 0 0
2019/10/06 17:42:00 BASE 3.88 342 5.45 340 -5.9 69 -10.6 394 0 979.0 NA 0.0000 9999 7420 7970 0 0
2019/10/06 17:43:00 BASE 4.21 340 5.45 340 -5.9 70 -10.5 394 0 978.9 NA 0.0000 9999 8070 0 0 0
2019/10/06 17:44:00 BASE 4.19 339 5.45 340 -5.9 70 -10.5 389 0 978.9 NA 0.0000 9999 6890 8040 0 0
2019/10/06 17:45:00 BASE 3.82 340 5.45 340 -5.9 70 -10.5 385 0 978.9 NA 0.0000 9999 7870 0 0 0
2019/10/06 17:46:00 BASE 3.43 339 5.45 340 -5.9 70 -10.5 376 0 978.9 NA 0.0000 9999 8070 0 0 0
2019/10/06 17:47:00 BASE 3.24 338 5.25 340 -5.9 70 -10.5 369 0 978.9 NA 0.0000 9999 8100 0 0 0
2019/10/06 17:48:00 BASE 3.30 335 5.25 340 -5.9 70 -10.5 363 0 978.9 NA 0.0000 9999 8200 0 0 0
2019/10/06 17:49:00 BASE 3.20 331 4.84 339 -5.9 70 -10.5 359 0 978.9 NA 0.0000 9999 8200 0 0 0
2019/10/06 17:50:00 BASE 3.47 333 4.84 339 -5.9 70 -10.4 357 0 978.9 NA 0.0000 9999 8200 0 0 0
2019/10/06 17:51:00 BASE 4.19 331 4.84 332 -5.8 70 -10.4 358 0 978.8 NA 0.0000 9999 8070 17680 0 0
2019/10/06 17:52:00 BASE 4.57 327 4.99 320 -5.8 70 -10.4 359 0 978.7 NA 0.0000 9999 8100 0 0 0
2019/10/06 17:53:00 BASE 4.63 326 4.99 320 -5.8 70 -10.4 361 0 978.7 NA 0.0000 9999 8200 0 0 0
2019/10/06 17:54:00 BASE 4.62 326 4.99 320 -5.8 70 -10.5 361 0 978.7 NA 0.0000 9999 8100 21620 0 0
2019/10/06 17:55:00 BASE 4.42 319 4.99 320 -5.9 69 -10.6 361 0 978.7 NA 0.0000 9999 8100 15720 0 0
2019/10/06 17:56:00 BASE 4.23 314 4.99 320 -5.9 69 -10.6 360 0 978.7 NA 0.0000 9999 8100 0 0 0
2019/10/06 17:57:00 BASE 4.18 316 4.99 320 -5.8 69 -10.7 358 0 978.7 NA 0.0000 9999 8100 0 0 0
2019/10/06 17:58:00 BASE 4.42 318 5.04 323 -5.8 69 -10.7 356 0 978.7 NA 0.0000 9999 7940 0 0 0
2019/10/06 17:59:00 BASE 4.79 321 5.14 322 -5.9 69 -10.7 356 0 978.7 NA 0.0000 9999 7640 0 0 0
2019/10/06 18:00:00 BASE 4.88 325 5.71 328 -5.9 69 -10.6 357 0 978.7 NA 0.0000 9999 6760 7970 21390 0
2019/10/06 18:01:00 BASE 4.78 326 5.71 328 -5.9 69 -10.6 356 0 978.7 NA 0.0000 9999 8140 0 0 0
2019/10/06 18:02:00 BASE 4.64 324 5.71 328 -5.9 69 -10.6 354 0 978.6 NA 0.0000 9999 8070 0 0 0
2019/10/06 18:03:00 BASE 4.94 326 5.71 328 -5.9 69 -10.7 349 0 978.6 NA 0.0000 9999 8200 0 0 0
2019/10/06 18:04:00 BASE 5.15 330 5.71 328 -5.9 69 -10.6 346 0 978.6 NA 0.0000 9999 8040 0 0 0
2019/10/06 18:05:00 BASE 5.27 330 5.81 332 -5.8 69 -10.6 342 0 978.6 NA 0.0000 9999 8170 0 0 0
2019/10/06 18:06:00 BASE 5.34 330 5.81 332 -5.8 69 -10.6 336 0 978.5 NA 0.0000 9999 8170 0 0 0
2019/10/06 18:07:00 BASE 5.21 327 5.81 332 -5.8 69 -10.6 330 0 978.5 NA 0.0000 9999 8270 0 0 0
2019/10/06 18:08:00 BASE 5.08 324 5.81 332 -5.8 69 -10.7 326 0 978.5 NA 0.0000 9999 8300 0 0 0
2019/10/06 18:09:00 BASE 4.77 323 5.81 332 -5.9 69 -10.7 326 0 978.5 NA 0.0000 9999 8330 0 0 0
2019/10/06 18:10:00 BASE 4.48 323 5.81 332 -5.9 68 -10.8 329 0 978.5 NA 0.0000 9999 8270 0 0 0
2019/10/06 18:11:00 BASE 4.29 325 5.81 332 -5.9 68 -10.8 332 0 978.5 NA 0.0000 9999 6890 8330 0 0
2019/10/06 18:12:00 BASE 3.89 324 5.81 332 -5.9 68 -10.9 334 0 978.5 NA 0.0000 9999 6820 8170 0 0
2019/10/06 18:13:00 BASE 3.41 321 5.81 332 -5.9 68 -10.9 336 0 978.5 NA 0.0000 9999 7050 8330 0 0
2019/10/06 18:14:00 BASE 3.23 320 5.81 332 -5.8 68 -10.8 338 0 978.5 NA 0.0000 9999 7150 8170 0 0
2019/10/06 18:15:00 BASE 3.11 318 5.71 324 -5.9 68 -10.8 340 0 978.5 NA 0.0000 9999 7450 8070 0 0
2019/10/06 18:16:00 BASE 3.02 315 5.71 324 -5.9 68 -10.8 341 0 978.5 NA 0.0000 9999 7710 0 0 0
2019/10/06 18:17:00 BASE 3.17 316 5.61 326 -5.8 68 -10.9 342 0 978.5 NA 0.0000 9999 8140 19030 19920 0
2019/10/06 18:18:00 BASE 3.16 319 4.78 324 -5.8 67 -10.9 344 0 978.5 NA 0.0000 9999 7840 0 0 0
2019/10/06 18:19:00 BASE 3.11 319 4.68 318 -5.8 67 -10.9 345 0 978.5 NA 0.0000 9999 8140 0 0 0
2019/10/06 18:20:00 BASE 3.19 319 4.58 323 -5.8 67 -10.9 346 0 978.5 NA 0.0000 9999 7740 0 0 0
2019/10/06 18:21:00 BASE 2.97 319 3.96 329 -5.8 68 -10.8 347 0 978.5 NA 0.0000 9999 7870 0 0 0
2019/10/06 18:22:00 BASE 2.99 321 3.91 324 -5.8 68 -10.8 346 0 978.4 NA 0.0000 9999 7870 0 0 0
2019/10/06 18:23:00 BASE 3.48 323 4.06 323 -5.8 68 -10.8 344 0 978.4 NA 0.0000 9999 8240 0 0 0
2019/10/06 18:24:00 BASE 4.03 323 4.53 317 -5.8 68 -10.8 342 0 978.4 NA 0.0000 9999 7840 8300 0 0
2019/10/06 18:25:00 BASE 4.31 323 4.53 323 -5.8 68 -10.8 340 0 978.4 NA 0.0000 9999 8300 0 0 0
2019/10/06 18:26:00 BASE 4.15 323 4.53 323 -5.8 68 -10.9 339 0 978.4 NA 0.0000 9999 8040 0 0 0
2019/10/06 18:27:00 BASE 3.80 323 4.53 323 -5.8 68 -10.9 337 0 978.4 NA 0.0000 9999 8240 0 0 0
2019/10/06 18:28:00 BASE 3.48 322 4.53 323 -5.8 68 -10.9 334 0 978.4 NA 0.0000 9999 5840 8300 0 0
2019/10/06 18:29:00 BASE 3.25 322 4.53 323 -5.8 68 -10.9 329 0 978.3 NA 0.0000 9999 5840 0 0 0
2019/10/06 18:30:00 BASE 3.10 317 4.53 323 -5.8 68 -10.8 326 0 978.4 NA 0.0000 9999 5840 8200 0 0
2019/10/06 18:31:00 BASE 3.07 309 4.53 323 -5.8 68 -10.8 324 0 978.4 NA 0.0000 9999 5840 8330 0 0
2019/10/06 18:32:00 BASE 3.36 307 4.53 323 -5.8 68 -10.7 321 0 978.4 NA 0.0000 9999 5770 8240 0 0
2019/10/06 18:33:00 BASE 3.57 311 4.53 323 -5.8 68 -10.8 316 0 978.4 NA 0.0000 9999 5770 0 0 0
2019/10/06 18:34:00 BASE 3.68 315 4.53 323 -5.8 68 -10.8 313 0 978.4 NA 0.0000 9999 5810 0 0 0
2019/10/06 18:35:00 BASE 3.73 318 4.48 323 -5.8 67 -10.9 313 0 978.4 NA 0.0000 9999 5810 0 0 0
2019/10/06 18:36:00 BASE 3.60 319 4.01 316 -5.8 67 -11.0 313 0 978.3 NA 0.0000 9999 5810 0 0 0
2019/10/06 18:37:00 BASE 3.51 319 4.01 316 -5.8 66 -11.1 312 0 978.3 NA 0.0000 9999 5770 0 0 0
2019/10/06 18:38:00 BASE 3.62 319 4.12 323 -5.8 66 -11.1 311 0 978.3 NA 0.0000 9999 5770 0 0 0
2019/10/06 18:39:00 BASE 3.81 319 4.12 323 -5.8 66 -11.1 310 0 978.4 NA 0.0000 9999 5710 8300 0 0
2019/10/06 18:40:00 BASE 3.74 319 4.12 323 -5.8 67 -11.0 310 0 978.3 NA 0.0000 9999 5740 8330 0 0
2019/10/06 18:41:00 BASE 3.53 321 4.12 323 -5.8 67 -11.0 311 0 978.3 NA 0.0000 9999 5770 0 0 0
2019/10/06 18:42:00 BASE 3.36 322 4.12 323 -5.8 67 -11.0 309 0 978.3 NA 0.0000 9999 5770 0 0 0
2019/10/06 18:43:00 BASE 3.11 320 4.12 323 -5.9 67 -10.9 305 0 978.3 NA 0.0000 9999 5810 8010 0 0
2019/10/06 18:44:00 BASE 3.05 319 4.12 323 -5.9 68 -10.9 301 0 978.2 NA 0.0000 9999 5770 8170 0 0
2019/10/06 18:45:00 BASE 2.99 319 4.12 323 -5.9 68 -10.9 297 0 978.2 NA 0.0000 9999 5810 8200 0 0
2019/10/06 18:46:00 BASE 2.73 320 4.12 323 -5.9 68 -10.8 292 0 978.2 NA 0.0000 9999 5770 8100 0 0
2019/10/06 18:47:00 BASE 2.57 323 4.12 323 -5.9 68 -10.8 287 0 978.2 NA 0.0000 9999 5840 8170 0 0
2019/10/06 18:48:00 BASE 2.50 321 4.01 319 -5.9 68 -10.8 282 0 978.2 NA 0.0000 9999 5910 8330 0 0
2019/10/06 18:49:00 BASE 2.41 320 3.86 320 -5.9 68 -10.8 279 0 978.2 NA 0.0000 9999 5940 0 0 0
2019/10/06 18:50:00 BASE 2.10 322 3.76 320 -5.9 68 -10.8 277 0 978.2 NA 0.0000 9999 5940 0 0 0
2019/10/06 18:51:00 BASE 1.73 328 3.60 317 -5.9 68 -10.8 275 0 978.2 NA 0.0000 9999 5940 0 0 0
2019/10/06 18:52:00 BASE 1.30 332 3.40 317 -5.9 68 -10.8 274 0 978.2 NA 0.0000 9999 5940 0 0 0
2019/10/06 18:53:00 BASE 0.52 330 3.40 317 -5.9 68 -10.8 273 0 978.2 NA 0.0000 9999 5870 0 0 0
2019/10/06 18:54:00 BASE 0.00 329 3.04 321 -5.9 68 -10.8 273 0 978.1 NA 0.0000 9999 5870 0 0 0
2019/10/06 18:55:00 BASE 0.00 325 2.83 324 -5.9 68 -10.9 271 0 978.1 NA 0.0000 9999 5810 0 0 0
2019/10/06 18:56:00 BASE 0.33 326 2.68 313 -5.9 68 -10.9 269 0 978.1 NA 0.0000 9999 5940 0 0 0
2019/10/06 18:57:00 BASE 1.00 323 2.68 313 -5.9 67 -11.0 266 0 978.1 NA 0.0000 9999 5940 8300 0 0
2019/10/06 18:58:00 BASE 1.32 308 2.42 319 -5.9 67 -10.9 264 0 978.1 NA 0.0000 9999 8140 0 0 0
2019/10/06 18:59:00 BASE 1.34 305 2.31 318 -5.8 67 -10.9 261 0 978.1 NA 0.0000 9999 6140 8170 0 0
2019/10/06 19:00:00 BASE 1.24 308 1.75 329 -5.8 68 -10.8 259 0 978.1 NA 0.0000 9999 6040 8240 0 0
2019/10/06 19:01:00 BASE 1.02 311 1.54 308 -5.7 68 -10.7 255 0 978.1 NA 0.0000 9999 6170 8070 0 0
2019/10/06 19:02:00 BASE 0.46 309 1.54 308 -5.7 68 -10.6 252 0 978.1 NA 0.0000 9999 8100 0 0 0
2019/10/06 19:03:00 BASE 0.09 303 1.54 308 -5.6 68 -10.6 249 0 978.1 NA 0.0000 9999 8070 0 0 0
2019/10/06 19:04:00 BASE 0.09 303 1.54 308 -5.6 68 -10.6 246 0 978.1 NA 0.0000 9999 8100 0 0 0
2019/10/06 19:05:00 BASE 0.00 308 1.54 308 -5.6 68 -10.6 243 0 978.1 NA 0.0000 9999 8100 0 0 0
2019/10/06 19:06:00 BASE 0.00 315 1.54 308 -5.6 68 -10.7 240 0 978.1 NA 0.0000 9999 8040 22570 23660 0
2019/10/06 19:07:00 BASE 0.00 316 1.54 308 -5.6 68 -10.6 237 0 978.0 NA 0.0000 9999 8100 0 0 0
2019/10/06 19:08:00 BASE 0.00 325 1.54 308 -5.6 67 -10.7 235 0 978.0 NA 0.0000 9999 8070 0 0 0
2019/10/06 19:09:00 BASE 0.00 337 1.44 316 -5.7 67 -10.8 234 0 978.0 NA 0.0000 9999 8010 0 0 0
2019/10/06 19:10:00 BASE 0.00 338 1.44 316 -5.7 67 -10.9 233 0 978.0 NA 0.0000 9999 8100 0 0 0
2019/10/06 19:11:00 BASE 0.00 339 1.13 302 -5.8 67 -10.9 232 0 978.0 NA 0.0000 9999 8140 0 0 0
2019/10/06 19:12:00 BASE 0.31 342 1.39 347 -5.9 67 -11.0 232 0 978.0 NA 0.0000 9999 8100 0 0 0
2019/10/06 19:13:00 BASE 0.83 346 1.39 347 -5.9 68 -10.9 231 0 977.9 NA 0.0000 9999 8040 0 0 0
2019/10/06 19:14:00 BASE 0.93 346 1.39 347 -5.9 68 -10.9 230 0 978.0 NA 0.0000 9999 8100 0 0 0
2019/10/06 19:15:00 BASE 1.11 345 1.49 345 -6.0 69 -10.8 230 0 977.9 NA 0.0000 9999 8100 0 0 0
2019/10/06 19:16:00 BASE 1.22 342 1.49 345 -6.0 69 -10.8 230 0 977.9 NA 0.0000 9999 8010 0 0 0
2019/10/06 19:17:00 BASE 0.57 335 1.49 345 -6.0 69 -10.8 232 0 977.9 NA 0.0000 9999 8100 0 0 0
2019/10/06 19:18:00 BASE 0.04 336 1.49 345 -6.0 69 -10.7 235 0 977.9 NA 0.0000 9999 8040 0 0 0
2019/10/06 19:19:00 BASE 0.27 339 1.49 345 -6.0 69 -10.7 235 0 977.9 NA 0.0000 9999 8070 0 0 0
2019/10/06 19:20:00 BASE 0.49 338 1.49 345 -5.9 70 -10.6 234 0 977.9 NA 0.0000 9999 8100 0 0 0
2019/10/06 19:21:00 BASE 0.79 336 1.49 345 -5.9 70 -10.5 235 0 977.9 NA 0.0000 9999 7970 0 0 0
2019/10/06 19:22:00 BASE 0.79 332 1.49 345 -5.8 70 -10.4 238 0 977.9 NA 0.0000 9999 8070 20280 0 0
2019/10/06 19:23:00 BASE 0.27 326 1.49 345 -5.8 70 -10.4 240 0 977.9 NA 0.0000 9999 8010 0 0 0
2019/10/06 19:24:00 BASE 0.05 315 1.49 345 -5.8 70 -10.5 241 0 977.9 NA 0.0000 9999 8070 0 0 0
2019/10/06 19:25:00 BASE 0.00 304 1.39 345 -5.8 69 -10.5 239 0 977.9 NA 0.0000 9999 8140 0 0 0
2019/10/06 19:26:00 BASE 0.00 277 1.29 337 -5.8 69 -10.6 238 0 977.8 NA 0.0000 9999 8100 0 0 0
2019/10/06 19:27:00 BASE 0.00 249 1.29 337 -5.9 69 -10.7 237 0 977.8 NA 0.0000 9999 8170 0 0 0
2019/10/06 19:28:00 BASE 0.00 241 1.29 337 -5.9 69 -10.7 238 0 977.8 NA 0.0000 9999 8040 20930 0 0
2019/10/06 19:29:00 BASE 0.00 231 1.29 337 -5.9 69 -10.7 237 0 977.8 NA 0.0000 9999 8070 0 0 0
2019/10/06 19:30:00 BASE 0.19 222 1.29 337 -6.0 69 -10.7 236 0 977.8 NA 0.0000 9999 7970 0 0 0
2019/10/06 19:31:00 BASE 0.72 218 1.39 218 -6.0 69 -10.8 235 0 977.7 NA 0.0000 9999 8070 0 0 0
2019/10/06 19:32:00 BASE 0.93 212 1.39 218 -6.0 69 -10.7 234 0 977.7 NA 0.0000 9999 8100 0 0 0
2019/10/06 19:33:00 BASE 1.14 203 1.65 205 -6.0 69 -10.7 234 0 977.7 NA 0.0000 9999 8100 0 0 0
2019/10/06 19:34:00 BASE 1.61 201 1.85 203 -5.9 69 -10.7 232 0 977.7 NA 0.0000 9999 8070 0 0 0
2019/10/06 19:35:00 BASE 1.65 206 1.85 203 -5.9 69 -10.7 230 0 977.7 NA 0.0000 9999 8070 0 0 0
2019/10/06 19:36:00 BASE 1.48 208 1.85 203 -5.9 69 -10.7 228 0 977.7 NA 0.0000 9999 8070 0 0 0
2019/10/06 19:37:00 BASE 1.47 208 1.85 203 -5.9 69 -10.7 227 0 977.7 NA 0.0000 9999 8070 0 0 0
2019/10/06 19:38:00 BASE 1.66 208 1.95 208 -5.9 69 -10.8 225 0 977.7 NA 0.0000 9999 8100 0 0 0
2019/10/06 19:39:00 BASE 1.95 205 2.52 200 -5.9 68 -10.8 222 0 977.7 NA 0.0000 9999 8170 0 0 0
2019/10/06 19:40:00 BASE 2.21 199 2.52 200 -5.9 68 -10.8 220 0 977.6 NA 0.0000 9999 8170 0 0 0
2019/10/06 19:41:00 BASE 2.15 197 2.52 200 -5.9 68 -10.8 219 0 977.6 NA 0.0000 9999 8040 0 0 0
2019/10/06 19:42:00 BASE 1.76 205 2.52 200 -5.9 68 -10.8 218 0 977.6 NA 0.0000 9999 8070 0 0 0
2019/10/06 19:43:00 BASE 1.40 213 2.52 200 -5.9 69 -10.7 219 0 977.6 NA 0.0000 9999 8010 0 0 0
2019/10/06 19:44:00 BASE 0.76 213 2.52 200 -5.9 69 -10.6 219 0 977.6 NA 0.0000 9999 8070 0 0 0
2019/10/06 19:45:00 BASE 0.51 211 2.52 200 -5.9 70 -10.5 219 0 977.6 NA 0.0000 9999 8070 0 0 0
2019/10/06 19:46:00 BASE 1.01 207 2.52 200 -5.9 70 -10.5 218 0 977.6 NA 0.0000 9999 8100 0 0 0
2019/10/06 19:47:00 BASE 1.34 199 2.52 200 -5.9 71 -10.4 218 0 977.5 NA 0.0000 9999 8070 0 0 0
2019/10/06 19:48:00 BASE 1.46 199 2.52 200 -5.9 71 -10.4 220 0 977.4 NA 0.0000 9999 8100 0 0 0
2019/10/06 19:49:00 BASE 1.49 209 2.42 194 -5.9 71 -10.3 220 0 977.4 NA 0.0000 9999 8040 0 0 0
2019/10/06 19:50:00 BASE 1.53 213 2.11 195 -5.9 71 -10.3 220 0 977.4 NA 0.0000 9999 7940 0 0 0
2019/10/06 19:51:00 BASE 1.66 207 1.95 202 -5.9 71 -10.3 220 0 977.4 NA 0.0000 9999 7910 0 0 0
2019/10/06 19:52:00 BASE 1.65 203 1.95 202 -5.9 71 -10.3 217 0 977.4 NA 0.0000 9999 7870 0 0 0
2019/10/06 19:53:00 BASE 1.43 200 1.95 202 -5.9 71 -10.3 215 0 977.4 NA 0.0000 9999 7840 0 0 0
2019/10/06 19:54:00 BASE 1.25 192 1.95 202 -5.9 71 -10.4 213 0 977.4 NA 0.0000 9999 7940 0 0 0
2019/10/06 19:55:00 BASE 0.65 183 1.95 202 -5.9 71 -10.4 211 0 977.4 NA 0.0000 9999 7870 0 0 0
2019/10/06 19:56:00 BASE 0.05 178 1.95 202 -5.9 71 -10.4 212 0 977.4 NA 0.0000 9999 7840 0 0 0
2019/10/06 19:57:00 BASE 0.00 179 1.95 202 -5.9 71 -10.4 213 0 977.4 NA 0.0000 9999 7840 0 0 0
2019/10/06 19:58:00 BASE 0.00 181 1.95 202 -5.9 71 -10.3 211 0 977.4 NA 0.0000 9999 7840 0 0 0
2019/10/06 19:59:00 BASE 0.00 181 1.95 202 -5.8 71 -10.3 209 0 977.3 NA 0.0000 9999 7870 0 0 0
2019/10/06 20:00:00 BASE 0.00 181 1.95 202 -5.8 71 -10.2 210 0 977.3 NA 0.0000 9999 7710 0 0 0
2019/10/06 20:01:00 BASE 0.00 181 1.75 204 -5.7 71 -10.2 212 0 977.3 NA 0.0000 9999 7780 0 0 0
2019/10/06 20:02:00 BASE 0.00 174 1.44 202 -5.7 71 -10.1 217 0 977.3 NA 0.0000 9999 7840 0 0 0
2019/10/06 20:03:00 BASE 0.00 147 1.29 180 -5.7 71 -10.2 211 0 977.3 NA 0.0000 9999 7780 0 0 0
2019/10/06 20:04:00 BASE 0.00 116 1.18 178 -5.7 71 -10.2 211 0 977.3 NA 0.0000 9999 7680 0 0 0
2019/10/06 20:05:00 BASE 0.00 103 M M -5.8 70 -10.3 216 0 977.3 NA 0.0000 9999 7840 0 0 0
2019/10/06 20:06:00 BASE 0.00 102 M M -5.8 70 -10.4 237 0 977.3 NA 0.0000 9999 7870 0 0 0
2019/10/06 20:07:00 BASE 0.00 95 M M -5.8 70 -10.4 255 0 977.3 NA 0.0000 9999 7640 0 0 0
2019/10/06 20:08:00 BASE 0.00 352 M M -5.7 69 -10.4 240 0 977.2 NA 0.0000 9999 7680 0 0 0
2019/10/06 20:09:00 BASE 0.00 306 M M -5.6 69 -10.3 231 0 977.2 NA 0.0000 9999 7810 0 0 0
2019/10/06 20:10:00 BASE 0.00 305 M M -5.5 69 -10.3 251 0 977.2 NA 0.0000 9999 7710 0 0 0
2019/10/06 20:11:00 BASE 0.00 305 M M -5.4 69 -10.3 231 0 977.2 NA 0.0000 9999 7640 0 0 0
2019/10/06 20:12:00 BASE 0.00 305 M M -5.4 68 -10.3 227 0 977.2 NA 0.0000 9999 7710 0 0 0
2019/10/06 20:13:00 BASE 0.00 305 M M -5.4 68 -10.3 239 0 977.2 NA 0.0000 9999 7810 0 0 0
2019/10/06 20:14:00 BASE 0.09 304 1.08 305 -5.4 68 -10.4 267 0 977.2 NA 0.0000 9999 7710 0 0 0
2019/10/06 20:15:00 BASE 0.76 306 1.44 307 -5.3 68 -10.3 228 0 977.2 NA 0.0000 9999 7740 0 0 0
2019/10/06 20:16:00 BASE 1.40 314 1.59 313 -5.3 68 -10.3 249 0 977.2 NA 0.0000 9999 7840 0 0 0
2019/10/06 20:17:00 BASE 1.46 325 1.59 328 -5.3 67 -10.4 205 0 977.1 NA 0.0000 9999 0 0 0 0
2019/10/06 20:18:00 BASE 1.56 332 1.80 333 -5.4 67 -10.5 248 0 977.1 NA 0.0000 9999 7840 0 0 0
2019/10/06 20:19:00 BASE 1.71 336 1.90 336 -5.5 67 -10.6 198 0 977.1 NA 0.0000 9999 7840 0 0 0
2019/10/06 20:20:00 BASE 1.87 336 2.21 336 -5.6 68 -10.6 199 0 977.1 NA 0.0000 9999 0 0 0 0
2019/10/06 20:21:00 BASE 2.25 336 2.73 336 -5.8 69 -10.6 158 0 977.1 NA 0.0000 9999 0 0 0 0
2019/10/06 20:22:00 BASE 2.71 336 3.04 336 -5.8 70 -10.5 172 0 977.1 NA 0.0000 9999 0 0 0 0
2019/10/06 20:23:00 BASE 3.10 335 3.76 332 -5.9 71 -10.4 182 0 977.1 NA 0.0000 9999 0 0 0 0
2019/10/06 20:24:00 BASE 3.65 333 4.22 331 -5.9 72 -10.2 275 0 977.1 NA 0.0000 9999 0 0 0 0
2019/10/06 20:25:00 BASE 4.05 331 4.27 332 -6.0 72 -10.2 334 0 977.1 NA 0.0000 9999 0 0 0 0
2019/10/06 20:26:00 BASE 3.83 327 4.27 332 -6.0 73 -10.1 336 0 977.1 NA 0.0000 9999 0 0 0 0
2019/10/06 20:27:00 BASE 3.24 321 4.27 332 -6.0 73 -10.0 329 0 977.1 NA 0.0000 9999 0 0 0 0
2019/10/06 20:28:00 BASE 2.74 314 4.27 332 -6.0 74 -9.9 322 0 977.0 NA 0.0000 9999 0 0 0 0
2019/10/06 20:29:00 BASE 2.38 306 4.27 332 -5.9 74 -9.8 307 0 977.0 NA 0.0000 9999 0 0 0 0
2019/10/06 20:30:00 BASE 2.17 302 4.27 332 -5.8 75 -9.6 256 0 977.0 NA 0.0000 9999 0 0 0 0
2019/10/06 20:31:00 BASE 2.41 300 4.27 332 -5.8 75 -9.5 218 0 977.0 NA 0.0000 9999 0 0 0 0
2019/10/06 20:32:00 BASE 2.74 303 4.27 332 -5.7 75 -9.5 220 0 977.0 NA 0.0000 9999 0 0 0 0
2019/10/06 20:33:00 BASE 2.72 311 4.27 332 -5.7 74 -9.5 172 0 977.0 NA 0.0000 9999 0 0 0 0
2019/10/06 20:34:00 BASE 2.58 313 4.27 332 -5.7 74 -9.6 138 0 977.0 NA 0.0000 9999 0 0 0 0
2019/10/06 20:35:00 BASE 2.29 313 3.81 324 -5.8 74 -9.7 125 0 977.0 NA 0.0000 9999 0 0 0 0
2019/10/06 20:36:00 BASE 1.87 315 3.19 321 -5.9 73 -9.9 119 0 977.0 NA 0.0000 9999 0 0 0 0
2019/10/06 20:37:00 BASE 1.71 315 2.88 310 -5.9 73 -10.0 115 0 977.0 NA 0.0000 9999 0 0 0 0
2019/10/06 20:38:00 BASE 1.80 312 2.88 310 -5.9 73 -10.0 108 0 977.0 NA 0.0000 9999 0 0 0 0
2019/10/06 20:39:00 BASE 1.69 307 2.88 310 -5.9 72 -10.0 105 0 977.0 NA 0.0000 9999 0 0 0 0
2019/10/06 20:40:00 BASE 1.51 309 2.88 310 -5.9 72 -10.1 102 0 977.0 NA 0.0000 9999 0 0 0 0
2019/10/06 20:41:00 BASE 1.38 315 2.88 310 -5.9 72 -10.1 100 0 976.9 NA 0.0000 9999 0 0 0 0
2019/10/06 20:42:00 BASE 1.35 321 2.78 314 -5.9 72 -10.1 98 0 976.9 NA 0.0000 9999 0 0 0 0
2019/10/06 20:43:00 BASE 1.41 326 2.62 313 -5.9 72 -10.1 96 0 977.0 NA 0.0000 9999 0 0 0 0
2019/10/06 20:44:00 BASE 1.53 326 2.31 314 -5.9 72 -10.2 96 0 977.0 NA 0.0000 9999 0 0 0 0
2019/10/06 20:45:00 BASE 1.66 324 2.06 313 -5.9 72 -10.2 95 0 977.0 NA 0.0000 9999 0 0 0 0
2019/10/06 20:46:00 BASE 1.88 322 2.31 321 -5.9 72 -10.2 93 0 977.0 NA 0.0000 9999 0 0 0 0
2019/10/06 20:47:00 BASE 2.14 319 2.31 318 -5.9 72 -10.2 92 0 977.0 NA 0.0000 9999 8270 0 0 0
2019/10/06 20:48:00 BASE 2.24 318 2.42 319 -5.9 72 -10.2 92 0 977.0 NA 0.0000 9999 8170 0 0 0
2019/10/06 20:49:00 BASE 2.15 316 2.42 319 -5.9 72 -10.2 92 0 977.0 NA 0.0000 9999 8070 0 0 0
2019/10/06 20:50:00 BASE 1.92 319 2.42 319 -5.9 72 -10.2 93 0 977.0 NA 0.0000 9999 8070 0 0 0
2019/10/06 20:51:00 BASE 1.69 324 2.42 319 -5.9 72 -10.2 94 0 977.0 NA 0.0000 9999 8140 0 0 0
2019/10/06 20:52:00 BASE 1.64 330 2.42 319 -6.0 72 -10.2 96 0 977.0 NA 0.0000 9999 8240 0 0 0
2019/10/06 20:53:00 BASE 1.77 338 2.42 319 -6.0 72 -10.2 94 0 976.9 NA 0.0000 9999 8200 0 0 0
2019/10/06 20:54:00 BASE 1.93 343 2.42 319 -6.0 72 -10.2 89 0 976.8 NA 0.0000 9999 8140 0 0 0
2019/10/06 20:55:00 BASE 2.06 345 2.42 319 -6.1 72 -10.2 85 0 976.8 NA 0.0000 9999 8100 0 0 0
2019/10/06 20:56:00 BASE 2.29 345 2.68 338 -6.1 73 -10.2 82 0 976.8 NA 0.0000 9999 8040 0 0 0
2019/10/06 20:57:00 BASE 2.65 341 2.98 337 -6.1 73 -10.2 79 0 976.8 NA 0.0000 9999 7970 0 0 0
2019/10/06 20:58:01 BASE 2.91 338 3.14 338 -6.2 74 -10.1 79 0 976.8 NA 0.0000 9999 8010 0 0 0
2019/10/06 20:59:01 BASE 3.00 339 3.19 340 -6.2 74 -10.1 79 0 976.8 NA 0.0000 9999 8070 0 0 0
2019/10/06 21:00:01 BASE 3.09 343 3.24 345 -6.3 75 -10.0 80 0 976.8 NA 0.0000 9999 8070 0 0 0
2019/10/06 21:01:01 BASE 3.24 348 3.45 349 -6.3 75 -10.0 80 0 976.8 NA 0.0000 9999 8100 0 0 0
2019/10/06 21:02:01 BASE 3.29 350 3.45 349 -6.3 75 -10.0 80 0 976.8 NA 0.0000 9999 7970 0 0 0
2019/10/06 21:03:01 BASE 3.10 349 3.45 349 -6.3 76 -9.9 80 0 976.8 NA 0.0000 9999 7970 0 0 0
2019/10/06 21:04:01 BASE 2.70 348 3.45 349 -6.4 76 -9.9 80 0 976.8 NA 0.0000 9999 7970 0 0 0
2019/10/06 21:05:00 BASE 2.34 347 3.45 349 -6.4 76 -9.9 80 0 976.8 NA 0.0000 9999 8010 0 0 0
2019/10/06 21:06:00 BASE 2.16 347 3.45 349 -6.4 76 -9.9 80 0 976.8 NA 0.0000 9999 7910 0 0 0
2019/10/06 21:07:00 BASE 2.12 351 3.45 349 -6.4 76 -9.9 80 0 976.8 NA 0.0000 9999 8010 0 0 0
2019/10/06 21:08:00 BASE 2.16 354 3.45 349 -6.4 76 -9.9 80 0 976.8 NA 0.0000 9999 7910 0 0 0
2019/10/06 21:09:00 BASE 2.04 356 3.45 349 -6.4 76 -9.9 79 0 976.8 NA 0.0000 9999 7870 0 0 0
2019/10/06 21:10:00 BASE 1.64 8 3.45 349 -6.4 76 -9.9 79 0 976.8 NA 0.0000 9999 8010 0 0 0
2019/10/06 21:11:00 BASE 1.36 22 3.40 350 -6.4 76 -9.9 77 0 976.8 NA 0.0000 9999 7840 0 0 0
2019/10/06 21:12:00 BASE 1.27 22 3.14 348 -6.4 76 -9.9 75 0 976.7 NA 0.0000 9999 8010 0 0 0
2019/10/06 21:13:00 BASE 1.30 16 2.62 348 -6.4 76 -9.9 73 0 976.7 NA 0.0000 9999 8010 0 0 0
2019/10/06 21:14:00 BASE 1.30 18 2.26 354 -6.4 77 -9.8 71 0 976.7 NA 0.0000 9999 8010 0 0 0
2019/10/06 21:15:00 BASE 1.13 25 2.26 354 -6.4 77 -9.8 70 0 976.7 NA 0.0000 9999 7970 0 0 0
2019/10/06 21:16:00 BASE 1.27 30 2.26 354 -6.4 77 -9.7 68 0 976.7 NA 0.0000 9999 7940 0 0 0
2019/10/06 21:17:00 BASE 1.35 36 2.26 354 -6.4 77 -9.7 67 0 976.7 NA 0.0000 9999 7970 0 0 0
2019/10/06 21:18:00 BASE 0.84 38 2.11 354 -6.3 77 -9.7 66 0 976.7 NA 0.0000 9999 7940 0 0 0
2019/10/06 21:19:00 BASE 0.80 31 1.80 12 -6.3 77 -9.7 64 0 976.7 NA 0.0000 9999 7970 0 0 0
2019/10/06 21:20:00 BASE 1.21 28 1.80 12 -6.3 77 -9.6 62 0 976.7 NA 0.0000 9999 7870 0 0 0
2019/10/06 21:21:00 BASE 1.05 33 1.80 12 -6.2 77 -9.6 61 0 976.7 NA 0.0000 9999 7940 0 0 0
2019/10/06 21:22:00 BASE 0.69 31 1.80 12 -6.2 77 -9.6 59 0 976.7 NA 0.0000 9999 7910 0 0 0
2019/10/06 21:23:00 BASE 0.80 26 1.80 12 -6.2 77 -9.6 57 0 976.7 NA 0.0000 9999 8040 0 0 0
2019/10/06 21:24:00 BASE 1.30 25 1.95 29 -6.2 77 -9.6 56 0 976.7 NA 0.0000 9999 7870 0 0 0
2019/10/06 21:25:00 BASE 1.56 18 1.95 29 -6.2 77 -9.6 55 0 976.7 NA 0.0000 9999 7840 0 0 0
2019/10/06 21:26:00 BASE 1.66 15 1.95 7 -6.2 76 -9.7 54 0 976.7 NA 0.0000 9999 7940 0 0 0
2019/10/06 21:27:00 BASE 1.71 20 1.95 17 -6.2 76 -9.7 53 0 976.7 NA 0.0000 9999 7940 0 0 0
2019/10/06 21:28:00 BASE 1.62 28 1.95 17 -6.2 76 -9.7 53 0 976.7 NA 0.0000 9999 7870 0 0 0
2019/10/06 21:29:00 BASE 1.33 32 1.95 17 -6.2 76 -9.8 52 0 976.7 NA 0.0000 9999 7910 0 0 0
2019/10/06 21:30:00 BASE 0.83 35 1.95 17 -6.2 76 -9.7 51 0 976.7 NA 0.0000 9999 7840 0 0 0
2019/10/06 21:31:00 BASE 0.67 35 1.95 17 -6.2 76 -9.7 50 0 976.7 NA 0.0000 9999 7970 0 0 0
2019/10/06 21:32:00 BASE 1.24 25 2.11 15 -6.2 77 -9.7 49 0 976.7 NA 0.0000 9999 7940 0 0 0
2019/10/06 21:33:00 BASE 1.75 18 2.11 14 -6.2 77 -9.6 48 0 976.7 NA 0.0000 9999 7940 0 0 0
2019/10/06 21:34:00 BASE 1.75 23 2.11 14 -6.2 77 -9.6 46 0 976.7 NA 0.0000 9999 7970 0 0 0
2019/10/06 21:35:00 BASE 1.53 29 2.11 14 -6.2 77 -9.6 45 0 976.7 NA 0.0000 9999 7840 0 0 0
2019/10/06 21:36:00 BASE 1.32 36 2.11 14 -6.2 77 -9.6 44 0 976.7 NA 0.0000 9999 7870 0 0 0
2019/10/06 21:37:00 BASE 1.40 38 2.11 14 -6.2 76 -9.6 43 0 976.7 NA 0.0000 9999 7970 0 0 0
2019/10/06 21:38:00 BASE 1.59 39 2.11 14 -6.1 76 -9.6 43 0 976.7 NA 0.0000 9999 7910 0 0 0
2019/10/06 21:39:00 BASE 1.67 38 2.11 14 -6.1 76 -9.7 43 0 976.7 NA 0.0000 9999 7940 0 0 0
2019/10/06 21:40:00 BASE 1.67 34 2.11 14 -6.1 76 -9.7 43 0 976.6 NA 0.0000 9999 7940 0 0 0
2019/10/06 21:41:00 BASE 1.62 36 2.11 30 -6.1 76 -9.7 44 0 976.7 NA 0.0000 9999 7910 0 0 0
2019/10/06 21:42:00 BASE 1.51 39 2.11 30 -6.1 75 -9.7 44 0 976.7 NA 0.0000 9999 7940 0 0 0
2019/10/06 21:43:00 BASE 1.49 40 2.11 30 -6.1 75 -9.8 45 0 976.7 NA 0.0000 9999 7910 0 0 0
2019/10/06 21:44:00 BASE 1.81 41 2.26 35 -6.1 75 -9.8 45 0 976.7 NA 0.0000 9999 7910 0 0 0
2019/10/06 21:45:00 BASE 1.80 39 2.26 35 -6.1 74 -9.9 45 0 976.7 NA 0.0000 9999 7870 0 0 0
2019/10/06 21:46:00 BASE 1.66 29 2.26 35 -6.0 73 -10.0 44 0 976.7 NA 0.0000 9999 7870 0 0 0
2019/10/06 21:47:00 BASE 1.71 22 2.26 24 -6.0 72 -10.2 43 0 976.7 NA 0.0000 9999 7970 0 0 0
2019/10/06 21:48:00 BASE 2.03 16 2.52 3 -5.9 71 -10.3 42 0 976.7 NA 0.0000 9999 7910 0 0 0
2019/10/06 21:49:00 BASE 2.44 8 2.83 11 -5.9 71 -10.4 41 0 976.7 NA 0.0000 9999 7940 0 0 0
2019/10/06 21:50:00 BASE 2.57 9 2.88 4 -5.9 70 -10.5 40 0 976.7 NA 0.0000 9999 7870 0 0 0
2019/10/06 21:51:00 BASE 2.48 3 2.88 4 -5.9 70 -10.5 39 0 976.6 NA 0.0000 9999 7910 9320 0 0
2019/10/06 21:52:00 BASE 2.07 3 2.88 4 -6.0 70 -10.5 38 0 976.6 NA 0.0000 9999 8010 0 0 0
2019/10/06 21:53:00 BASE 1.34 16 2.88 4 -6.0 70 -10.5 37 0 976.7 NA 0.0000 9999 8040 0 0 0
2019/10/06 21:54:00 BASE 0.43 34 2.88 4 -6.0 71 -10.5 36 0 976.7 NA 0.0000 9999 7940 0 0 0
2019/10/06 21:55:00 BASE 0.00 43 2.88 4 -6.0 71 -10.5 35 0 976.6 NA 0.0000 9999 8010 0 0 0
2019/10/06 21:56:00 BASE 0.00 45 2.88 4 -6.0 71 -10.4 34 0 976.7 NA 0.0000 9999 7940 0 0 0
2019/10/06 21:57:00 BASE 0.00 45 2.88 4 -6.0 71 -10.4 33 0 976.7 NA 0.0000 9999 7970 0 0 0
2019/10/06 21:58:00 BASE 0.00 45 2.88 4 -5.9 71 -10.4 32 0 976.7 NA 0.0000 9999 7970 0 0 0
2019/10/06 21:59:00 BASE 0.00 41 2.88 4 -5.9 70 -10.5 31 0 976.7 NA 0.0000 9999 7970 0 0 0
2019/10/06 22:00:00 BASE 0.00 29 2.52 353 -5.9 70 -10.5 31 0 976.7 NA 0.0000 9999 7970 0 0 0
2019/10/06 22:01:00 BASE 0.00 19 2.31 6 -5.9 69 -10.6 30 0 976.7 NA 0.0000 9999 8010 0 0 0
2019/10/06 22:02:00 BASE 0.00 18 1.44 44 -5.9 69 -10.7 30 0 976.7 NA 0.0000 9999 8010 0 0 0
2019/10/06 22:03:00 BASE 0.71 15 1.70 11 -5.9 68 -10.8 29 0 976.7 NA 0.0000 9999 7970 0 0 0
2019/10/06 22:04:00 BASE 1.74 11 2.31 10 -5.8 68 -10.8 29 0 976.7 NA 0.0000 9999 7970 0 0 0
2019/10/06 22:05:00 BASE 2.17 9 2.37 8 -5.8 67 -10.9 28 0 976.7 NA 0.0000 9999 8010 0 0 0
2019/10/06 22:06:00 BASE 2.31 8 2.42 8 -5.8 67 -11.0 28 0 976.7 NA 0.0000 9999 8010 0 0 0
2019/10/06 22:07:00 BASE 2.29 10 2.47 11 -5.8 66 -11.1 27 0 976.7 NA 0.0000 9999 8040 0 0 0
2019/10/06 22:08:00 BASE 2.28 12 2.47 11 -5.8 66 -11.1 27 0 976.7 NA 0.0000 9999 8040 0 0 0
2019/10/06 22:09:00 BASE 2.23 16 2.47 11 -5.8 66 -11.1 26 0 976.7 NA 0.0000 9999 8040 0 0 0
2019/10/06 22:10:00 BASE 1.97 23 2.47 11 -5.8 66 -11.1 25 0 976.7 NA 0.0000 9999 8010 0 0 0
2019/10/06 22:11:00 BASE 1.49 31 2.47 11 -5.8 66 -11.1 25 0 976.7 NA 0.0000 9999 8040 0 0 0
2019/10/06 22:12:00 BASE 1.21 42 2.47 11 -5.9 67 -11.1 24 0 976.7 NA 0.0000 9999 8010 0 0 0
2019/10/06 22:13:00 BASE 1.41 50 2.47 11 -5.9 67 -11.1 23 0 976.7 NA 0.0000 9999 8010 0 0 0
2019/10/06 22:14:00 BASE 1.65 51 2.47 11 -5.9 68 -11.0 22 0 976.7 NA 0.0000 9999 8010 0 0 0
2019/10/06 22:15:00 BASE 1.68 50 2.47 11 -5.9 68 -10.9 22 0 976.7 NA 0.0000 9999 9350 0 0 0
2019/10/06 22:16:00 BASE 1.57 41 2.47 11 -6.0 69 -10.7 21 0 976.7 NA 0.0000 9999 9320 0 0 0
2019/10/06 22:17:00 BASE 1.43 26 2.42 14 -6.0 70 -10.5 21 0 976.7 NA 0.0000 9999 9380 0 0 0
2019/10/06 22:18:00 BASE 1.35 17 2.37 16 -6.0 71 -10.4 20 0 976.7 NA 0.0000 9999 9350 0 0 0
2019/10/06 22:19:00 BASE 1.29 10 2.06 27 -6.1 72 -10.2 20 0 976.7 NA 0.0000 9999 9380 0 0 0
2019/10/06 22:20:00 BASE 1.16 8 1.80 51 -6.1 73 -10.1 19 0 976.7 NA 0.0000 9999 9350 0 0 0
2019/10/06 22:21:00 BASE 1.08 13 1.80 51 -6.2 74 -10.1 19 0 976.7 NA 0.0000 9999 9580 0 0 0
2019/10/06 22:22:00 BASE 1.05 16 1.80 51 -6.2 74 -10.0 19 0 976.7 NA 0.0000 9999 9610 0 0 0
2019/10/06 22:23:00 BASE 1.11 19 1.80 51 -6.2 75 -10.0 18 0 976.7 NA 0.0000 9999 9580 0 0 0
2019/10/06 22:24:00 BASE 1.28 20 1.75 49 -6.2 75 -10.0 18 0 976.7 NA 0.0000 9999 9420 0 0 0
2019/10/06 22:25:00 BASE 1.47 14 1.70 37 -6.2 75 -9.9 18 0 976.7 NA 0.0000 9999 9510 0 0 0
2019/10/06 22:26:00 BASE 1.58 6 1.70 1 -6.2 75 -9.9 17 0 976.7 NA 0.0000 9999 9580 0 0 0
2019/10/06 22:27:00 BASE 1.63 1 1.75 1 -6.2 75 -10.0 17 0 976.7 NA 0.0000 9999 0 0 0 0
2019/10/06 22:28:00 BASE 1.71 360 1.85 1 -6.2 75 -10.0 16 0 976.7 NA 0.0000 9999 0 0 0 0
2019/10/06 22:29:00 BASE 1.76 1 1.85 1 -6.2 74 -10.0 16 0 976.7 NA 0.0000 9999 0 0 0 0
2019/10/06 22:30:00 BASE 1.74 1 1.85 2 -6.2 74 -10.1 16 0 976.7 NA 0.0000 9999 0 0 0 0
2019/10/06 22:31:00 BASE 1.57 357 1.85 2 -6.2 74 -10.1 15 0 976.7 NA 0.0000 9999 0 0 0 0
2019/10/06 22:32:00 BASE 1.47 347 1.85 2 -6.2 74 -10.1 15 0 976.7 NA 0.0000 9999 9320 0 0 0
2019/10/06 22:33:00 BASE 1.52 340 1.85 2 -6.2 74 -10.2 15 0 976.7 NA 0.0000 9999 9120 0 0 0
2019/10/06 22:34:00 BASE 1.48 338 1.85 2 -6.2 73 -10.2 14 0 976.7 NA 0.0000 9999 9220 0 0 0
2019/10/06 22:35:00 BASE 1.63 336 2.01 332 -6.2 73 -10.3 14 0 976.7 NA 0.0000 9999 8300 9290 0 0
2019/10/06 22:36:00 BASE 1.94 330 2.11 324 -6.2 72 -10.3 14 0 976.7 NA 0.0000 9999 9320 0 0 0
2019/10/06 22:37:00 BASE 2.03 327 2.11 324 -6.1 72 -10.4 14 0 976.7 NA 0.0000 9999 8400 9250 0 0
2019/10/06 22:38:00 BASE 1.98 330 2.11 332 -6.1 72 -10.4 13 0 976.7 NA 0.0000 9999 8920 0 0 0
2019/10/06 22:39:00 BASE 1.97 333 2.11 332 -6.0 71 -10.3 13 0 976.8 NA 0.0000 9999 8760 0 0 0
2019/10/06 22:40:00 BASE 1.94 338 2.11 332 -6.0 71 -10.3 13 0 976.8 NA 0.0000 9999 8790 0 0 0
2019/10/06 22:41:00 BASE 1.86 342 2.11 332 -5.9 71 -10.3 12 0 976.7 NA 0.0000 9999 8730 0 0 0
2019/10/06 22:42:00 BASE 1.82 353 2.11 332 -5.9 72 -10.3 12 0 976.7 NA 0.0000 9999 8690 9250 0 0
2019/10/06 22:43:00 BASE 1.73 3 2.11 332 -6.0 72 -10.2 12 0 976.7 NA 0.0000 9999 9020 0 0 0
2019/10/06 22:44:00 BASE 1.56 3 2.11 332 -6.0 72 -10.2 11 0 976.8 NA 0.0000 9999 8600 0 0 0
2019/10/06 22:45:00 BASE 1.52 3 2.11 332 -6.0 72 -10.2 11 0 976.8 NA 0.0000 9999 8500 8960 0 0
2019/10/06 22:46:00 BASE 1.50 10 2.11 332 -6.0 72 -10.2 10 0 976.8 NA 0.0000 9999 8430 9020 0 0
2019/10/06 22:47:00 BASE 1.45 13 2.11 332 -6.0 72 -10.2 9 0 976.8 NA 0.0000 9999 8430 0 0 0
2019/10/06 22:48:00 BASE 1.54 8 2.06 336 -6.0 72 -10.2 9 0 976.8 NA 0.0000 9999 0 0 0 0
2019/10/06 22:49:00 BASE 1.99 359 2.93 349 -6.0 72 -10.2 8 0 976.8 NA 0.0000 9999 9450 0 0 0
2019/10/06 22:50:00 BASE 2.62 350 3.09 348 -6.0 72 -10.3 8 0 976.8 NA 0.0000 9999 9290 0 0 0
2019/10/06 22:51:00 BASE 2.86 345 3.09 348 -6.0 72 -10.3 8 0 976.8 NA 0.0000 9999 9250 0 0 0
2019/10/06 22:52:00 BASE 2.87 345 3.09 348 -6.1 72 -10.3 7 0 976.8 NA 0.0000 9999 9510 0 0 0
2019/10/06 22:53:00 BASE 3.00 349 3.19 350 -6.1 72 -10.4 7 0 976.8 NA 0.0000 9999 9380 0 0 0
2019/10/06 22:54:00 BASE 3.10 351 3.19 351 -6.1 71 -10.5 6 0 976.8 NA 0.0000 9999 9250 0 0 0
2019/10/06 22:55:00 BASE 3.04 350 3.19 351 -6.2 71 -10.5 6 0 976.8 NA 0.0000 9999 9350 0 0 0
2019/10/06 22:56:00 BASE 2.95 349 3.19 350 -6.2 71 -10.6 5 0 976.8 NA 0.0000 9999 9380 0 0 0
2019/10/06 22:57:00 BASE 3.04 348 3.45 350 -6.2 71 -10.6 5 0 976.8 NA 0.0000 9999 8530 8920 9480 0
2019/10/06 22:58:00 BASE 3.37 350 3.81 350 -6.3 71 -10.6 4 0 976.8 NA 0.0000 9999 15680 0 0 0
2019/10/06 22:59:00 BASE 3.70 352 4.01 348 -6.3 72 -10.6 4 0 976.8 NA 0.0000 9999 15720 0 0 0
2019/10/06 23:00:00 BASE 3.75 355 4.01 348 -6.4 72 -10.7 4 0 976.8 NA 0.0000 9999 15550 0 0 0
2019/10/06 23:01:00 BASE 3.42 356 4.01 348 -6.4 72 -10.7 3 0 976.8 NA 0.0000 9999 15550 0 0 0
2019/10/06 23:02:00 BASE 3.08 352 4.01 348 -6.4 72 -10.7 3 0 976.8 NA 0.0000 9999 16340 0 0 0
2019/10/06 23:03:00 BASE 3.08 350 4.01 348 -6.5 72 -10.7 3 0 976.8 NA 0.0000 9999 0 0 0 0
2019/10/06 23:04:00 BASE 2.86 355 4.01 348 -6.5 71 -10.8 2 0 976.8 NA 0.0000 9999 16370 0 0 0
2019/10/06 23:05:00 BASE 2.39 353 4.01 348 -6.5 71 -10.9 2 0 976.8 NA 0.0000 9999 0 0 0 0
2019/10/06 23:06:00 BASE 2.02 345 4.01 348 -6.6 71 -10.9 2 0 976.8 NA 0.0000 9999 16470 0 0 0
2019/10/06 23:07:00 BASE 1.69 343 4.01 348 -6.5 71 -10.9 2 0 976.8 NA 0.0000 9999 16570 0 0 0
2019/10/06 23:08:00 BASE 1.58 345 4.01 348 -6.4 70 -10.9 2 0 976.8 NA 0.0000 9999 0 0 0 0
2019/10/06 23:09:00 BASE 1.48 352 3.91 1 -6.2 69 -11.0 2 0 976.8 NA 0.0000 9999 0 0 0 0
2019/10/06 23:10:00 BASE 1.14 360 3.76 109 -6.1 68 -11.0 1 0 976.8 NA 0.0000 9999 9610 0 0 0
2019/10/06 23:11:00 BASE 0.87 4 3.40 2 -5.9 67 -11.2 1 0 976.8 NA 0.0000 9999 0 0 0 0
2019/10/06 23:12:00 BASE 1.29 7 3.40 2 -5.9 65 -11.3 1 0 976.8 NA 0.0000 9999 0 0 0 0
2019/10/06 23:13:00 BASE 1.93 13 2.93 354 -5.9 64 -11.5 1 0 976.8 NA 0.0000 9999 9380 0 0 0
2019/10/06 23:14:00 BASE 1.61 22 2.78 13 -5.8 64 -11.6 1 0 976.8 NA 0.0000 9999 0 0 0 0
2019/10/06 23:15:00 BASE 0.60 37 2.78 13 -5.9 63 -11.7 1 0 976.8 NA 0.0000 9999 0 0 0 0
2019/10/06 23:16:00 BASE 0.04 52 2.78 13 -5.9 63 -11.7 1 0 976.8 NA 0.0000 9999 0 0 0 0
2019/10/06 23:17:00 BASE 0.00 43 2.78 13 -5.9 63 -11.8 1 0 976.8 NA 0.0000 9999 0 0 0 0
2019/10/06 23:18:00 BASE 0.00 34 2.78 13 -5.9 63 -11.7 1 0 976.8 NA 0.0000 9999 0 0 0 0
2019/10/06 23:19:00 BASE 0.53 45 2.78 13 -5.9 64 -11.7 1 0 976.8 NA 0.0000 9999 0 0 0 0
2019/10/06 23:20:00 BASE 1.21 44 2.78 13 -6.0 64 -11.8 0 0 976.8 NA 0.0000 9999 0 0 0 0
2019/10/06 23:21:00 BASE 1.12 28 2.78 13 -6.0 64 -11.8 0 0 976.8 NA 0.0000 9999 0 0 0 0
2019/10/06 23:22:00 BASE 1.10 16 2.42 15 -6.0 63 -11.8 0 0 976.8 NA 0.0000 9999 0 0 0 0
2019/10/06 23:23:00 BASE 0.75 27 1.85 23 -6.0 63 -12.0 0 0 976.8 NA 0.0000 9999 0 0 0 0
2019/10/06 23:24:00 BASE 0.79 39 2.11 39 -6.0 62 -12.0 0 0 976.8 NA 0.0000 9999 0 0 0 0
2019/10/06 23:25:00 BASE 1.58 41 2.21 50 -5.9 62 -12.0 0 0 976.8 NA 0.0000 9999 0 0 0 0
2019/10/06 23:26:00 BASE 1.65 42 2.21 50 -5.9 62 -12.1 0 0 976.8 NA 0.0000 9999 0 0 0 0
2019/10/06 23:27:00 BASE 1.55 43 2.21 50 -5.9 61 -12.1 0 0 976.8 NA 0.0000 9999 0 0 0 0
2019/10/06 23:28:00 BASE 1.58 45 2.21 50 -5.8 61 -12.1 0 0 976.8 NA 0.0000 9999 0 0 0 0
2019/10/06 23:29:00 BASE 1.40 39 2.21 50 -5.8 61 -12.2 0 0 976.8 NA 0.0000 9999 0 0 0 0
2019/10/06 23:30:00 BASE 1.37 29 2.21 50 -5.7 60 -12.3 0 0 976.8 NA 0.0000 9999 0 0 0 0
2019/10/06 23:31:00 BASE 1.86 32 2.68 47 -5.8 60 -12.4 0 0 976.8 NA 0.0000 9999 0 0 0 0
2019/10/06 23:32:00 BASE 2.44 45 3.09 54 -5.8 59 -12.4 0 0 976.8 NA 0.0000 9999 0 0 0 0
2019/10/06 23:33:00 BASE 2.80 54 3.34 54 -5.8 59 -12.5 0 0 976.8 NA 0.0000 9999 0 0 0 0
2019/10/06 23:34:00 BASE 2.78 56 3.34 54 -5.9 59 -12.5 0 0 976.8 NA 0.0000 9999 0 0 0 0
2019/10/06 23:35:00 BASE 2.55 52 3.34 54 -5.9 60 -12.5 0 0 976.8 NA 0.0000 9999 0 0 0 0
2019/10/06 23:36:00 BASE 2.51 51 3.34 54 -5.9 60 -12.5 0 0 976.8 NA 0.0000 9999 0 0 0 0
2019/10/06 23:37:00 BASE 2.87 52 3.45 52 -5.9 60 -12.4 0 0 976.8 NA 0.0000 9999 0 0 0 0
2019/10/06 23:38:00 BASE 3.32 51 3.76 51 -5.9 60 -12.4 0 0 976.8 NA 0.0000 9999 0 0 0 0
2019/10/06 23:39:00 BASE 3.39 53 3.76 55 -5.9 60 -12.4 0 0 976.8 NA 0.0000 9999 0 0 0 0
2019/10/06 23:40:00 BASE 3.04 60 3.76 55 -5.9 60 -12.4 0 0 976.8 NA 0.0000 9999 0 0 0 0
2019/10/06 23:41:00 BASE 2.72 69 3.76 55 -5.8 60 -12.4 0 0 976.8 NA 0.0000 9999 0 0 0 0
2019/10/06 23:42:00 BASE 2.78 78 3.76 55 -5.8 60 -12.4 0 0 976.8 NA 0.0000 9999 0 0 0 0
2019/10/06 23:43:00 BASE 2.70 79 3.76 55 -5.7 59 -12.4 0 0 976.8 NA 0.0000 9999 0 0 0 0
2019/10/06 23:44:00 BASE 2.33 70 3.76 55 -5.7 59 -12.4 0 0 976.8 NA 0.0000 9999 0 0 0 0
2019/10/06 23:45:00 BASE 2.26 63 3.76 55 -5.6 58 -12.5 0 0 976.8 NA 0.0000 9999 0 0 0 0
2019/10/06 23:46:00 BASE 2.57 61 3.76 55 -5.5 58 -12.6 0 0 976.8 NA 0.0000 9999 0 0 0 0
2019/10/06 23:47:00 BASE 2.99 62 3.76 55 -5.5 57 -12.7 0 0 976.8 NA 0.0000 9999 0 0 0 0
2019/10/06 23:48:00 BASE 3.08 63 3.76 55 -5.5 57 -12.7 0 0 976.8 NA 0.0000 9999 0 0 0 0
2019/10/06 23:49:00 BASE 2.84 65 3.45 62 -5.5 56 -12.8 0 0 976.8 NA 0.0000 9999 0 0 0 0
2019/10/06 23:50:00 BASE 2.69 67 3.45 62 -5.5 56 -12.9 0 0 976.8 NA 0.0000 9999 0 0 0 0
2019/10/06 23:51:00 BASE 2.61 67 3.45 62 -5.5 56 -12.9 0 0 976.8 NA 0.0000 9999 0 0 0 0
2019/10/06 23:52:00 BASE 2.43 70 3.45 62 -5.5 56 -12.9 0 0 976.8 NA 0.0000 9999 0 0 0 0
2019/10/06 23:53:00 BASE 2.33 75 3.45 62 -5.4 56 -12.9 0 0 976.8 NA 0.0000 9999 0 0 0 0
2019/10/06 23:54:00 BASE 2.36 76 3.45 62 -5.4 55 -13.0 0 0 976.8 NA 0.0000 9999 0 0 0 0
2019/10/06 23:55:00 BASE 2.25 78 3.45 62 -5.4 55 -13.0 0 0 976.8 NA 0.0000 9999 0 0 0 0
2019/10/06 23:56:00 BASE 1.97 82 3.45 62 -5.4 55 -13.0 0 0 976.8 NA 0.0000 9999 0 0 0 0
2019/10/06 23:57:00 BASE 1.90 89 3.24 55 -5.4 55 -13.0 0 0 976.8 NA 0.0000 9999 0 0 0 0
2019/10/06 23:58:00 BASE 2.01 109 2.98 63 -5.4 55 -13.1 0 0 976.8 NA 0.0000 9999 0 0 0 0
2019/10/06 23:59:00 BASE 1.83 126 2.83 66 -5.5 55 -13.1 0 0 976.8 NA 0.0000 9999 0 0 0 0